Provisional Data: Choconut Creek near Vestal Center, NY


Please select a monitoring station.
Please select start date.
Please select start date.

Toggle Unit: C/F Toggle Unit: C/F
Sample Time Temperature (C) Temperature (F) Specific Conductivity (mS/cm) pH   Turbidity (NTU+) DO (mg/L)
2/4/2021 12:00:00 AM 0.06 32.108 0.1 7.24 4.12 13.54
2/4/2021 12:15:00 AM 0.06 32.108 0.102 7.24 4.56 13.54
2/4/2021 12:30:00 AM 0.06 32.108 0.102 7.24 4.23 13.53
2/4/2021 12:45:00 AM 0.05 32.09 0.101 7.24 4.16 13.53
2/4/2021 1:00:00 AM 0.05 32.09 0.102 7.24 4.13 13.53
2/4/2021 1:15:00 AM 0.05 32.09 0.102 7.24 4.31 13.53
2/4/2021 1:30:00 AM 0.05 32.09 0.101 7.23 4.25 13.53
2/4/2021 1:45:00 AM 0.05 32.09 0.101 7.23 4.18 13.53
2/4/2021 2:00:00 AM 0.05 32.09 0.103 7.23 4.33 13.53
2/4/2021 2:15:00 AM 0.05 32.09 0.1 7.23 4.12 13.53
2/4/2021 2:30:00 AM 0.05 32.09 0.103 7.24 4.11 13.53
2/4/2021 2:45:00 AM 0.05 32.09 0.104 7.23 4.8 13.53
2/4/2021 3:00:00 AM 0.04 32.072 0.101 7.23 4.2 13.53
2/4/2021 3:15:00 AM 0.04 32.072 0.1 7.23 4.82 13.53
2/4/2021 3:30:00 AM 0.03 32.054 0.101 7.23 4.31 13.53
2/4/2021 3:45:00 AM 0.03 32.054 0.1 7.23 3.98 13.53
2/4/2021 4:00:00 AM 0.02 32.036 0.102 7.23 4.57 13.53
2/4/2021 4:15:00 AM 0.02 32.036 0.102 7.23 4.63 13.54
2/4/2021 4:30:00 AM 0.01 32.018 0.103 7.23 4.11 13.54
2/4/2021 4:45:00 AM 0.01 32.018 0.101 7.23 4.25 13.53
2/4/2021 5:00:00 AM 0.01 32.018 0.101 7.23 4.08 13.54
2/4/2021 5:15:00 AM 0 32 0.102 7.23 4.3 13.55
2/4/2021 5:30:00 AM 0 32 0.102 7.23 4.1 13.55
2/4/2021 5:45:00 AM 0 32 0.103 7.23 4.53 13.55
2/4/2021 6:00:00 AM 0 32 0.101 7.22 4.45 13.55
2/4/2021 6:15:00 AM 0.01 32.018 0.102 7.22 4.11 13.56
2/4/2021 6:30:00 AM 0.02 32.036 0.102 7.22 4.32 13.56
2/4/2021 6:45:00 AM 0.03 32.054 0.101 7.23 4.28 13.56
2/4/2021 7:00:00 AM 0.03 32.054 0.103 7.22 4.16 13.55
2/4/2021 7:15:00 AM 0.04 32.072 0.101 7.22 4.13 13.56
2/4/2021 7:30:00 AM 0.04 32.072 0.101 7.22 4.3 13.56
2/4/2021 7:45:00 AM 0.05 32.09 0.103 7.22 4.27 13.57
2/4/2021 8:00:00 AM 0.05 32.09 0.104 7.24 4.37 13.59
2/4/2021 8:15:00 AM 0.06 32.108 0.103 7.24 4.71 13.62
2/4/2021 8:30:00 AM 0.07 32.126 0.103 7.25 5.14 13.65
2/4/2021 8:45:00 AM 0.07 32.126 0.103 7.26 4.29 13.68
2/4/2021 9:00:00 AM 0.09 32.162 0.103 7.26 4.87 13.72
2/4/2021 9:15:00 AM 0.1 32.18 0.103 7.27 4.68 13.76
2/4/2021 9:30:00 AM 0.12 32.216 0.103 7.27 4.33 13.8
2/4/2021 9:45:00 AM 0.14 32.252 0.104 7.28 4.84 13.84
2/4/2021 10:00:00 AM 0.17 32.306 0.103 7.28 4.87 13.87
2/4/2021 10:15:00 AM 0.21 32.378 0.103 7.29 4.73 13.89
2/4/2021 10:30:00 AM 0.23 32.414 0.103 7.29 4.07 13.91
2/4/2021 10:45:00 AM 0.26 32.468 0.103 7.3 4.27 13.92
2/4/2021 11:00:00 AM 0.29 32.522 0.103 7.3 4.29 13.93
2/4/2021 11:15:00 AM 0.33 32.594 0.101 7.3 4.1 13.93
2/4/2021 11:30:00 AM 0.37 32.666 0.101 7.3 4 13.93
2/4/2021 11:45:00 AM 0.4 32.72 0.101 7.31 4.04 13.93
2/4/2021 12:00:00 PM 0.42 32.756 0.1 7.31 3.97 13.93
2/4/2021 12:15:00 PM 0.45 32.81 0.1 7.31 3.9 13.94
2/4/2021 12:30:00 PM 0.49 32.882 0.101 7.31 4.24 13.94
2/4/2021 12:45:00 PM 0.51 32.918 0.1 7.32 3.75 13.95
2/4/2021 1:00:00 PM 0.53 32.954 0.103 7.32 4.16 13.95
2/4/2021 1:15:00 PM 0.56 33.008 0.103 7.34 4.1 13.95
2/4/2021 1:30:00 PM 0.58 33.044 0.101 7.33 4.1 13.95
2/4/2021 1:45:00 PM 0.59 33.062 0.101 7.33 4.18 13.95
2/4/2021 2:00:00 PM 0.59 33.062 0.103 7.35 4.38 13.95
2/4/2021 2:15:00 PM 0.59 33.062 0.103 7.35 4.11 13.96
2/4/2021 2:30:00 PM 0.57 33.026 0.102 7.35 4.36 13.96
2/4/2021 2:45:00 PM 0.56 33.008 0.103 7.36 4.47 13.97
2/4/2021 3:00:00 PM 0.53 32.954 0.102 7.35 4.16 13.98
2/4/2021 3:15:00 PM 0.5 32.9 0.101 7.35 4.32 13.98
2/4/2021 3:30:00 PM 0.46 32.828 0.102 7.35 4.46 13.98
2/4/2021 3:45:00 PM 0.42 32.756 0.103 7.36 4.84 13.99
2/4/2021 4:00:00 PM 0.38 32.684 0.102 7.36 4.63 13.99
2/4/2021 4:15:00 PM 0.34 32.612 0.102 7.35 5.04 13.99
2/4/2021 4:30:00 PM 0.31 32.558 0.102 7.35 4.87 13.99
2/4/2021 4:45:00 PM 0.27 32.486 0.103 7.35 4.64 13.99
2/4/2021 5:00:00 PM 0.24 32.432 0.103 7.35 4.49 13.98
2/4/2021 5:15:00 PM 0.2 32.36 0.103 7.35 4.5 13.97
2/4/2021 5:30:00 PM 0.17 32.306 0.103 7.34 4.83 13.94
2/4/2021 5:45:00 PM 0.14 32.252 0.103 7.33 4.39 13.91
2/4/2021 6:00:00 PM 0.12 32.216 0.103 7.32 4.96 13.88
2/4/2021 6:15:00 PM 0.1 32.18 0.103 7.32 4.94 13.86
2/4/2021 6:30:00 PM 0.08 32.144 0.103 7.31 4.31 13.83
2/4/2021 6:45:00 PM 0.07 32.126 0.103 7.31 4.9 13.82
2/4/2021 7:00:00 PM 0.05 32.09 0.104 7.3 4.96 13.8
2/4/2021 7:15:00 PM 0.04 32.072 0.104 7.3 5.04 13.79
2/4/2021 7:30:00 PM 0.03 32.054 0.104 7.29 4.86 13.78
2/4/2021 7:45:00 PM 0.02 32.036 0.104 7.29 4.88 13.77
2/4/2021 8:00:00 PM 0.02 32.036 0.104 7.28 4.9 13.76
2/4/2021 8:15:00 PM 0.01 32.018 0.104 7.28 4.67 13.76
2/4/2021 8:30:00 PM 0 32 0.104 7.27 4.2 13.75
2/4/2021 8:45:00 PM 0 32 0.104 7.27 4.72 13.74
2/4/2021 9:00:00 PM 0 32 0.104 7.27 4.75 13.74
2/4/2021 9:15:00 PM 0 32 0.104 7.27 4.54 13.73
2/4/2021 9:30:00 PM 0 32 0.104 7.27 4.24 13.72
2/4/2021 9:45:00 PM 0 32 0.104 7.26 5.35 13.71
2/4/2021 10:00:00 PM 0 32 0.104 7.26 4.65 13.7
2/4/2021 10:15:00 PM 0 32 0.105 7.26 4.24 13.69
2/4/2021 10:30:00 PM 0 32 0.105 7.25 4.6 13.68
2/4/2021 10:45:00 PM 0 32 0.105 7.25 4.17 13.67
2/4/2021 11:00:00 PM 0 32 0.105 7.25 4.2 13.66
2/4/2021 11:15:00 PM 0.01 32.018 0.105 7.25 4.18 13.65
2/4/2021 11:30:00 PM 0.01 32.018 0.105 7.25 4.31 13.64
2/4/2021 11:45:00 PM 0.01 32.018 0.105 7.25 4.34 13.63
2/5/2021 12:00:00 AM 0.02 32.036 0.105 7.25 4.88 13.63
2/5/2021 12:15:00 AM 0.03 32.054 0.105 7.25 4.59 13.62
2/5/2021 12:30:00 AM 0.03 32.054 0.106 7.24 4.67 13.61
2/5/2021 12:45:00 AM 0.04 32.072 0.104 7.24 4.55 13.6
2/5/2021 1:00:00 AM 0.05 32.09 0.103 7.23 4.48 13.59
2/5/2021 1:15:00 AM 0.06 32.108 0.106 7.24 4.79 13.58
2/5/2021 1:30:00 AM 0.07 32.126 0.106 7.24 4.98 13.57
2/5/2021 1:45:00 AM 0.08 32.144 0.106 7.24 4.94 13.56
2/5/2021 2:00:00 AM 0.09 32.162 0.106 7.24 4.84 13.55
2/5/2021 2:15:00 AM 0.1 32.18 0.106 7.23 4.55 13.55
2/5/2021 2:30:00 AM 0.11 32.198 0.106 7.24 5.06 13.54
2/5/2021 2:45:00 AM 0.11 32.198 0.107 7.24 4.85 13.54
2/5/2021 3:00:00 AM 0.12 32.216 0.107 7.24 4.49 13.53
2/5/2021 3:15:00 AM 0.12 32.216 0.105 7.23 4.08 13.51
2/5/2021 3:30:00 AM 0.13 32.234 0.105 7.23 4.15 13.52
2/5/2021 3:45:00 AM 0.13 32.234 0.105 7.23 3.94 13.51
2/5/2021 4:00:00 AM 0.14 32.252 0.105 7.23 4.25 13.5
2/5/2021 4:15:00 AM 0.13 32.234 0.105 7.23 4.02 13.49
2/5/2021 4:30:00 AM 0.14 32.252 0.106 7.23 4.15 13.49
2/5/2021 4:45:00 AM 0.14 32.252 0.108 7.23 4.04 13.48
2/5/2021 5:00:00 AM 0.14 32.252 0.107 7.21 4.24 13.48
2/5/2021 5:15:00 AM 0.15 32.27 0.106 7.23 4.19 13.47
2/5/2021 5:30:00 AM 0.15 32.27 0.109 7.26 4.09 13.47
2/5/2021 5:45:00 AM 0.15 32.27 0.107 7.24 3.98 13.46
2/5/2021 6:00:00 AM 0.14 32.252 0.109 7.24 4.35 13.46
2/5/2021 6:15:00 AM 0.12 32.216 0.109 7.24 4.84 13.45
2/5/2021 6:30:00 AM 0.12 32.216 0.108 7.24 4.25 13.45
2/5/2021 6:45:00 AM 0.13 32.234 0.109 7.24 4.22 13.45
2/5/2021 7:00:00 AM 0.13 32.234 0.107 7.23 4.18 13.44
2/5/2021 7:15:00 AM 0.11 32.198 0.11 7.25 4.21 13.45
2/5/2021 7:30:00 AM 0.12 32.216 0.111 7.25 4.25 13.44
2/5/2021 7:45:00 AM 0.13 32.234 0.107 7.24 4.36 13.46
2/5/2021 8:00:00 AM 0.13 32.234 0.107 7.23 4.25 13.47
2/5/2021 8:15:00 AM 0.15 32.27 0.11 7.25 4.72 13.5
2/5/2021 8:30:00 AM 0.16 32.288 0.109 7.26 4.47 13.53
2/5/2021 8:45:00 AM 0.18 32.324 0.107 7.26 4.36 13.57
2/5/2021 9:00:00 AM 0.2 32.36 0.11 7.27 4.39 13.61
2/5/2021 9:15:00 AM 0.22 32.396 0.108 7.28 4.08 13.64
2/5/2021 9:30:00 AM 0.24 32.432 0.109 7.28 4.78 13.68
2/5/2021 9:45:00 AM 0.26 32.468 0.108 7.29 4.24 13.72
2/5/2021 10:00:00 AM 0.28 32.504 0.109 7.3 4.54 13.76
2/5/2021 10:15:00 AM 0.33 32.594 0.11 7.31 4.54 13.78
2/5/2021 10:30:00 AM 0.35 32.63 0.107 7.31 4.17 13.8
2/5/2021 10:45:00 AM 0.36 32.648 0.11 7.32 4.22 13.81
2/5/2021 11:00:00 AM 0.38 32.684 0.11 7.32 4.31 13.82
2/5/2021 11:15:00 AM 0.41 32.738 0.108 7.32 4.43 13.83
2/5/2021 11:30:00 AM 0.47 32.846 0.108 7.33 4.37 13.83
2/5/2021 11:45:00 AM 0.55 32.99 0.11 7.34 4.48 13.84
2/5/2021 12:00:00 PM 0.64 33.152 0.109 7.34 4.33 13.84
2/5/2021 12:15:00 PM 0.64 33.152 0.109 7.34 4.19 13.85
2/5/2021 12:30:00 PM 0.63 33.134 0.109 7.35 4.7 13.85
2/5/2021 12:45:00 PM 0.7 33.26 0.109 7.36 4.09 13.85
2/5/2021 1:00:00 PM 0.76 33.368 0.109 7.36 4.2 13.85
2/5/2021 1:15:00 PM 0.79 33.422 0.107 7.36 4.21 13.84
2/5/2021 1:30:00 PM 0.8 33.44 0.109 7.37 4.25 13.85
2/5/2021 1:45:00 PM 0.84 33.512 0.108 7.36 4.18 13.85
2/5/2021 2:00:00 PM 0.82 33.476 0.109 7.37 4.34 13.86
2/5/2021 2:15:00 PM 0.78 33.404 0.106 7.37 4 13.87
2/5/2021 2:30:00 PM 0.81 33.458 0.109 7.38 4.53 13.87
2/5/2021 2:45:00 PM 0.81 33.458 0.108 7.38 4.76 13.86
2/5/2021 3:00:00 PM 0.76 33.368 0.109 7.38 4.85 13.87
2/5/2021 3:15:00 PM 0.71 33.278 0.108 7.36 4.46 13.87
2/5/2021 3:30:00 PM 0.68 33.224 0.108 7.37 4.53 13.88
2/5/2021 3:45:00 PM 0.65 33.17 0.106 7.38 4.21 13.89
2/5/2021 4:00:00 PM 0.61 33.098 0.107 7.38 4.31 13.89
2/5/2021 4:15:00 PM 0.57 33.026 0.109 7.39 5.13 13.89
2/5/2021 4:30:00 PM 0.52 32.936 0.108 7.39 4.32 13.89
2/5/2021 4:45:00 PM 0.48 32.864 0.108 7.38 4.86 13.88
2/5/2021 5:00:00 PM 0.44 32.792 0.108 7.38 4.47 13.87
2/5/2021 5:15:00 PM 0.4 32.72 0.109 7.38 4.7 13.85
2/5/2021 5:30:00 PM 0.36 32.648 0.11 7.37 5.08 13.82
2/5/2021 5:45:00 PM 0.32 32.576 0.11 7.36 4.34 13.78
2/5/2021 6:00:00 PM 0.27 32.486 0.11 7.35 4.68 13.76
2/5/2021 6:15:00 PM 0.25 32.45 0.11 7.34 4.16 13.73
2/5/2021 6:30:00 PM 0.23 32.414 0.111 7.34 4.47 13.7
2/5/2021 6:45:00 PM 0.22 32.396 0.109 7.32 4.38 13.68
2/5/2021 7:00:00 PM 0.2 32.36 0.111 7.32 4.71 13.66
2/5/2021 7:15:00 PM 0.19 32.342 0.11 7.31 4.27 13.65
2/5/2021 7:30:00 PM 0.17 32.306 0.109 7.31 4.2 13.64
2/5/2021 7:45:00 PM 0.15 32.27 0.11 7.3 4.31 13.63
2/5/2021 8:00:00 PM 0.15 32.27 0.11 7.3 4.16 13.62
2/5/2021 8:15:00 PM 0.13 32.234 0.11 7.29 4.35 13.62
2/5/2021 8:30:00 PM 0.13 32.234 0.113 7.29 4.3 13.61
2/5/2021 8:45:00 PM 0.13 32.234 0.113 7.29 4.74 13.6
2/5/2021 9:00:00 PM 0.13 32.234 0.111 7.3 5.09 13.6
2/5/2021 9:15:00 PM 0.13 32.234 0.111 7.29 4.25 13.59
2/5/2021 9:30:00 PM 0.13 32.234 0.114 7.28 4.38 13.57
2/5/2021 9:45:00 PM 0.12 32.216 0.115 7.29 4.75 13.57
2/5/2021 10:00:00 PM 0.12 32.216 0.112 7.28 4.29 13.55
2/5/2021 10:15:00 PM 0.11 32.198 0.112 7.28 4.3 13.55
2/5/2021 10:30:00 PM 0.1 32.18 0.115 7.27 4.71 13.55
2/5/2021 10:45:00 PM 0.09 32.162 0.116 7.28 5.12 13.54
2/5/2021 11:00:00 PM 0.09 32.162 0.113 7.27 4.28 13.54
2/5/2021 11:15:00 PM 0.08 32.144 0.114 7.27 4.24 13.55
2/5/2021 11:30:00 PM 0.08 32.144 0.115 7.27 4.41 13.55
2/5/2021 11:45:00 PM 0.08 32.144 0.114 7.27 4.3 13.53
2/6/2021 12:00:00 AM 0.08 32.144 0.115 7.27 4.28 13.54
2/6/2021 12:15:00 AM 0.08 32.144 0.116 7.26 4.29 13.54
2/6/2021 12:30:00 AM 0.09 32.162 0.115 7.26 4.07 13.53
2/6/2021 12:45:00 AM 0.09 32.162 0.115 7.26 4.31 13.53
2/6/2021 1:00:00 AM 0.07 32.126 0.116 7.26 4.42 13.53
2/6/2021 1:15:00 AM 0.06 32.108 0.118 7.27 4.41 13.53
2/6/2021 1:30:00 AM 0.05 32.09 0.117 7.27 4.68 13.53
2/6/2021 1:45:00 AM 0.05 32.09 0.119 7.27 4.67 13.52
2/6/2021 2:00:00 AM 0.05 32.09 0.118 7.28 4.64 13.53
2/6/2021 2:15:00 AM 0.05 32.09 0.119 7.27 4.57 13.53
2/6/2021 2:30:00 AM 0.04 32.072 0.118 7.26 4.58 13.53
2/6/2021 2:45:00 AM 0.04 32.072 0.116 7.26 4.27 13.54
2/6/2021 3:00:00 AM 0.05 32.09 0.117 7.26 4.4 13.54
2/6/2021 3:15:00 AM 0.06 32.108 0.117 7.26 4.44 13.54
2/6/2021 3:30:00 AM 0.06 32.108 0.118 7.25 4.35 13.54
2/6/2021 3:45:00 AM 0.05 32.09 0.117 7.25 4.58 13.53
2/6/2021 4:00:00 AM 0.05 32.09 0.117 7.25 4.26 13.54
2/6/2021 4:15:00 AM 0.05 32.09 0.118 7.25 4.42 13.55
2/6/2021 4:30:00 AM 0.05 32.09 0.12 7.25 4.53 13.55
2/6/2021 4:45:00 AM 0.05 32.09 0.12 7.25 4.28 13.55
2/6/2021 5:00:00 AM 0.05 32.09 0.118 7.25 4.41 13.56
2/6/2021 5:15:00 AM 0.05 32.09 0.119 7.25 4.33 13.55
2/6/2021 5:30:00 AM 0.05 32.09 0.119 7.25 4.63 13.56
2/6/2021 5:45:00 AM 0.06 32.108 0.118 7.25 4.23 13.57
2/6/2021 6:00:00 AM 0.07 32.126 0.118 7.25 4.48 13.57
2/6/2021 6:15:00 AM 0.07 32.126 0.119 7.25 4.65 13.56
2/6/2021 6:30:00 AM 0.08 32.144 0.119 7.25 4.29 13.56
2/6/2021 6:45:00 AM 0.08 32.144 0.119 7.25 4.19 13.57
2/6/2021 7:00:00 AM 0.09 32.162 0.119 7.25 4.53 13.57
2/6/2021 7:15:00 AM 0.09 32.162 0.119 7.24 4.47 13.57
2/6/2021 7:30:00 AM 0.09 32.162 0.119 7.25 4.23 13.58
2/6/2021 7:45:00 AM 0.09 32.162 0.12 7.26 4.58 13.63
2/6/2021 8:00:00 AM 0.09 32.162 0.12 7.26 4.22 13.67
2/6/2021 8:15:00 AM 0.09 32.162 0.119 7.27 4.44 13.71
2/6/2021 8:30:00 AM 0.09 32.162 0.119 7.27 4.05 13.75
2/6/2021 8:45:00 AM 0.09 32.162 0.119 7.28 4.18 13.8
2/6/2021 9:00:00 AM 0.1 32.18 0.12 7.29 4.24 13.84
2/6/2021 9:15:00 AM 0.1 32.18 0.119 7.3 4.25 13.9
2/6/2021 9:30:00 AM 0.12 32.216 0.122 7.31 4.36 13.94
2/6/2021 9:45:00 AM 0.14 32.252 0.122 7.31 5.19 13.97
2/6/2021 10:00:00 AM 0.17 32.306 0.121 7.32 4.68 14
2/6/2021 10:15:00 AM 0.21 32.378 0.122 7.33 4.59 14.02
2/6/2021 10:30:00 AM 0.26 32.468 0.119 7.33 4.28 14.04
2/6/2021 10:45:00 AM 0.33 32.594 0.119 7.33 4.12 14.05
2/6/2021 11:00:00 AM 0.4 32.72 0.122 7.34 4.53 14.06
2/6/2021 11:15:00 AM 0.48 32.864 0.122 7.35 4.5 14.06
2/6/2021 11:30:00 AM 0.57 33.026 0.119 7.35 4.2 14.07
2/6/2021 11:45:00 AM 0.65 33.17 0.119 7.35 4.28 14.07
2/6/2021 12:00:00 PM 0.72 33.296 0.12 7.35 4.22 14.07
2/6/2021 12:15:00 PM 0.8 33.44 0.122 7.37 5.29 14.07
2/6/2021 12:30:00 PM 0.88 33.584 0.121 7.38 4.41 14.07
2/6/2021 12:45:00 PM 0.95 33.71 0.12 7.36 4.29 14.07
2/6/2021 1:00:00 PM 1.01 33.818 0.119 7.37 4.09 14.07
2/6/2021 1:15:00 PM 1.06 33.908 0.118 7.38 4.11 14.06
2/6/2021 1:30:00 PM 1.1 33.98 0.118 7.38 4.1 14.06
2/6/2021 1:45:00 PM 1.14 34.052 0.118 7.38 4.17 14.05
2/6/2021 2:00:00 PM 1.15 34.07 0.118 7.39 3.96 14.05
2/6/2021 2:15:00 PM 1.15 34.07 0.118 7.39 3.94 14.04
2/6/2021 2:30:00 PM 1.14 34.052 0.121 7.4 4.52 14.05
2/6/2021 2:45:00 PM 1.11 33.998 0.121 7.4 4.96 14.04
2/6/2021 3:00:00 PM 1.07 33.926 0.12 7.4 4.34 14.05
2/6/2021 3:15:00 PM 1.01 33.818 0.118 7.4 3.96 14.05
2/6/2021 3:30:00 PM 0.95 33.71 0.118 7.4 4.23 14.05
2/6/2021 3:45:00 PM 0.88 33.584 0.119 7.4 4.14 14.05
2/6/2021 4:00:00 PM 0.81 33.458 0.118 7.4 4.42 14.06
2/6/2021 4:15:00 PM 0.73 33.314 0.12 7.39 4.46 14.06
2/6/2021 4:30:00 PM 0.67 33.206 0.119 7.39 4.43 14.06
2/6/2021 4:45:00 PM 0.6 33.08 0.122 7.39 4.5 14.05
2/6/2021 5:00:00 PM 0.54 32.972 0.122 7.39 4.81 14.04
2/6/2021 5:15:00 PM 0.47 32.846 0.119 7.38 4.28 14.02
2/6/2021 5:30:00 PM 0.4 32.72 0.119 7.37 4.32 13.99
2/6/2021 5:45:00 PM 0.35 32.63 0.119 7.36 4.32 13.96
2/6/2021 6:00:00 PM 0.31 32.558 0.119 7.35 4.38 13.93
2/6/2021 6:15:00 PM 0.27 32.486 0.119 7.34 4.3 13.9
2/6/2021 6:30:00 PM 0.23 32.414 0.12 7.34 4.22 13.88
2/6/2021 6:45:00 PM 0.19 32.342 0.12 7.33 4.15 13.85
2/6/2021 7:00:00 PM 0.16 32.288 0.122 7.33 4.56 13.84
2/6/2021 7:15:00 PM 0.13 32.234 0.12 7.32 4.16 13.83
2/6/2021 7:30:00 PM 0.1 32.18 0.12 7.31 4.21 13.82
2/6/2021 7:45:00 PM 0.07 32.126 0.122 7.31 4.44 13.82
2/6/2021 8:00:00 PM 0.05 32.09 0.12 7.3 4.21 13.82
2/6/2021 8:15:00 PM 0.02 32.036 0.123 7.31 4.21 13.81
2/6/2021 8:30:00 PM 0 32 0.122 7.3 4.38 13.81
2/6/2021 8:45:00 PM -0.02 31.964 0.123 7.3 4.56 13.81
2/6/2021 9:00:00 PM -0.03 31.946 0.123 7.3 4.69 13.81
2/6/2021 9:15:00 PM -0.03 31.946 0.123 7.31 4.49 13.8
2/6/2021 9:30:00 PM -0.02 31.964 0.123 7.3 4.28 13.8
2/6/2021 9:45:00 PM -0.01 31.982 0.123 7.29 4.93 13.81
2/6/2021 10:00:00 PM -0.01 31.982 0.123 7.28 4.87 13.8
2/6/2021 10:15:00 PM -0.01 31.982 0.124 7.28 4.62 13.79
2/6/2021 10:30:00 PM 0 32 0.124 7.27 4.65 13.79
2/6/2021 10:45:00 PM 0 32 0.122 7.28 4.8 13.79
2/6/2021 11:00:00 PM 0 32 0.124 7.27 4.26 13.78
2/6/2021 11:15:00 PM 0 32 0.122 7.26 4.26 13.78
2/6/2021 11:30:00 PM 0 32 0.125 7.26 4.46 13.77
2/6/2021 11:45:00 PM 0 32 0.125 7.26 4.55 13.77
2/7/2021 12:00:00 AM 0 32 0.122 7.26 4.51 13.77
2/7/2021 12:15:00 AM 0 32 0.126 7.26 4.81 13.77
2/7/2021 12:30:00 AM 0 32 0.126 7.25 4.66 13.77
2/7/2021 12:45:00 AM 0 32 0.123 7.25 4.41 13.75
2/7/2021 1:00:00 AM 0 32 0.124 7.25 4.41 13.77
2/7/2021 1:15:00 AM 0 32 0.124 7.25 4.46 13.76
2/7/2021 1:30:00 AM 0 32 0.127 7.23 4.74 13.76
2/7/2021 1:45:00 AM 0 32 0.127 7.24 4.65 13.76
2/7/2021 2:00:00 AM 0 32 0.128 7.24 4.7 13.74
2/7/2021 2:15:00 AM 0 32 0.128 7.24 4.84 13.76
2/7/2021 2:30:00 AM 0 32 0.129 7.23 4.91 13.75
2/7/2021 2:45:00 AM 0 32 0.129 7.23 4.84 13.75
2/7/2021 3:00:00 AM 0 32 0.128 7.23 4.2 13.74
2/7/2021 3:15:00 AM 0 32 0.129 7.22 4.44 13.74
2/7/2021 3:30:00 AM 0 32 0.131 7.22 4.4 13.73
2/7/2021 3:45:00 AM 0 32 0.132 7.22 3.87 13.73
2/7/2021 4:00:00 AM 0 32 0.134 7.22 3.93 13.72
2/7/2021 4:15:00 AM 0 32 0.135 7.21 3.86 13.7
2/7/2021 4:30:00 AM 0 32 0.135 7.22 3.91 13.71
2/7/2021 4:45:00 AM 0 32 0.136 7.22 3.71 13.7
2/7/2021 5:00:00 AM 0 32 0.136 7.21 3.81 13.7
2/7/2021 5:15:00 AM 0 32 0.14 7.21 4.04 13.69
2/7/2021 5:30:00 AM 0 32 0.141 7.21 4.88 13.67
2/7/2021 5:45:00 AM 0 32 0.139 7.19 4.17 13.67
2/7/2021 6:00:00 AM 0 32 0.137 7.2 3.73 13.66
2/7/2021 6:15:00 AM 0 32 0.138 7.2 4.16 13.64
2/7/2021 6:30:00 AM 0 32 0.137 7.19 3.55 13.63
2/7/2021 6:45:00 AM 0 32 0.137 7.2 3.61 13.62
2/7/2021 7:00:00 AM 0 32 0.138 7.19 3.78 13.6
2/7/2021 7:15:00 AM 0 32 0.137 7.19 3.6 13.6
2/7/2021 7:30:00 AM 0 32 0.138 7.19 3.79 13.6
2/7/2021 7:45:00 AM 0 32 0.137 7.19 3.85 13.61
2/7/2021 8:00:00 AM 0 32 0.136 7.19 3.94 13.62
2/7/2021 8:15:00 AM 0.01 32.018 0.136 7.19 3.86 13.64
2/7/2021 8:30:00 AM 0.01 32.018 0.135 7.18 3.85 13.66
2/7/2021 8:45:00 AM 0.01 32.018 0.135 7.19 3.79 13.68
2/7/2021 9:00:00 AM 0.01 32.018 0.134 7.2 3.76 13.72
2/7/2021 9:15:00 AM 0.01 32.018 0.133 7.21 3.72 13.75
2/7/2021 9:30:00 AM 0.01 32.018 0.132 7.21 3.76 13.79
2/7/2021 9:45:00 AM 0.01 32.018 0.132 7.22 3.8 13.82
2/7/2021 10:00:00 AM 0.01 32.018 0.134 7.22 4.13 13.86
2/7/2021 10:15:00 AM 0.01 32.018 0.133 7.24 3.96 13.9
2/7/2021 10:30:00 AM 0.01 32.018 0.129 7.25 4.06 13.93
2/7/2021 10:45:00 AM 0.01 32.018 0.128 7.26 4.03 13.96
2/7/2021 11:00:00 AM 0.01 32.018 0.127 7.26 3.99 13.98
2/7/2021 11:15:00 AM 0.02 32.036 0.126 7.27 3.9 14.01
2/7/2021 11:30:00 AM 0.02 32.036 0.125 7.27 3.97 14.03
2/7/2021 11:45:00 AM 0.03 32.054 0.124 7.28 4.49 14.04
2/7/2021 12:00:00 PM 0.04 32.072 0.123 7.28 4.2 14.05
2/7/2021 12:15:00 PM 0.04 32.072 0.123 7.29 4.5 14.07
2/7/2021 12:30:00 PM 0.06 32.108 0.121 7.3 4.47 14.08
2/7/2021 12:45:00 PM 0.1 32.18 0.124 7.31 4.81 14.09
2/7/2021 1:00:00 PM 0.13 32.234 0.12 7.31 4.32 14.11
2/7/2021 1:15:00 PM 0.14 32.252 0.119 7.32 4.4 14.12
2/7/2021 1:30:00 PM 0.14 32.252 0.119 7.32 4.33 14.13
2/7/2021 1:45:00 PM 0.13 32.234 0.119 7.33 4.29 14.13
2/7/2021 2:00:00 PM 0.14 32.252 0.119 7.33 4.17 14.14
2/7/2021 2:15:00 PM 0.13 32.234 0.118 7.32 4.21 14.13
2/7/2021 2:30:00 PM 0.13 32.234 0.118 7.34 4.19 14.13
2/7/2021 2:45:00 PM 0.13 32.234 0.118 7.34 4.37 14.11
2/7/2021 3:00:00 PM 0.13 32.234 0.118 7.34 4.33 14.12
2/7/2021 3:15:00 PM 0.14 32.252 0.118 7.34 4.39 14.14
2/7/2021 3:30:00 PM 0.14 32.252 0.118 7.34 4.39 14.14
2/7/2021 3:45:00 PM 0.15 32.27 0.118 7.36 4.14 14.15
2/7/2021 4:00:00 PM 0.15 32.27 0.118 7.36 4.26 14.16
2/7/2021 4:15:00 PM 0.13 32.234 0.118 7.36 4.16 14.16
2/7/2021 4:30:00 PM 0.13 32.234 0.118 7.36 4.11 14.17
2/7/2021 4:45:00 PM 0.14 32.252 0.119 7.37 4.11 14.16
2/7/2021 5:00:00 PM 0.13 32.234 0.119 7.35 4.1 14.15
2/7/2021 5:15:00 PM 0.11 32.198 0.119 7.35 4.16 14.13
2/7/2021 5:30:00 PM 0.09 32.162 0.119 7.34 4.26 14.09
2/7/2021 5:45:00 PM 0.07 32.126 0.119 7.34 4.32 14.06
2/7/2021 6:00:00 PM 0.05 32.09 0.119 7.33 4.04 14.03
2/7/2021 6:15:00 PM 0.04 32.072 0.118 7.33 4.06 14
2/7/2021 6:30:00 PM 0.03 32.054 0.118 7.33 4.07 13.97
2/7/2021 6:45:00 PM 0.02 32.036 0.119 7.31 3.89 13.95
2/7/2021 7:00:00 PM 0 32 0.118 7.31 3.88 13.93
2/7/2021 7:15:00 PM -0.01 31.982 0.118 7.31 4.06 13.92
2/7/2021 7:30:00 PM -0.03 31.946 0.119 7.3 4.01 13.91
2/7/2021 7:45:00 PM -0.03 31.946 0.119 7.3 3.89 13.91
2/7/2021 8:00:00 PM -0.03 31.946 0.119 7.3 4.03 13.91
2/7/2021 8:15:00 PM -0.02 31.964 0.119 7.3 4.44 13.91
2/7/2021 8:30:00 PM -0.01 31.982 0.12 7.3 4.44 13.92
2/7/2021 8:45:00 PM -0.01 31.982 0.12 7.29 4.42 13.92
2/7/2021 9:00:00 PM -0.01 31.982 0.121 7.28 4.42 13.91
2/7/2021 9:15:00 PM -0.01 31.982 0.124 7.27 4.96 13.91
2/7/2021 9:30:00 PM -0.01 31.982 0.124 7.26 5.03 13.91
2/7/2021 9:45:00 PM -0.01 31.982 0.124 7.27 4.42 13.91
2/7/2021 10:00:00 PM -0.01 31.982 0.125 7.27 4.38 13.91
2/7/2021 10:15:00 PM 0 32 0.125 7.27 4.67 13.9
2/7/2021 10:30:00 PM 0 32 0.124 7.27 4.04 13.9
2/7/2021 10:45:00 PM 0 32 0.123 7.27 4.38 13.9
2/7/2021 11:00:00 PM 0 32 0.126 7.27 4.18 13.9
2/7/2021 11:15:00 PM 0 32 0.123 7.26 3.88 13.88
2/7/2021 11:30:00 PM 0 32 0.124 7.26 4.11 13.9
2/7/2021 11:45:00 PM 0 32 0.124 7.25 3.9 13.89
2/8/2021 12:00:00 AM 0 32 0.128 7.26 4.07 13.89
2/8/2021 12:15:00 AM 0 32 0.125 7.25 3.65 13.88
2/8/2021 12:30:00 AM 0 32 0.126 7.25 3.74 13.88
2/8/2021 12:45:00 AM 0 32 0.126 7.24 3.71 13.88
2/8/2021 1:00:00 AM 0 32 0.127 7.24 3.84 13.87
2/8/2021 1:15:00 AM 0 32 0.127 7.24 3.67 13.87
2/8/2021 1:30:00 AM 0 32 0.128 7.24 3.69 13.86
2/8/2021 1:45:00 AM 0 32 0.128 7.23 3.9 13.87
2/8/2021 2:00:00 AM 0 32 0.129 7.24 3.62 13.87
2/8/2021 2:15:00 AM 0 32 0.133 7.23 4.04 13.86
2/8/2021 2:30:00 AM 0 32 0.133 7.23 4.08 13.86
2/8/2021 2:45:00 AM 0 32 0.13 7.22 3.7 13.85
2/8/2021 3:00:00 AM 0 32 0.131 7.22 3.74 13.86
2/8/2021 3:15:00 AM 0 32 0.131 7.22 3.71 13.85
2/8/2021 3:30:00 AM 0 32 0.131 7.21 3.67 13.85
2/8/2021 3:45:00 AM 0 32 0.132 7.21 3.72 13.84
2/8/2021 4:00:00 AM 0 32 0.136 7.2 4.14 13.84
2/8/2021 4:15:00 AM 0 32 0.133 7.21 3.54 13.83
2/8/2021 4:30:00 AM 0 32 0.132 7.21 3.64 13.83
2/8/2021 4:45:00 AM 0 32 0.136 7.2 4.19 13.83
2/8/2021 5:00:00 AM 0 32 0.136 7.2 4.16 13.82
2/8/2021 5:15:00 AM 0 32 0.133 7.19 3.59 13.82
2/8/2021 5:30:00 AM 0 32 0.134 7.21 3.66 13.81
2/8/2021 5:45:00 AM 0 32 0.134 7.2 3.68 13.8
2/8/2021 6:00:00 AM 0 32 0.137 7.19 3.92 13.81
2/8/2021 6:15:00 AM 0 32 0.134 7.18 3.81 13.81
2/8/2021 6:30:00 AM 0 32 0.136 7.19 3.81 13.8
2/8/2021 6:45:00 AM 0 32 0.135 7.18 3.61 13.8
2/8/2021 7:00:00 AM 0 32 0.135 7.18 3.7 13.8
2/8/2021 7:15:00 AM 0 32 0.135 7.17 3.71 13.8
2/8/2021 7:30:00 AM 0 32 0.136 7.18 3.71 13.81
2/8/2021 7:45:00 AM 0 32 0.136 7.17 3.72 13.83
2/8/2021 8:00:00 AM 0 32 0.136 7.17 3.61 13.85
2/8/2021 8:15:00 AM 0 32 0.136 7.17 3.64 13.88
2/8/2021 8:30:00 AM 0.01 32.018 0.137 7.18 3.7 13.92
2/8/2021 8:45:00 AM 0.01 32.018 0.136 7.18 3.5 13.96
2/8/2021 9:00:00 AM 0.01 32.018 0.136 7.18 3.79 13.99
2/8/2021 9:15:00 AM 0.01 32.018 0.136 7.19 3.75 14.03
2/8/2021 9:30:00 AM 0.01 32.018 0.136 7.19 3.79 14.05
2/8/2021 9:45:00 AM 0.01 32.018 0.136 7.2 3.78 14.09
2/8/2021 10:00:00 AM 0.01 32.018 0.135 7.2 3.75 14.11
2/8/2021 10:15:00 AM 0.01 32.018 0.135 7.21 4.23 14.15
2/8/2021 10:30:00 AM 0.01 32.018 0.135 7.22 3.85 14.19
2/8/2021 10:45:00 AM 0.01 32.018 0.136 7.22 4.38 14.22
2/8/2021 11:00:00 AM 0.01 32.018 0.134 7.17 4.26 14.24
2/8/2021 11:15:00 AM 0.01 32.018 0.136 7.19 4.24 14.26
2/8/2021 11:30:00 AM 0.01 32.018 0.133 7.21 4.4 14.28
2/8/2021 11:45:00 AM 0.01 32.018 0.129 7.21 4.21 14.29
2/8/2021 12:00:00 PM 0.02 32.036 0.131 7.23 4.83 14.28
2/8/2021 12:15:00 PM 0.02 32.036 0.125 7.23 4.62 14.29
2/8/2021 12:30:00 PM 0.04 32.072 0.124 7.23 4.76 14.29
2/8/2021 12:45:00 PM 0.08 32.144 0.122 7.25 5.21 14.29
2/8/2021 1:00:00 PM 0.11 32.198 0.121 7.26 5.13 14.31
2/8/2021 1:15:00 PM 0.13 32.234 0.12 7.28 5.1 14.33
2/8/2021 1:30:00 PM 0.15 32.27 0.118 7.28 5.13 14.34
2/8/2021 1:45:00 PM 0.17 32.306 0.117 7.29 5.36 14.34
2/8/2021 2:00:00 PM 0.19 32.342 0.116 7.3 8.88 14.36
2/8/2021 2:15:00 PM 0.2 32.36 0.115 7.31 4.85 14.37
2/8/2021 2:30:00 PM 0.21 32.378 0.115 7.32 4.86 14.37
2/8/2021 2:45:00 PM 0.21 32.378 0.115 7.33 4.54 14.38
2/8/2021 3:00:00 PM 0.21 32.378 0.115 7.33 4.59 14.39
2/8/2021 3:15:00 PM 0.2 32.36 0.116 7.33 4.4 14.4
2/8/2021 3:30:00 PM 0.19 32.342 0.116 7.34 4.56 14.41
2/8/2021 3:45:00 PM 0.19 32.342 0.116 7.35 4.38 14.42
2/8/2021 4:00:00 PM 0.18 32.324 0.117 7.36 4.42 14.44
2/8/2021 4:15:00 PM 0.16 32.288 0.117 7.35 4.29 14.44
2/8/2021 4:30:00 PM 0.14 32.252 0.117 7.35 4.33 14.44
2/8/2021 4:45:00 PM 0.13 32.234 0.118 7.36 4.33 14.43
2/8/2021 5:00:00 PM 0.11 32.198 0.118 7.35 4.39 14.42
2/8/2021 5:15:00 PM 0.09 32.162 0.117 7.35 4.26 14.39
2/8/2021 5:30:00 PM 0.08 32.144 0.118 7.34 4.09 14.35
2/8/2021 5:45:00 PM 0.06 32.108 0.118 7.34 4.28 14.32
2/8/2021 6:00:00 PM 0.05 32.09 0.118 7.33 4.03 14.28
2/8/2021 6:15:00 PM 0.04 32.072 0.118 7.33 4.02 14.24
2/8/2021 6:30:00 PM 0.04 32.072 0.118 7.32 4.32 14.2
2/8/2021 6:45:00 PM 0.04 32.072 0.118 7.31 4.18 14.16
2/8/2021 7:00:00 PM 0.04 32.072 0.118 7.31 3.94 14.14
2/8/2021 7:15:00 PM 0.03 32.054 0.121 7.3 4.22 14.12
2/8/2021 7:30:00 PM 0.04 32.072 0.118 7.3 3.95 14.1
2/8/2021 7:45:00 PM 0.03 32.054 0.117 7.3 4.06 14.08
2/8/2021 8:00:00 PM 0.03 32.054 0.117 7.29 4 14.07
2/8/2021 8:15:00 PM 0.02 32.036 0.117 7.29 3.8 14.06
2/8/2021 8:30:00 PM 0.01 32.018 0.12 7.29 4.08 14.04
2/8/2021 8:45:00 PM 0.01 32.018 0.121 7.29 4.56 14.03
2/8/2021 9:00:00 PM 0.01 32.018 0.118 7.28 4.29 14.02
2/8/2021 9:15:00 PM 0.01 32.018 0.12 7.28 4.6 14.01
2/8/2021 9:30:00 PM 0.01 32.018 0.12 7.27 3.9 14
2/8/2021 9:45:00 PM 0.01 32.018 0.119 7.27 4.23 13.99
2/8/2021 10:00:00 PM 0.01 32.018 0.118 7.27 3.98 13.98
2/8/2021 10:15:00 PM 0.01 32.018 0.117 7.26 3.83 13.96
2/8/2021 10:30:00 PM 0.01 32.018 0.119 7.26 4.02 13.95
2/8/2021 10:45:00 PM 0.02 32.036 0.118 7.26 3.82 13.93
2/8/2021 11:00:00 PM 0.02 32.036 0.12 7.25 4.33 13.92
2/8/2021 11:15:00 PM 0.02 32.036 0.12 7.26 3.79 13.91
2/8/2021 11:30:00 PM 0.02 32.036 0.12 7.26 3.91 13.9
2/8/2021 11:45:00 PM 0.02 32.036 0.121 7.25 4.36 13.89
2/9/2021 12:00:00 AM 0.03 32.054 0.121 7.26 3.85 13.89
2/9/2021 12:15:00 AM 0.03 32.054 0.12 7.25 3.99 13.88
2/9/2021 12:30:00 AM 0.03 32.054 0.118 7.24 4.05 13.87
2/9/2021 12:45:00 AM 0.03 32.054 0.121 7.25 4.28 13.86
2/9/2021 1:00:00 AM 0.03 32.054 0.121 7.25 4.06 13.86
2/9/2021 1:15:00 AM 0.03 32.054 0.121 7.24 4.29 13.85
2/9/2021 1:30:00 AM 0.03 32.054 0.119 7.23 3.94 13.85
2/9/2021 1:45:00 AM 0.04 32.072 0.121 7.24 4.22 13.84
2/9/2021 2:00:00 AM 0.04 32.072 0.121 7.24 4.08 13.84
2/9/2021 2:15:00 AM 0.04 32.072 0.12 7.24 3.99 13.84
2/9/2021 2:30:00 AM 0.03 32.054 0.121 7.23 4.17 13.83
2/9/2021 2:45:00 AM 0.03 32.054 0.12 7.23 3.94 13.82
2/9/2021 3:00:00 AM 0.03 32.054 0.119 7.23 3.83 13.82
2/9/2021 3:15:00 AM 0.03 32.054 0.121 7.23 3.9 13.82
2/9/2021 3:30:00 AM 0.03 32.054 0.123 7.23 4.09 13.81
2/9/2021 3:45:00 AM 0.04 32.072 0.122 7.23 4.08 13.8
2/9/2021 4:00:00 AM 0.03 32.054 0.121 7.23 3.89 13.8
2/9/2021 4:15:00 AM 0.03 32.054 0.12 7.23 3.93 13.8
2/9/2021 4:30:00 AM 0.03 32.054 0.119 7.23 4.04 13.79
2/9/2021 4:45:00 AM 0.03 32.054 0.121 7.23 4.35 13.79
2/9/2021 5:00:00 AM 0.03 32.054 0.119 7.23 3.78 13.79
2/9/2021 5:15:00 AM 0.03 32.054 0.121 7.23 3.88 13.78
2/9/2021 5:30:00 AM 0.03 32.054 0.119 7.23 3.86 13.77
2/9/2021 5:45:00 AM 0.02 32.036 0.119 7.23 3.95 13.77
2/9/2021 6:00:00 AM 0.02 32.036 0.122 7.23 4.01 13.77
2/9/2021 6:15:00 AM 0.02 32.036 0.119 7.23 3.76 13.76
2/9/2021 6:30:00 AM 0.02 32.036 0.119 7.22 3.65 13.76
2/9/2021 6:45:00 AM 0.02 32.036 0.122 7.23 3.75 13.76
2/9/2021 7:00:00 AM 0.02 32.036 0.122 7.23 3.87 13.75
2/9/2021 7:15:00 AM 0.02 32.036 0.119 7.23 3.81 13.75
2/9/2021 7:30:00 AM 0.01 32.018 0.12 7.23 3.8 13.76
2/9/2021 7:45:00 AM 0.01 32.018 0.12 7.23 3.71 13.77
2/9/2021 8:00:00 AM 0.01 32.018 0.119 7.23 3.6 13.79
2/9/2021 8:15:00 AM 0.01 32.018 0.12 7.24 4.17 13.82
2/9/2021 8:30:00 AM 0.01 32.018 0.121 7.24 3.88 13.84
2/9/2021 8:45:00 AM 0.02 32.036 0.12 7.25 3.62 13.87
2/9/2021 9:00:00 AM 0.01 32.018 0.12 7.25 3.59 13.89
2/9/2021 9:15:00 AM 0.01 32.018 0.123 7.26 3.86 13.92
2/9/2021 9:30:00 AM 0.01 32.018 0.122 7.26 4.11 13.95
2/9/2021 9:45:00 AM 0.01 32.018 0.121 7.27 3.99 14
2/9/2021 10:00:00 AM 0.02 32.036 0.12 7.28 3.8 14.03
2/9/2021 10:15:00 AM 0.03 32.054 0.119 7.28 3.94 14.06
2/9/2021 10:30:00 AM 0.03 32.054 0.12 7.28 4.56 14.09
2/9/2021 10:45:00 AM 0.03 32.054 0.121 7.29 3.92 14.11
2/9/2021 11:00:00 AM 0.05 32.09 0.119 7.29 3.55 14.14
2/9/2021 11:15:00 AM 0.08 32.144 0.121 7.3 3.59 14.16
2/9/2021 11:30:00 AM 0.11 32.198 0.122 7.31 3.64 14.18
2/9/2021 11:45:00 AM 0.15 32.27 0.122 7.32 3.69 14.21
2/9/2021 12:00:00 PM 0.16 32.288 0.121 7.33 3.72 14.22
2/9/2021 12:15:00 PM 0.19 32.342 0.119 7.33 3.36 14.23
2/9/2021 12:30:00 PM 0.21 32.378 0.122 7.33 3.58 14.24
2/9/2021 12:45:00 PM 0.23 32.414 0.121 7.34 3.69 14.25
2/9/2021 1:00:00 PM 0.25 32.45 0.125 7.34 3.66 14.26
2/9/2021 1:15:00 PM 0.27 32.486 0.13 7.34 3.39 14.27
2/9/2021 1:30:00 PM 0.29 32.522 0.132 7.34 3.6 14.27
2/9/2021 1:45:00 PM 0.3 32.54 0.13 7.34 3.46 14.28
2/9/2021 2:00:00 PM 0.29 32.522 0.127 7.35 3.55 14.28
2/9/2021 2:15:00 PM 0.29 32.522 0.129 7.35 3.71 14.29
2/9/2021 2:30:00 PM 0.3 32.54 0.129 7.37 4.23 14.3
2/9/2021 2:45:00 PM 0.31 32.558 0.127 7.36 3.62 14.31
2/9/2021 3:00:00 PM 0.31 32.558 0.125 7.37 3.57 14.31
2/9/2021 3:15:00 PM 0.3 32.54 0.122 7.37 3.52 14.32
2/9/2021 3:30:00 PM 0.28 32.504 0.122 7.37 3.35 14.32
2/9/2021 3:45:00 PM 0.27 32.486 0.122 7.37 3.43 14.32
2/9/2021 4:00:00 PM 0.27 32.486 0.123 7.37 3.34 14.31
2/9/2021 4:15:00 PM 0.25 32.45 0.123 7.38 3.69 14.3
2/9/2021 4:30:00 PM 0.24 32.432 0.121 7.37 3.39 14.29
2/9/2021 4:45:00 PM 0.22 32.396 0.119 7.37 3.56 14.27
2/9/2021 5:00:00 PM 0.21 32.378 0.119 7.36 3.24 14.24
2/9/2021 5:15:00 PM 0.19 32.342 0.122 7.37 4.18 14.21
2/9/2021 5:30:00 PM 0.17 32.306 0.12 7.35 3.67 14.17
2/9/2021 5:45:00 PM 0.16 32.288 0.121 7.34 3.81 14.13
2/9/2021 6:00:00 PM 0.15 32.27 0.121 7.34 3.67 14.09
2/9/2021 6:15:00 PM 0.13 32.234 0.119 7.33 3.56 14.06
2/9/2021 6:30:00 PM 0.12 32.216 0.121 7.32 3.66 14.02
2/9/2021 6:45:00 PM 0.12 32.216 0.12 7.31 3.68 13.99
2/9/2021 7:00:00 PM 0.11 32.198 0.121 7.31 3.7 13.97
2/9/2021 7:15:00 PM 0.1 32.18 0.12 7.3 3.58 13.95
2/9/2021 7:30:00 PM 0.1 32.18 0.12 7.3 3.5 13.93
2/9/2021 7:45:00 PM 0.09 32.162 0.122 7.3 3.79 13.92
2/9/2021 8:00:00 PM 0.09 32.162 0.119 7.29 3.45 13.91
2/9/2021 8:15:00 PM 0.09 32.162 0.121 7.3 3.83 13.91
2/9/2021 8:30:00 PM 0.08 32.144 0.121 7.29 3.44 13.9
2/9/2021 8:45:00 PM 0.08 32.144 0.122 7.29 3.83 13.9
2/9/2021 9:00:00 PM 0.08 32.144 0.121 7.29 3.94 13.89
2/9/2021 9:15:00 PM 0.07 32.126 0.121 7.28 3.61 13.88
2/9/2021 9:30:00 PM 0.07 32.126 0.121 7.28 3.67 13.87
2/9/2021 9:45:00 PM 0.07 32.126 0.118 7.27 3.65 13.86
2/9/2021 10:00:00 PM 0.07 32.126 0.118 7.27 3.84 13.86
2/9/2021 10:15:00 PM 0.07 32.126 0.119 7.27 3.63 13.85
2/9/2021 10:30:00 PM 0.07 32.126 0.119 7.27 3.63 13.84
2/9/2021 10:45:00 PM 0.07 32.126 0.119 7.26 3.57 13.84
2/9/2021 11:00:00 PM 0.06 32.108 0.118 7.27 3.53 13.83
2/9/2021 11:15:00 PM 0.06 32.108 0.118 7.27 3.51 13.83
2/9/2021 11:30:00 PM 0.06 32.108 0.118 7.26 3.57 13.83
2/9/2021 11:45:00 PM 0.06 32.108 0.119 7.26 3.94 13.82
2/10/2021 12:00:00 AM 0.05 32.09 0.119 7.26 3.88 13.82
2/10/2021 12:15:00 AM 0.05 32.09 0.118 7.26 3.68 13.82
2/10/2021 12:30:00 AM 0.05 32.09 0.118 7.26 3.51 13.81
2/10/2021 12:45:00 AM 0.05 32.09 0.118 7.26 3.7 13.81
2/10/2021 1:00:00 AM 0.05 32.09 0.119 7.26 3.8 13.81
2/10/2021 1:15:00 AM 0.05 32.09 0.119 7.25 3.79 13.8
2/10/2021 1:30:00 AM 0.05 32.09 0.122 7.25 3.62 13.81
2/10/2021 1:45:00 AM 0.05 32.09 0.122 7.25 4.65 13.8
2/10/2021 2:00:00 AM 0.05 32.09 0.12 7.25 3.59 13.8
2/10/2021 2:15:00 AM 0.05 32.09 0.118 7.25 3.67 13.8
2/10/2021 2:30:00 AM 0.05 32.09 0.118 7.25 3.45 13.79
2/10/2021 2:45:00 AM 0.05 32.09 0.118 7.25 3.66 13.79
2/10/2021 3:00:00 AM 0.05 32.09 0.118 7.25 3.79 13.79
2/10/2021 3:15:00 AM 0.05 32.09 0.118 7.25 3.57 13.79
2/10/2021 3:30:00 AM 0.04 32.072 0.118 7.25 3.64 13.79
2/10/2021 3:45:00 AM 0.04 32.072 0.118 7.25 3.59 13.79
2/10/2021 4:00:00 AM 0.04 32.072 0.118 7.25 3.58 13.78
2/10/2021 4:15:00 AM 0.03 32.054 0.118 7.25 3.6 13.78
2/10/2021 4:30:00 AM 0.03 32.054 0.118 7.24 3.49 13.79
2/10/2021 4:45:00 AM 0.02 32.036 0.118 7.25 3.44 13.79
2/10/2021 5:00:00 AM 0.01 32.018 0.118 7.24 3.63 13.79
2/10/2021 5:15:00 AM 0 32 0.118 7.24 3.61 13.79
2/10/2021 5:30:00 AM -0.01 31.982 0.119 7.25 3.66 13.79
2/10/2021 5:45:00 AM -0.02 31.964 0.122 7.25 3.76 13.79
2/10/2021 6:00:00 AM -0.02 31.964 0.122 7.24 3.77 13.8
2/10/2021 6:15:00 AM -0.02 31.964 0.121 7.24 3.73 13.8
2/10/2021 6:30:00 AM 0 32 0.117 7.24 3.77 13.81
2/10/2021 6:45:00 AM 0 32 0.121 7.24 3.95 13.8
2/10/2021 7:00:00 AM 0 32 0.119 7.24 3.51 13.82
2/10/2021 7:15:00 AM 0 32 0.12 7.24 3.89 13.82
2/10/2021 7:30:00 AM 0 32 0.12 7.24 3.69 13.83
2/10/2021 7:45:00 AM 0 32 0.121 7.24 3.77 13.88
2/10/2021 8:00:00 AM 0 32 0.12 7.25 3.81 13.92
2/10/2021 8:15:00 AM 0 32 0.121 7.26 4.01 13.96
2/10/2021 8:30:00 AM 0 32 0.119 7.26 3.63 14
2/10/2021 8:45:00 AM 0 32 0.12 7.27 3.78 14.05
2/10/2021 9:00:00 AM 0.01 32.018 0.121 7.27 4.86 14.09
2/10/2021 9:15:00 AM 0.01 32.018 0.119 7.28 7.96 14.15
2/10/2021 9:30:00 AM 0.01 32.018 0.121 7.29 6.54 14.2
2/10/2021 9:45:00 AM 0.02 32.036 0.119 7.31 4.52 14.25
2/10/2021 10:00:00 AM 0.02 32.036 0.12 7.32 4.09 14.28
2/10/2021 10:15:00 AM 0.05 32.09 0.12 7.33 3.67 14.32
2/10/2021 10:30:00 AM 0.1 32.18 0.12 7.33 3.76 14.34
2/10/2021 10:45:00 AM 0.16 32.288 0.121 7.34 3.92 14.35
2/10/2021 11:00:00 AM 0.21 32.378 0.121 7.34 4.01 14.36
2/10/2021 11:15:00 AM 0.26 32.468 0.119 7.34 3.63 14.37
2/10/2021 11:30:00 AM 0.32 32.576 0.119 7.35 3.55 14.37
2/10/2021 11:45:00 AM 0.38 32.684 0.118 7.35 3.63 14.37
2/10/2021 12:00:00 PM 0.43 32.774 0.118 7.36 3.63 14.37
2/10/2021 12:15:00 PM 0.48 32.864 0.121 7.36 3.74 14.38
2/10/2021 12:30:00 PM 0.52 32.936 0.117 7.36 3.54 14.38
2/10/2021 12:45:00 PM 0.55 32.99 0.116 7.37 3.73 14.39
2/10/2021 1:00:00 PM 0.54 32.972 0.115 7.37 3.5 14.39
2/10/2021 1:15:00 PM 0.55 32.99 0.046 7.38 3.73 14.4
2/10/2021 1:30:00 PM 0.58 33.044 0.045 7.38 3.73 14.4
2/10/2021 1:45:00 PM 0.61 33.098 0.117 7.38 3.61 14.4
2/10/2021 2:00:00 PM 0.59 33.062 0.115 7.39 3.57 14.41
2/10/2021 2:15:00 PM 0.58 33.044 0.116 7.39 3.56 14.43
2/10/2021 2:30:00 PM 0.55 32.99 0.119 7.4 3.81 14.44
2/10/2021 2:45:00 PM 0.52 32.936 0.117 7.4 3.59 14.45
2/10/2021 3:00:00 PM 0.5 32.9 0.117 7.4 3.55 14.44
2/10/2021 3:15:00 PM 0.49 32.882 0.117 7.4 3.53 14.45
2/10/2021 3:30:00 PM 0.47 32.846 0.118 7.41 3.82 14.45
2/10/2021 3:45:00 PM 0.44 32.792 0.117 7.41 3.64 14.45
2/10/2021 4:00:00 PM 0.42 32.756 0.117 7.41 3.6 14.45
2/10/2021 4:15:00 PM 0.4 32.72 0.118 7.41 3.57 14.44
2/10/2021 4:30:00 PM 0.37 32.666 0.119 7.41 3.84 14.43
2/10/2021 4:45:00 PM 0.35 32.63 0.117 7.41 5.89 14.42
2/10/2021 5:00:00 PM 0.33 32.594 0.119 7.4 3.82 14.39
2/10/2021 5:15:00 PM 0.3 32.54 0.118 7.39 3.74 14.36
2/10/2021 5:30:00 PM 0.27 32.486 0.118 7.38 3.4 14.32
2/10/2021 5:45:00 PM 0.25 32.45 0.119 7.37 3.78 14.28
2/10/2021 6:00:00 PM 0.23 32.414 0.12 7.37 4.3 14.23
2/10/2021 6:15:00 PM 0.21 32.378 0.118 7.35 3.74 14.19
2/10/2021 6:30:00 PM 0.2 32.36 0.118 7.35 3.81 14.15
2/10/2021 6:45:00 PM 0.19 32.342 0.119 7.34 3.78 14.11
2/10/2021 7:00:00 PM 0.17 32.306 0.118 7.33 3.53 14.07
2/10/2021 7:15:00 PM 0.16 32.288 0.119 7.32 3.75 14.04
2/10/2021 7:30:00 PM 0.15 32.27 0.118 7.32 3.53 14.01
2/10/2021 7:45:00 PM 0.14 32.252 0.119 7.31 3.58 13.99
2/10/2021 8:00:00 PM 0.13 32.234 0.12 7.3 3.88 13.98
2/10/2021 8:15:00 PM 0.13 32.234 0.121 7.3 3.25 13.97
2/10/2021 8:30:00 PM 0.12 32.216 0.121 7.3 5.06 13.96
2/10/2021 8:45:00 PM 0.12 32.216 0.119 7.3 3.54 13.96
2/10/2021 9:00:00 PM 0.11 32.198 0.117 7.29 3.59 13.94
2/10/2021 9:15:00 PM 0.11 32.198 0.118 7.29 3.89 13.94
2/10/2021 9:30:00 PM 0.1 32.18 0.121 7.29 4.26 13.93
2/10/2021 9:45:00 PM 0.1 32.18 0.118 7.28 3.48 13.92
2/10/2021 10:00:00 PM 0.1 32.18 0.118 7.28 3.64 13.91
2/10/2021 10:15:00 PM 0.09 32.162 0.118 7.28 3.72 13.9
2/10/2021 10:30:00 PM 0.09 32.162 0.12 7.27 4.25 13.89
2/10/2021 10:45:00 PM 0.09 32.162 0.118 7.27 3.47 13.88
2/10/2021 11:00:00 PM 0.09 32.162 0.118 7.26 3.62 13.87
2/10/2021 11:15:00 PM 0.09 32.162 0.119 7.27 3.72 13.86
2/10/2021 11:30:00 PM 0.08 32.144 0.12 7.26 4.16 13.85
2/10/2021 11:45:00 PM 0.07 32.126 0.12 7.26 4.16 13.84
2/11/2021 12:00:00 AM 0.06 32.108 0.12 7.26 4.01 13.84
2/11/2021 12:15:00 AM 0.06 32.108 0.119 7.26 3.78 13.83
2/11/2021 12:30:00 AM 0.06 32.108 0.119 7.25 3.74 13.82
2/11/2021 12:45:00 AM 0.06 32.108 0.12 7.25 3.77 13.82
2/11/2021 1:00:00 AM 0.05 32.09 0.118 7.25 3.52 13.82
2/11/2021 1:15:00 AM 0.04 32.072 0.12 7.25 3.85 13.82
2/11/2021 1:30:00 AM 0.04 32.072 0.118 7.25 3.5 13.81
2/11/2021 1:45:00 AM 0.03 32.054 0.12 7.25 3.9 13.81
2/11/2021 2:00:00 AM 0.03 32.054 0.119 7.25 3.61 13.8
2/11/2021 2:15:00 AM 0.03 32.054 0.12 7.25 3.8 13.8
2/11/2021 2:30:00 AM 0.03 32.054 0.119 7.25 3.78 13.8
2/11/2021 2:45:00 AM 0.02 32.036 0.119 7.25 3.59 13.79
2/11/2021 3:00:00 AM 0.02 32.036 0.119 7.25 3.59 13.79
2/11/2021 3:15:00 AM 0.02 32.036 0.118 7.25 3.74 13.79
2/11/2021 3:30:00 AM 0.02 32.036 0.119 7.25 3.7 13.79
2/11/2021 3:45:00 AM 0.02 32.036 0.119 7.25 3.79 13.77
2/11/2021 4:00:00 AM 0.02 32.036 0.119 7.25 3.9 13.78
2/11/2021 4:15:00 AM 0.02 32.036 0.12 7.25 3.75 13.78
2/11/2021 4:30:00 AM 0.01 32.018 0.119 7.25 3.69 13.78
2/11/2021 4:45:00 AM 0.01 32.018 0.119 7.25 3.72 13.78
2/11/2021 5:00:00 AM 0.01 32.018 0.12 7.25 4.1 13.78
2/11/2021 5:15:00 AM 0.01 32.018 0.119 7.25 3.58 13.78
2/11/2021 5:30:00 AM 0.01 32.018 0.118 7.25 3.66 13.78
2/11/2021 5:45:00 AM 0.01 32.018 0.118 7.25 3.39 13.78
2/11/2021 6:00:00 AM 0.01 32.018 0.119 7.25 3.72 13.78
2/11/2021 6:15:00 AM 0.01 32.018 0.121 7.25 3.69 13.78
2/11/2021 6:30:00 AM 0.01 32.018 0.122 7.25 3.28 13.77
2/11/2021 6:45:00 AM 0.01 32.018 0.122 7.25 3.7 13.77
2/11/2021 7:00:00 AM 0.01 32.018 0.119 7.25 3.43 13.78
2/11/2021 7:15:00 AM 0.01 32.018 0.122 7.25 4.22 13.78
2/11/2021 7:30:00 AM 0.01 32.018 0.121 7.25 3.72 13.79
2/11/2021 7:45:00 AM 0.01 32.018 0.119 7.25 3.5 13.8
2/11/2021 8:00:00 AM 0.02 32.036 0.119 7.26 3.77 13.83
2/11/2021 8:15:00 AM 0.02 32.036 0.12 7.27 3.84 13.87
2/11/2021 8:30:00 AM 0.03 32.054 0.12 7.27 3.76 13.91
2/11/2021 8:45:00 AM 0.04 32.072 0.12 7.28 3.7 13.96
2/11/2021 9:00:00 AM 0.06 32.108 0.121 7.29 3.49 14.02
2/11/2021 9:15:00 AM 0.08 32.144 0.123 7.29 3.57 14.07
2/11/2021 9:30:00 AM 0.1 32.18 0.12 7.31 3.49 14.11
2/11/2021 9:45:00 AM 0.11 32.198 0.122 7.32 3.44 14.17
2/11/2021 10:00:00 AM 0.12 32.216 0.122 7.32 3.66 14.21
2/11/2021 10:15:00 AM 0.13 32.234 0.122 7.34 3.91 14.26
2/11/2021 10:30:00 AM 0.15 32.27 0.12 7.34 3.49 14.29
2/11/2021 10:45:00 AM 0.17 32.306 0.122 7.35 4 14.32
2/11/2021 11:00:00 AM 0.2 32.36 0.12 7.35 3.56 14.34
2/11/2021 11:15:00 AM 0.24 32.432 0.121 7.36 3.9 14.36
2/11/2021 11:30:00 AM 0.28 32.504 0.12 7.36 3.78 14.37
2/11/2021 11:45:00 AM 0.31 32.558 0.122 7.36 3.61 14.38
2/11/2021 12:00:00 PM 0.37 32.666 0.121 7.37 3.73 14.39
2/11/2021 12:15:00 PM 0.38 32.684 0.12 7.37 3.58 14.4
2/11/2021 12:30:00 PM 0.41 32.738 0.121 7.37 3.85 14.4
2/11/2021 12:45:00 PM 0.47 32.846 0.119 7.38 3.42 14.41
2/11/2021 1:00:00 PM 0.48 32.864 0.122 7.39 3.86 14.41
2/11/2021 1:15:00 PM 0.49 32.882 0.122 7.39 4.08 14.42
2/11/2021 1:30:00 PM 0.52 32.936 0.118 7.39 3.27 14.43
2/11/2021 1:45:00 PM 0.51 32.918 0.119 7.4 3.69 14.43
2/11/2021 2:00:00 PM 0.53 32.954 0.119 7.41 3.69 14.44
2/11/2021 2:15:00 PM 0.52 32.936 0.119 7.41 3.6 14.44
2/11/2021 2:30:00 PM 0.48 32.864 0.118 7.41 3.31 14.46
2/11/2021 2:45:00 PM 0.51 32.918 0.119 7.41 3.66 14.46
2/11/2021 3:00:00 PM 0.54 32.972 0.119 7.42 3.6 14.47
2/11/2021 3:15:00 PM 0.52 32.936 0.118 7.42 3.39 14.48
2/11/2021 3:30:00 PM 0.48 32.864 0.118 7.42 3.37 14.47
2/11/2021 3:45:00 PM 0.44 32.792 0.118 7.42 3.3 14.47
2/11/2021 4:00:00 PM 0.42 32.756 0.118 7.42 3.43 14.47
2/11/2021 4:15:00 PM 0.38 32.684 0.119 7.42 3.59 14.46
2/11/2021 4:30:00 PM 0.34 32.612 0.121 7.42 3.8 14.46
2/11/2021 4:45:00 PM 0.3 32.54 0.121 7.42 3.75 14.46
2/11/2021 5:00:00 PM 0.27 32.486 0.121 7.41 3.59 14.44
2/11/2021 5:15:00 PM 0.23 32.414 0.121 7.4 3.79 14.42
2/11/2021 5:30:00 PM 0.2 32.36 0.121 7.4 3.52 14.38
2/11/2021 5:45:00 PM 0.17 32.306 0.12 7.39 3.74 14.33
2/11/2021 6:00:00 PM 0.15 32.27 0.121 7.38 4.09 14.3
2/11/2021 6:15:00 PM 0.13 32.234 0.121 7.38 4.11 14.26
2/11/2021 6:30:00 PM 0.11 32.198 0.121 7.37 3.57 14.22
2/11/2021 6:45:00 PM 0.1 32.18 0.121 7.36 3.66 14.18
2/11/2021 7:00:00 PM 0.08 32.144 0.121 7.35 4.2 14.14
2/11/2021 7:15:00 PM 0.06 32.108 0.121 7.34 3.72 14.11
2/11/2021 7:30:00 PM 0.05 32.09 0.121 7.34 3.86 14.08
2/11/2021 7:45:00 PM 0.04 32.072 0.121 7.33 3.52 14.06
2/11/2021 8:00:00 PM 0.03 32.054 0.121 7.33 3.55 14.05
2/11/2021 8:15:00 PM 0.02 32.036 0.121 7.32 4.19 14.04
2/11/2021 8:30:00 PM 0.01 32.018 0.121 7.32 3.55 14.03
2/11/2021 8:45:00 PM -0.01 31.982 0.121 7.32 3.66 14.03
2/11/2021 9:00:00 PM -0.02 31.964 0.118 7.31 3.51 14.03
2/11/2021 9:15:00 PM -0.03 31.946 0.121 7.31 3.66 14.03
2/11/2021 9:30:00 PM -0.03 31.946 0.121 7.31 4.05 14.02
2/11/2021 9:45:00 PM -0.03 31.946 0.121 7.3 3.7 14.02
2/11/2021 10:00:00 PM -0.02 31.964 0.121 7.32 4.27 14.02
2/11/2021 10:15:00 PM -0.02 31.964 0.121 7.29 4.16 14
2/11/2021 10:30:00 PM -0.01 31.982 0.121 7.29 4.56 14
2/11/2021 10:45:00 PM -0.01 31.982 0.121 7.29 4.38 14
2/11/2021 11:00:00 PM -0.01 31.982 0.122 7.28 4.2 13.99
2/11/2021 11:15:00 PM -0.01 31.982 0.122 7.28 4.11 13.99
2/11/2021 11:30:00 PM 0 32 0.122 7.28 4.3 13.98
2/11/2021 11:45:00 PM 0 32 0.122 7.26 4.21 13.97
2/12/2021 12:00:00 AM 0 32 0.123 7.26 3.95 13.97
2/12/2021 12:15:00 AM 0 32 0.12 7.26 4.09 13.97
2/12/2021 12:30:00 AM 0 32 0.123 7.26 3.91 13.96
2/12/2021 12:45:00 AM 0 32 0.123 7.26 3.98 13.95
2/12/2021 1:00:00 AM 0 32 0.123 7.26 3.89 13.95
2/12/2021 1:15:00 AM 0 32 0.121 7.26 3.52 13.95
2/12/2021 1:30:00 AM 0 32 0.121 7.25 3.52 13.94
2/12/2021 1:45:00 AM 0 32 0.123 7.24 3.9 13.94
2/12/2021 2:00:00 AM 0 32 0.123 7.25 3.83 13.93
2/12/2021 2:15:00 AM 0 32 0.124 7.24 3.65 13.94
2/12/2021 2:30:00 AM 0 32 0.124 7.24 3.77 13.92
2/12/2021 2:45:00 AM 0 32 0.125 7.23 3.6 13.92
2/12/2021 3:00:00 AM 0 32 0.127 7.23 3.55 13.91
2/12/2021 3:15:00 AM 0 32 0.127 7.23 3.54 13.9
2/12/2021 3:30:00 AM 0 32 0.128 7.22 3.62 13.9
2/12/2021 3:45:00 AM 0 32 0.129 7.22 3.87 13.9
2/12/2021 4:00:00 AM 0 32 0.129 7.22 3.44 13.9
2/12/2021 4:15:00 AM 0 32 0.13 7.22 3.68 13.89
2/12/2021 4:30:00 AM 0 32 0.13 7.2 3.48 13.89
2/12/2021 4:45:00 AM 0 32 0.134 7.22 3.66 13.9
2/12/2021 5:00:00 AM 0 32 0.131 7.21 3.64 13.88
2/12/2021 5:15:00 AM 0 32 0.134 7.2 3.43 13.88
2/12/2021 5:30:00 AM 0 32 0.134 7.21 3.39 13.89
2/12/2021 5:45:00 AM 0 32 0.133 7.21 3.19 13.89
2/12/2021 6:00:00 AM 0 32 0.133 7.21 3.16 13.89
2/12/2021 6:15:00 AM 0 32 0.133 7.2 3.21 13.88
2/12/2021 6:30:00 AM 0 32 0.137 7.19 3.68 13.88
2/12/2021 6:45:00 AM 0 32 0.137 7.2 3.55 13.87
2/12/2021 7:00:00 AM 0 32 0.134 7.19 3.25 13.87
2/12/2021 7:15:00 AM 0 32 0.138 7.19 3.47 13.87
2/12/2021 7:30:00 AM 0 32 0.138 7.2 4.11 13.88
2/12/2021 7:45:00 AM 0 32 0.137 7.2 3.52 13.9
2/12/2021 8:00:00 AM 0 32 0.135 7.19 3.27 13.94
2/12/2021 8:15:00 AM 0.01 32.018 0.135 7.19 3.29 13.98
2/12/2021 8:30:00 AM 0.01 32.018 0.135 7.21 3.25 14.01
2/12/2021 8:45:00 AM 0.01 32.018 0.135 7.19 3.21 14.04
2/12/2021 9:00:00 AM 0.01 32.018 0.135 7.21 3.16 14.07
2/12/2021 9:15:00 AM 0.01 32.018 0.139 7.2 3.64 14.1
2/12/2021 9:30:00 AM 0.01 32.018 0.139 7.22 4.07 14.12
2/12/2021 9:45:00 AM 0.01 32.018 0.138 7.22 3.34 14.16
2/12/2021 10:00:00 AM 0.01 32.018 0.137 7.22 3.33 14.19
2/12/2021 10:15:00 AM 0.01 32.018 0.137 7.22 3.49 14.22
2/12/2021 10:30:00 AM 0.02 32.036 0.138 7.24 3.74 14.26
2/12/2021 10:45:00 AM 0.02 32.036 0.134 7.25 4.05 14.31
2/12/2021 11:00:00 AM 0.02 32.036 0.135 7.26 3.86 14.34
2/12/2021 11:15:00 AM 0.02 32.036 0.132 7.27 3.93 14.37
2/12/2021 11:30:00 AM 0.03 32.054 0.13 7.26 4.15 14.39
2/12/2021 11:45:00 AM 0.03 32.054 0.128 7.27 4.43 14.39
2/12/2021 12:00:00 PM 0.03 32.054 0.125 7.28 4.42 14.39
2/12/2021 12:15:00 PM 0.03 32.054 0.123 7.28 4.73 14.4
2/12/2021 12:30:00 PM 0.03 32.054 0.122 7.28 4.75 14.41
2/12/2021 12:45:00 PM 0.03 32.054 0.12 7.29 4.86 14.42
2/12/2021 1:00:00 PM 0.04 32.072 0.121 7.29 5.61 14.44
2/12/2021 1:15:00 PM 0.04 32.072 0.116 7.3 4.44 14.46
2/12/2021 1:30:00 PM 0.04 32.072 0.117 7.31 4.96 14.47
2/12/2021 1:45:00 PM 0.05 32.09 0.114 7.32 4.27 14.5
2/12/2021 2:00:00 PM 0.04 32.072 0.113 7.32 4.05 14.51
2/12/2021 2:15:00 PM 0.04 32.072 0.113 7.32 4.24 14.52
2/12/2021 2:30:00 PM 0.05 32.09 0.113 7.34 4.02 14.54
2/12/2021 2:45:00 PM 0.04 32.072 0.112 7.33 4 14.54
2/12/2021 3:00:00 PM 0.04 32.072 0.113 7.34 4.32 14.54
2/12/2021 3:15:00 PM 0.04 32.072 0.113 7.35 4.15 14.54
2/12/2021 3:30:00 PM 0.04 32.072 0.117 7.36 4.32 14.54
2/12/2021 3:45:00 PM 0.04 32.072 0.115 7.36 4.35 14.55
2/12/2021 4:00:00 PM 0.05 32.09 0.115 7.36 4.08 14.55
2/12/2021 4:15:00 PM 0.05 32.09 0.115 7.37 3.98 14.55
2/12/2021 4:30:00 PM 0.04 32.072 0.116 7.37 3.78 14.54
2/12/2021 4:45:00 PM 0.04 32.072 0.119 7.36 4.14 14.52
2/12/2021 5:00:00 PM 0.04 32.072 0.116 7.36 3.9 14.49
2/12/2021 5:15:00 PM 0.03 32.054 0.117 7.35 4.03 14.45
2/12/2021 5:30:00 PM 0.03 32.054 0.116 7.35 3.7 14.42
2/12/2021 5:45:00 PM 0.03 32.054 0.117 7.34 3.71 14.38
2/12/2021 6:00:00 PM 0.03 32.054 0.118 7.34 3.86 14.33
2/12/2021 6:15:00 PM 0.02 32.036 0.12 7.33 4.34 14.28
2/12/2021 6:30:00 PM 0.02 32.036 0.117 7.32 3.54 14.24
2/12/2021 6:45:00 PM 0.02 32.036 0.117 7.31 3.6 14.2
2/12/2021 7:00:00 PM 0.02 32.036 0.117 7.3 3.66 14.17
2/12/2021 7:15:00 PM 0.02 32.036 0.117 7.29 3.44 14.14
2/12/2021 7:30:00 PM 0.02 32.036 0.121 7.29 3.75 14.12
2/12/2021 7:45:00 PM 0.02 32.036 0.119 7.29 3.82 14.1
2/12/2021 8:00:00 PM 0.02 32.036 0.117 7.29 3.58 14.09
2/12/2021 8:15:00 PM 0.02 32.036 0.118 7.28 3.66 14.07
2/12/2021 8:30:00 PM 0.02 32.036 0.117 7.28 3.49 14.06
2/12/2021 8:45:00 PM 0.02 32.036 0.119 7.28 3.54 14.05
2/12/2021 9:00:00 PM 0.02 32.036 0.117 7.27 3.34 14.03
2/12/2021 9:15:00 PM 0.01 32.018 0.117 7.27 3.49 14.02
2/12/2021 9:30:00 PM 0.01 32.018 0.117 7.27 3.43 14.01
2/12/2021 9:45:00 PM 0.01 32.018 0.117 7.26 3.4 13.99
2/12/2021 10:00:00 PM 0.01 32.018 0.12 7.26 3.67 13.98
2/12/2021 10:15:00 PM 0.01 32.018 0.118 7.26 3.63 13.97
2/12/2021 10:30:00 PM 0.01 32.018 0.117 7.25 3.53 13.96
2/12/2021 10:45:00 PM 0.01 32.018 0.117 7.25 3.27 13.94
2/12/2021 11:00:00 PM 0.01 32.018 0.117 7.25 3.42 13.93
2/12/2021 11:15:00 PM 0 32 0.118 7.25 3.65 13.92
2/12/2021 11:30:00 PM 0 32 0.117 7.24 3.27 13.91
2/12/2021 11:45:00 PM 0 32 0.117 7.24 3.3 13.91
2/13/2021 12:00:00 AM 0 32 0.117 7.24 3.29 13.9
2/13/2021 12:15:00 AM 0 32 0.117 7.24 3.35 13.9
2/13/2021 12:30:00 AM 0 32 0.117 7.24 3.19 13.89
2/13/2021 12:45:00 AM 0 32 0.117 7.23 3.3 13.88
2/13/2021 1:00:00 AM 0 32 0.118 7.23 3.55 13.88
2/13/2021 1:15:00 AM 0 32 0.118 7.23 3.33 13.87
2/13/2021 1:30:00 AM -0.01 31.982 0.117 7.23 3.33 13.87
2/13/2021 1:45:00 AM -0.01 31.982 0.117 7.22 3.34 13.86
2/13/2021 2:00:00 AM -0.01 31.982 0.117 7.23 3.41 13.86
2/13/2021 2:15:00 AM -0.01 31.982 0.12 7.2 3.57 13.86
2/13/2021 2:30:00 AM -0.01 31.982 0.118 7.23 3.26 13.86
2/13/2021 2:45:00 AM -0.02 31.964 0.12 7.22 3.39 13.86
2/13/2021 3:00:00 AM -0.02 31.964 0.118 7.23 3.43 13.85
2/13/2021 3:15:00 AM -0.02 31.964 0.118 7.21 3.28 13.85
2/13/2021 3:30:00 AM -0.02 31.964 0.118 7.22 3.24 13.85
2/13/2021 3:45:00 AM -0.02 31.964 0.118 7.22 3.29 13.84
2/13/2021 4:00:00 AM -0.01 31.982 0.119 7.22 3.25 13.84
2/13/2021 4:15:00 AM -0.01 31.982 0.118 7.22 3.25 13.84
2/13/2021 4:30:00 AM -0.01 31.982 0.118 7.22 3.25 13.84
2/13/2021 4:45:00 AM -0.01 31.982 0.118 7.22 3.45 13.84
2/13/2021 5:00:00 AM -0.01 31.982 0.12 7.21 3.47 13.84
2/13/2021 5:15:00 AM -0.01 31.982 0.12 7.22 3.6 13.83
2/13/2021 5:30:00 AM -0.01 31.982 0.121 7.22 3.72 13.83
2/13/2021 5:45:00 AM -0.01 31.982 0.122 7.22 3.7 13.83
2/13/2021 6:00:00 AM -0.01 31.982 0.119 7.21 3.54 13.82
2/13/2021 6:15:00 AM -0.01 31.982 0.119 7.2 3.59 13.82
2/13/2021 6:30:00 AM -0.01 31.982 0.121 7.19 3.73 13.82
2/13/2021 6:45:00 AM -0.01 31.982 0.123 7.2 4.03 13.81
2/13/2021 7:00:00 AM -0.01 31.982 0.123 7.22 4.44 13.82
2/13/2021 7:15:00 AM 0 32 0.12 7.2 3.43 13.83
2/13/2021 7:30:00 AM 0 32 0.121 7.21 3.43 13.86
2/13/2021 7:45:00 AM 0 32 0.121 7.22 3.5 13.9
2/13/2021 8:00:00 AM 0 32 0.121 7.22 3.64 13.94
2/13/2021 8:15:00 AM 0 32 0.121 7.23 3.52 13.97
2/13/2021 8:30:00 AM 0 32 0.121 7.24 3.56 14.01
2/13/2021 8:45:00 AM 0 32 0.121 7.24 3.44 14.05
2/13/2021 9:00:00 AM 0.01 32.018 0.121 7.25 3.41 14.11
2/13/2021 9:15:00 AM 0.01 32.018 0.122 7.26 3.43 14.18
2/13/2021 9:30:00 AM 0.01 32.018 0.122 7.26 3.46 14.24
2/13/2021 9:45:00 AM 0.02 32.036 0.122 7.25 3.38 14.28
2/13/2021 10:00:00 AM 0.02 32.036 0.122 7.28 3.44 14.33
2/13/2021 10:15:00 AM 0.02 32.036 0.122 7.28 3.51 14.36
2/13/2021 10:30:00 AM 0.04 32.072 0.122 7.31 3.44 14.41
2/13/2021 10:45:00 AM 0.07 32.126 0.122 7.31 3.32 14.45
2/13/2021 11:00:00 AM 0.12 32.216 0.122 7.31 3.38 14.47
2/13/2021 11:15:00 AM 0.17 32.306 0.121 7.32 3.31 14.49
2/13/2021 11:30:00 AM 0.22 32.396 0.124 7.32 3.61 14.49
2/13/2021 11:45:00 AM 0.26 32.468 0.121 7.33 3.31 14.49
2/13/2021 12:00:00 PM 0.31 32.558 0.121 7.34 3.3 14.48
2/13/2021 12:15:00 PM 0.35 32.63 0.12 7.34 3.37 14.47
2/13/2021 12:30:00 PM 0.39 32.702 0.12 7.34 3.32 14.47
2/13/2021 12:45:00 PM 0.41 32.738 0.119 7.35 3.32 14.47
2/13/2021 1:00:00 PM 0.43 32.774 0.118 7.36 3.34 14.47
2/13/2021 1:15:00 PM 0.46 32.828 0.118 7.36 3.34 14.46
2/13/2021 1:30:00 PM 0.45 32.81 0.117 7.37 3.23 14.46
2/13/2021 1:45:00 PM 0.44 32.792 0.117 7.37 3.35 14.46
2/13/2021 2:00:00 PM 0.43 32.774 0.116 7.36 3.39 14.48
2/13/2021 2:15:00 PM 0.41 32.738 0.116 7.38 3.26 14.49
2/13/2021 2:30:00 PM 0.4 32.72 0.115 7.38 3.13 14.5
2/13/2021 2:45:00 PM 0.4 32.72 0.116 7.39 3.48 14.52
2/13/2021 3:00:00 PM 0.38 32.684 0.118 7.39 3.68 14.53
2/13/2021 3:15:00 PM 0.36 32.648 0.118 7.39 3.49 14.54
2/13/2021 3:30:00 PM 0.35 32.63 0.115 7.4 3.29 14.54
2/13/2021 3:45:00 PM 0.34 32.612 0.115 7.4 3.22 14.54
2/13/2021 4:00:00 PM 0.31 32.558 0.117 7.4 3.51 14.52
2/13/2021 4:15:00 PM 0.3 32.54 0.118 7.41 3.73 14.51
2/13/2021 4:30:00 PM 0.28 32.504 0.116 7.4 3.56 14.5
2/13/2021 4:45:00 PM 0.26 32.468 0.117 7.4 3.49 14.47
2/13/2021 5:00:00 PM 0.24 32.432 0.117 7.4 3.45 14.43
2/13/2021 5:15:00 PM 0.22 32.396 0.119 7.4 3.62 14.41
2/13/2021 5:30:00 PM 0.2 32.36 0.119 7.39 3.69 14.36
2/13/2021 5:45:00 PM 0.18 32.324 0.119 7.37 3.6 14.32
2/13/2021 6:00:00 PM 0.17 32.306 0.117 7.37 3.27 14.27
2/13/2021 6:15:00 PM 0.16 32.288 0.117 7.36 3.41 14.22
2/13/2021 6:30:00 PM 0.15 32.27 0.119 7.35 3.55 14.19
2/13/2021 6:45:00 PM 0.14 32.252 0.117 7.33 3.38 14.14
2/13/2021 7:00:00 PM 0.14 32.252 0.12 7.34 3.5 14.1
2/13/2021 7:15:00 PM 0.13 32.234 0.12 7.33 3.53 14.06
2/13/2021 7:30:00 PM 0.12 32.216 0.12 7.32 3.45 14.03
2/13/2021 7:45:00 PM 0.12 32.216 0.117 7.32 3.52 14
2/13/2021 8:00:00 PM 0.12 32.216 0.117 7.31 3.14 13.98
2/13/2021 8:15:00 PM 0.11 32.198 0.12 7.31 3.37 13.96
2/13/2021 8:30:00 PM 0.11 32.198 0.117 7.3 3.28 13.95
2/13/2021 8:45:00 PM 0.11 32.198 0.12 7.3 3.51 13.94
2/13/2021 9:00:00 PM 0.11 32.198 0.117 7.3 3.26 13.93
2/13/2021 9:15:00 PM 0.11 32.198 0.117 7.3 3.17 13.91
2/13/2021 9:30:00 PM 0.11 32.198 0.117 7.29 3.34 13.91
2/13/2021 9:45:00 PM 0.1 32.18 0.117 7.28 3.2 13.89
2/13/2021 10:00:00 PM 0.1 32.18 0.117 7.28 3.29 13.87
2/13/2021 10:15:00 PM 0.09 32.162 0.117 7.28 3.27 13.86
2/13/2021 10:30:00 PM 0.09 32.162 0.117 7.27 3.21 13.85
2/13/2021 10:45:00 PM 0.08 32.144 0.117 7.27 3.29 13.84
2/13/2021 11:00:00 PM 0.08 32.144 0.116 7.28 3.34 13.83
2/13/2021 11:15:00 PM 0.08 32.144 0.116 7.27 3.29 13.81
2/13/2021 11:30:00 PM 0.07 32.126 0.116 7.27 3.24 13.8
2/13/2021 11:45:00 PM 0.07 32.126 0.116 7.27 3.18 13.8
2/14/2021 12:00:00 AM 0.07 32.126 0.116 7.26 3.21 13.79
2/14/2021 12:15:00 AM 0.08 32.144 0.116 7.26 3.06 13.78
2/14/2021 12:30:00 AM 0.08 32.144 0.116 7.26 3.25 13.77
2/14/2021 12:45:00 AM 0.07 32.126 0.116 7.26 3.23 13.77
2/14/2021 1:00:00 AM 0.07 32.126 0.116 7.26 3.28 13.76
2/14/2021 1:15:00 AM 0.07 32.126 0.116 7.25 3.24 13.76
2/14/2021 1:30:00 AM 0.06 32.108 0.116 7.26 3.27 13.75
2/14/2021 1:45:00 AM 0.06 32.108 0.118 7.26 3.28 13.74
2/14/2021 2:00:00 AM 0.07 32.126 0.116 7.26 3.09 13.74
2/14/2021 2:15:00 AM 0.07 32.126 0.116 7.26 3.23 13.74
2/14/2021 2:30:00 AM 0.07 32.126 0.116 7.25 3.14 13.74
2/14/2021 2:45:00 AM 0.07 32.126 0.117 7.25 3.16 13.73
2/14/2021 3:00:00 AM 0.06 32.108 0.116 7.25 3.15 13.73
2/14/2021 3:15:00 AM 0.06 32.108 0.116 7.25 3.17 13.73
2/14/2021 3:30:00 AM 0.06 32.108 0.119 7.25 3.31 13.73
2/14/2021 3:45:00 AM 0.06 32.108 0.117 7.25 3.23 13.73
2/14/2021 4:00:00 AM 0.06 32.108 0.117 7.25 3.24 13.72
2/14/2021 4:15:00 AM 0.07 32.126 0.116 7.25 3.26 13.72
2/14/2021 4:30:00 AM 0.07 32.126 0.117 7.25 3.2 13.72
2/14/2021 4:45:00 AM 0.07 32.126 0.116 7.25 3.25 13.71
2/14/2021 5:00:00 AM 0.07 32.126 0.117 7.24 3.31 13.72
2/14/2021 5:15:00 AM 0.07 32.126 0.117 7.25 3.22 13.71
2/14/2021 5:30:00 AM 0.07 32.126 0.118 7.25 3.31 13.71
2/14/2021 5:45:00 AM 0.07 32.126 0.118 7.25 3.21 13.71
2/14/2021 6:00:00 AM 0.07 32.126 0.117 7.25 3.33 13.71
2/14/2021 6:15:00 AM 0.07 32.126 0.117 7.24 3.18 13.71
2/14/2021 6:30:00 AM 0.07 32.126 0.117 7.24 3.14 13.71
2/14/2021 6:45:00 AM 0.07 32.126 0.117 7.25 3.27 13.7
2/14/2021 7:00:00 AM 0.08 32.144 0.117 7.25 3.19 13.71
2/14/2021 7:15:00 AM 0.08 32.144 0.117 7.25 3.19 13.71
2/14/2021 7:30:00 AM 0.08 32.144 0.117 7.25 3.2 13.72
2/14/2021 7:45:00 AM 0.08 32.144 0.117 7.25 3.11 13.76
2/14/2021 8:00:00 AM 0.09 32.162 0.117 7.26 3.14 13.8
2/14/2021 8:15:00 AM 0.1 32.18 0.117 7.26 3.1 13.84
2/14/2021 8:30:00 AM 0.11 32.198 0.117 7.27 3.25 13.88
2/14/2021 8:45:00 AM 0.11 32.198 0.12 7.28 3.56 13.93
2/14/2021 9:00:00 AM 0.13 32.234 0.119 7.28 3.25 13.99
2/14/2021 9:15:00 AM 0.15 32.27 0.117 7.29 3.3 14.05
2/14/2021 9:30:00 AM 0.17 32.306 0.118 7.29 3.18 14.1
2/14/2021 9:45:00 AM 0.18 32.324 0.117 7.32 3.18 14.16
2/14/2021 10:00:00 AM 0.2 32.36 0.117 7.33 3.2 14.21
2/14/2021 10:15:00 AM 0.2 32.36 0.117 7.32 3.2 14.25
2/14/2021 10:30:00 AM 0.21 32.378 0.117 7.34 3.23 14.29
2/14/2021 10:45:00 AM 0.23 32.414 0.117 7.35 3.15 14.33
2/14/2021 11:00:00 AM 0.24 32.432 0.117 7.36 3.06 14.36
2/14/2021 11:15:00 AM 0.25 32.45 0.117 7.36 3.19 14.37
2/14/2021 11:30:00 AM 0.25 32.45 0.117 7.37 3.19 14.38
2/14/2021 11:45:00 AM 0.24 32.432 0.117 7.37 3.12 14.38
2/14/2021 12:00:00 PM 0.25 32.45 0.117 7.38 3.17 14.4
2/14/2021 12:15:00 PM 0.25 32.45 0.117 7.38 3.16 14.42
2/14/2021 12:30:00 PM 0.27 32.486 0.117 7.38 3.13 14.44
2/14/2021 12:45:00 PM 0.29 32.522 0.117 7.38 3.11 14.46
2/14/2021 1:00:00 PM 0.31 32.558 0.117 7.39 3.12 14.47
2/14/2021 1:15:00 PM 0.32 32.576 0.117 7.4 3.11 14.49
2/14/2021 1:30:00 PM 0.33 32.594 0.116 7.4 3.18 14.5
2/14/2021 1:45:00 PM 0.33 32.594 0.117 7.41 3.15 14.51
2/14/2021 2:00:00 PM 0.34 32.612 0.116 7.42 3.08 14.53
2/14/2021 2:15:00 PM 0.35 32.63 0.117 7.42 3.24 14.54
2/14/2021 2:30:00 PM 0.35 32.63 0.116 7.42 3.16 14.54
2/14/2021 2:45:00 PM 0.35 32.63 0.116 7.43 3.1 14.55
2/14/2021 3:00:00 PM 0.34 32.612 0.116 7.42 3.24 14.55
2/14/2021 3:15:00 PM 0.34 32.612 0.116 7.43 3.23 14.56
2/14/2021 3:30:00 PM 0.33 32.594 0.116 7.44 3.1 14.55
2/14/2021 3:45:00 PM 0.31 32.558 0.116 7.43 3.12 14.55
2/14/2021 4:00:00 PM 0.3 32.54 0.116 7.43 3.16 14.55
2/14/2021 4:15:00 PM 0.29 32.522 0.116 7.43 3.18 14.55
2/14/2021 4:30:00 PM 0.28 32.504 0.116 7.44 3.24 14.56
2/14/2021 4:45:00 PM 0.26 32.468 0.116 7.43 3.34 14.55
2/14/2021 5:00:00 PM 0.24 32.432 0.116 7.43 3.19 14.53
2/14/2021 5:15:00 PM 0.22 32.396 0.116 7.43 3.2 14.5
2/14/2021 5:30:00 PM 0.21 32.378 0.116 7.42 4.29 14.45
2/14/2021 5:45:00 PM 0.19 32.342 0.116 7.41 3.3 14.4
2/14/2021 6:00:00 PM 0.18 32.324 0.116 7.4 3.14 14.36
2/14/2021 6:15:00 PM 0.16 32.288 0.116 7.39 3.21 14.32
2/14/2021 6:30:00 PM 0.15 32.27 0.117 7.38 3.22 14.28
2/14/2021 6:45:00 PM 0.14 32.252 0.116 7.37 3.32 14.23
2/14/2021 7:00:00 PM 0.13 32.234 0.116 7.36 3.16 14.19
2/14/2021 7:15:00 PM 0.12 32.216 0.116 7.35 3.4 14.15
2/14/2021 7:30:00 PM 0.11 32.198 0.116 7.34 3.22 14.11
2/14/2021 7:45:00 PM 0.1 32.18 0.117 7.34 3.18 14.07
2/14/2021 8:00:00 PM 0.09 32.162 0.116 7.33 3.33 14.05
2/14/2021 8:15:00 PM 0.09 32.162 0.116 7.33 3.29 14.03
2/14/2021 8:30:00 PM 0.09 32.162 0.116 7.32 3.22 14.02
2/14/2021 8:45:00 PM 0.08 32.144 0.116 7.32 3.28 14.01
2/14/2021 9:00:00 PM 0.08 32.144 0.116 7.32 3.27 14
2/14/2021 9:15:00 PM 0.08 32.144 0.116 7.31 3.28 13.99
2/14/2021 9:30:00 PM 0.08 32.144 0.116 7.31 3.4 13.98
2/14/2021 9:45:00 PM 0.08 32.144 0.116 7.29 3.36 13.97
2/14/2021 10:00:00 PM 0.07 32.126 0.116 7.3 3.29 13.97
2/14/2021 10:15:00 PM 0.07 32.126 0.116 7.3 3.26 13.94
2/14/2021 10:30:00 PM 0.07 32.126 0.116 7.3 3.27 13.94
2/14/2021 10:45:00 PM 0.07 32.126 0.116 7.29 3.28 13.92
2/14/2021 11:00:00 PM 0.06 32.108 0.116 7.29 3.29 13.92
2/14/2021 11:15:00 PM 0.07 32.126 0.116 7.29 3.19 13.91
2/14/2021 11:30:00 PM 0.06 32.108 0.116 7.28 3.28 13.9
2/14/2021 11:45:00 PM 0.06 32.108 0.116 7.28 3.23 13.88
2/15/2021 12:00:00 AM 0.06 32.108 0.116 7.28 3.55 13.87
2/15/2021 12:15:00 AM 0.06 32.108 0.116 7.27 3.29 13.87
2/15/2021 12:30:00 AM 0.06 32.108 0.116 7.27 3.12 13.86
2/15/2021 12:45:00 AM 0.05 32.09 0.116 7.27 3.33 13.85
2/15/2021 1:00:00 AM 0.04 32.072 0.116 7.27 3.18 13.85
2/15/2021 1:15:00 AM 0.04 32.072 0.116 7.27 3.3 13.85
2/15/2021 1:30:00 AM 0.05 32.09 0.116 7.26 3.28 13.84
2/15/2021 1:45:00 AM 0.05 32.09 0.116 7.26 3.42 13.83
2/15/2021 2:00:00 AM 0.05 32.09 0.116 7.26 3.29 13.83
2/15/2021 2:15:00 AM 0.05 32.09 0.116 7.26 3.19 13.83
2/15/2021 2:30:00 AM 0.05 32.09 0.116 7.26 3.19 13.83
2/15/2021 2:45:00 AM 0.05 32.09 0.116 7.25 3.2 13.82
2/15/2021 3:00:00 AM 0.05 32.09 0.116 7.26 3.28 13.82
2/15/2021 3:15:00 AM 0.05 32.09 0.117 7.26 3.24 13.81
2/15/2021 3:30:00 AM 0.06 32.108 0.116 7.26 3.27 13.8
2/15/2021 3:45:00 AM 0.06 32.108 0.117 7.26 3.3 13.8
2/15/2021 4:00:00 AM 0.07 32.126 0.117 7.26 3.12 13.8
2/15/2021 4:15:00 AM 0.07 32.126 0.116 7.25 3.25 13.79
2/15/2021 4:30:00 AM 0.06 32.108 0.116 7.25 3.27 13.79
2/15/2021 4:45:00 AM 0.06 32.108 0.116 7.25 3.21 13.79
2/15/2021 5:00:00 AM 0.06 32.108 0.116 7.26 3.2 13.78
2/15/2021 5:15:00 AM 0.06 32.108 0.116 7.25 3.08 13.78
2/15/2021 5:30:00 AM 0.06 32.108 0.117 7.26 3.26 13.77
2/15/2021 5:45:00 AM 0.06 32.108 0.117 7.26 3.19 13.77
2/15/2021 6:00:00 AM 0.06 32.108 0.117 7.26 3.37 13.77
2/15/2021 6:15:00 AM 0.06 32.108 0.117 7.26 3.23 13.77
2/15/2021 6:30:00 AM 0.07 32.126 0.117 7.26 3.29 13.77
2/15/2021 6:45:00 AM 0.07 32.126 0.117 7.26 3.24 13.76
2/15/2021 7:00:00 AM 0.07 32.126 0.117 7.26 3.45 13.76
2/15/2021 7:15:00 AM 0.07 32.126 0.117 7.25 3.32 13.76
2/15/2021 7:30:00 AM 0.07 32.126 0.117 7.25 3.25 13.77
2/15/2021 7:45:00 AM 0.07 32.126 0.117 7.27 3.17 13.79
2/15/2021 8:00:00 AM 0.08 32.144 0.117 7.26 3.1 13.84
2/15/2021 8:15:00 AM 0.08 32.144 0.117 7.27 3.06 13.87
2/15/2021 8:30:00 AM 0.08 32.144 0.117 7.28 3.02 13.9
2/15/2021 8:45:00 AM 0.09 32.162 0.117 7.27 3.16 13.94
2/15/2021 9:00:00 AM 0.1 32.18 0.117 7.29 3.07 13.99
2/15/2021 9:15:00 AM 0.11 32.198 0.117 7.31 3.19 14.06
2/15/2021 9:30:00 AM 0.12 32.216 0.117 7.32 3.16 14.12
2/15/2021 9:45:00 AM 0.13 32.234 0.117 7.33 3.16 14.18
2/15/2021 10:00:00 AM 0.16 32.288 0.117 7.34 3.14 14.22
2/15/2021 10:15:00 AM 0.2 32.36 0.117 7.35 3.23 14.27
2/15/2021 10:30:00 AM 0.23 32.414 0.117 7.36 3.24 14.32
2/15/2021 10:45:00 AM 0.25 32.45 0.116 7.37 3.13 14.36
2/15/2021 11:00:00 AM 0.26 32.468 0.117 7.37 3.19 14.39
2/15/2021 11:15:00 AM 0.27 32.486 0.117 7.38 3.17 14.41
2/15/2021 11:30:00 AM 0.27 32.486 0.117 7.39 3.22 14.42
2/15/2021 11:45:00 AM 0.28 32.504 0.116 7.39 3.18 14.43
2/15/2021 12:00:00 PM 0.28 32.504 0.117 7.39 3.15 14.44
2/15/2021 12:15:00 PM 0.28 32.504 0.116 7.4 3.19 14.44
2/15/2021 12:30:00 PM 0.26 32.468 0.116 7.41 3.21 14.45
2/15/2021 12:45:00 PM 0.25 32.45 0.116 7.4 3.12 14.46
2/15/2021 1:00:00 PM 0.26 32.468 0.116 7.41 3.03 14.48
2/15/2021 1:15:00 PM 0.28 32.504 0.116 7.42 3.15 14.49
2/15/2021 1:30:00 PM 0.28 32.504 0.116 7.42 3.11 14.5
2/15/2021 1:45:00 PM 0.28 32.504 0.116 7.42 3.08 14.51
2/15/2021 2:00:00 PM 0.29 32.522 0.116 7.42 3.12 14.52
2/15/2021 2:15:00 PM 0.3 32.54 0.116 7.43 3.08 14.52
2/15/2021 2:30:00 PM 0.3 32.54 0.116 7.43 3.06 14.53
2/15/2021 2:45:00 PM 0.3 32.54 0.116 7.43 3.15 14.52
2/15/2021 3:00:00 PM 0.3 32.54 0.118 7.43 3.08 14.52
2/15/2021 3:15:00 PM 0.3 32.54 0.119 7.44 3.12 14.52
2/15/2021 3:30:00 PM 0.31 32.558 0.119 7.43 3.09 14.51
2/15/2021 3:45:00 PM 0.31 32.558 0.118 7.44 3.1 14.5
2/15/2021 4:00:00 PM 0.3 32.54 0.117 7.44 3.19 14.49
2/15/2021 4:15:00 PM 0.28 32.504 0.117 7.44 3.29 14.48
2/15/2021 4:30:00 PM 0.25 32.45 0.117 7.43 3.18 14.45
2/15/2021 4:45:00 PM 0.23 32.414 0.116 7.43 3.19 14.43
2/15/2021 5:00:00 PM 0.22 32.396 0.117 7.43 3.25 14.41
2/15/2021 5:15:00 PM 0.2 32.36 0.117 7.42 3.18 14.39
2/15/2021 5:30:00 PM 0.19 32.342 0.117 7.41 3.27 14.36
2/15/2021 5:45:00 PM 0.18 32.324 0.117 7.41 3.14 14.31
2/15/2021 6:00:00 PM 0.17 32.306 0.117 7.4 4.03 14.26
2/15/2021 6:15:00 PM 0.16 32.288 0.118 7.39 3.44 14.22
2/15/2021 6:30:00 PM 0.15 32.27 0.118 7.38 4.72 14.18
2/15/2021 6:45:00 PM 0.15 32.27 0.118 7.38 4.38 14.14
2/15/2021 7:00:00 PM 0.14 32.252 0.118 7.36 3.62 14.1
2/15/2021 7:15:00 PM 0.14 32.252 0.118 7.35 3.49 14.06
2/15/2021 7:30:00 PM 0.14 32.252 0.118 7.35 3.39 14.01
2/15/2021 7:45:00 PM 0.14 32.252 0.118 7.34 3.59 13.97
2/15/2021 8:00:00 PM 0.14 32.252 0.117 7.33 3.35 13.95
2/15/2021 8:15:00 PM 0.14 32.252 0.117 7.33 3.36 13.93
2/15/2021 8:30:00 PM 0.15 32.27 0.117 7.33 3.85 13.91
2/15/2021 8:45:00 PM 0.14 32.252 0.117 7.32 4.73 13.9
2/15/2021 9:00:00 PM 0.14 32.252 0.117 7.32 3.48 13.89
2/15/2021 9:15:00 PM 0.14 32.252 0.117 7.32 4.64 13.88
2/15/2021 9:30:00 PM 0.14 32.252 0.116 7.32 3.75 13.86
2/15/2021 9:45:00 PM 0.12 32.216 0.116 7.31 3.6 13.85
2/15/2021 10:00:00 PM 0.09 32.162 0.116 7.31 3.46 13.84
2/15/2021 10:15:00 PM 0.08 32.144 0.116 7.3 3.32 13.82
2/15/2021 10:30:00 PM 0.07 32.126 0.116 7.3 3.28 13.81
2/15/2021 10:45:00 PM 0.08 32.144 0.116 7.3 3.33 13.79
2/15/2021 11:00:00 PM 0.09 32.162 0.116 7.3 3.25 13.78
2/15/2021 11:15:00 PM 0.09 32.162 0.116 7.29 3.36 13.77
2/15/2021 11:30:00 PM 0.07 32.126 0.116 7.3 3.39 13.76
2/15/2021 11:45:00 PM 0.07 32.126 0.116 7.29 3.61 13.75
2/16/2021 12:00:00 AM 0.07 32.126 0.116 7.29 3.99 13.75
2/16/2021 12:15:00 AM 0.08 32.144 0.116 7.28 3.66 13.73
2/16/2021 12:30:00 AM 0.09 32.162 0.118 7.28 3.66 13.72
2/16/2021 12:45:00 AM 0.09 32.162 0.123 7.28 3.59 13.71
2/16/2021 1:00:00 AM 0.1 32.18 0.125 7.28 3.78 13.7
2/16/2021 1:15:00 AM 0.11 32.198 0.125 7.28 3.97 13.69
2/16/2021 1:30:00 AM 0.12 32.216 0.123 7.27 3.9 13.67
2/16/2021 1:45:00 AM 0.13 32.234 0.122 7.27 3.87 13.66
2/16/2021 2:00:00 AM 0.13 32.234 0.122 7.27 4.7 13.64
2/16/2021 2:15:00 AM 0.14 32.252 0.12 7.27 5.46 13.63
2/16/2021 2:30:00 AM 0.15 32.27 0.12 7.27 6.24 13.62
2/16/2021 2:45:00 AM 0.15 32.27 0.12 7.27 6.99 13.61
2/16/2021 3:00:00 AM 0.15 32.27 0.119 7.27 8.01 13.6
2/16/2021 3:15:00 AM 0.16 32.288 0.119 7.27 8.85 13.59
2/16/2021 3:30:00 AM 0.16 32.288 0.119 7.27 14.03 13.59
2/16/2021 3:45:00 AM 0.15 32.27 0.121 7.27 15.08 13.58
2/16/2021 4:00:00 AM 0.15 32.27 0.124 7.26 12.86 13.56
2/16/2021 4:15:00 AM 0.15 32.27 0.127 7.26 11.32 13.57
2/16/2021 4:30:00 AM 0.15 32.27 0.128 7.26 11.85 13.56
2/16/2021 4:45:00 AM 0.14 32.252 0.129 7.26 11.06 13.55
2/16/2021 5:00:00 AM 0.14 32.252 0.13 7.26 12.12 13.53
2/16/2021 5:15:00 AM 0.14 32.252 0.131 7.26 11.08 13.52
2/16/2021 5:30:00 AM 0.13 32.234 0.132 7.26 11.65 13.51
2/16/2021 5:45:00 AM 0.13 32.234 0.133 7.25 9.87 13.51
2/16/2021 6:00:00 AM 0.13 32.234 0.135 7.24 9.46 13.5
2/16/2021 6:15:00 AM 0.12 32.216 0.136 7.25 10.09 13.49
2/16/2021 6:30:00 AM 0.12 32.216 0.139 7.25 9.39 13.49
2/16/2021 6:45:00 AM 0.11 32.198 0.14 7.25 9.44 13.48
2/16/2021 7:00:00 AM 0.11 32.198 0.144 7.25 9.08 13.48
2/16/2021 7:15:00 AM 0.1 32.18 0.15 7.24 8.27 13.49
2/16/2021 7:30:00 AM 0.1 32.18 0.152 7.25 8.77 13.5
2/16/2021 7:45:00 AM 0.1 32.18 0.152 7.25 8.11 13.54
2/16/2021 8:00:00 AM 0.1 32.18 0.153 7.23 8.18 13.58
2/16/2021 8:15:00 AM 0.1 32.18 0.153 7.23 8 13.64
2/16/2021 8:30:00 AM 0.11 32.198 0.153 7.23 7.84 13.68
2/16/2021 8:45:00 AM 0.12 32.216 0.154 7.24 7.96 13.73
2/16/2021 9:00:00 AM 0.13 32.234 0.156 7.24 8.41 13.76
2/16/2021 9:15:00 AM 0.14 32.252 0.168 7.24 8.57 13.78
2/16/2021 9:30:00 AM 0.14 32.252 0.168 7.25 9.87 13.81
2/16/2021 9:45:00 AM 0.11 32.198 0.193 7.24 20.42 13.83
2/16/2021 10:00:00 AM 0.07 32.126 0.242 7.25 31.44 13.87
2/16/2021 10:15:00 AM 0.08 32.144 0.238 7.28 22.04 13.87
2/16/2021 10:30:00 AM 0.09 32.162 0.226 7.28 20.2 13.88
2/16/2021 10:45:00 AM 0.09 32.162 0.218 7.3 19.94 13.88
2/16/2021 11:00:00 AM 0.1 32.18 0.218 7.32 24.47 13.88
2/16/2021 11:15:00 AM 0.1 32.18 0.223 7.31 33.75 13.86
2/16/2021 11:30:00 AM 0.11 32.198 0.233 7.31 48.48 13.86
2/16/2021 11:45:00 AM 0.12 32.216 0.236 7.32 27.15 13.86
2/16/2021 12:00:00 PM 0.12 32.216 0.235 7.32 26.57 13.88
2/16/2021 12:15:00 PM 0.13 32.234 0.236 7.31 24.6 13.89
2/16/2021 12:30:00 PM 0.14 32.252 0.233 7.32 35.86 13.9
2/16/2021 12:45:00 PM 0.12 32.216 0.232 7.32 45.92 13.91
2/16/2021 1:00:00 PM 0.1 32.18 0.23 7.32 42.59 13.91
2/16/2021 1:15:00 PM 0.08 32.144 0.229 7.33 30.35 13.91
2/16/2021 1:30:00 PM 0.04 32.072 0.242 7.33 50.57 13.91
2/16/2021 1:45:00 PM 0.04 32.072 0.222 7.32 44.33 13.91
2/16/2021 2:00:00 PM 0.05 32.09 0.214 7.33 37.46 13.9
2/16/2021 2:15:00 PM 0.04 32.072 0.214 7.31 38.81 13.89
2/16/2021 2:30:00 PM 0.04 32.072 0.213 7.32 43.45 13.89
2/16/2021 2:45:00 PM 0.03 32.054 0.211 7.31 40.44 13.88
2/16/2021 3:00:00 PM 0.03 32.054 0.209 7.3 41.32 13.87
2/16/2021 3:15:00 PM 0.03 32.054 0.201 7.29 62.16 13.86
2/16/2021 3:30:00 PM 0.03 32.054 0.2 7.29 64.82 13.86
2/16/2021 3:45:00 PM 0.03 32.054 0.201 7.28 50.72 13.86
2/16/2021 4:00:00 PM 0.03 32.054 0.201 7.28 33.38 13.84
2/16/2021 4:15:00 PM 0.03 32.054 0.201 7.27 34.35 13.84
2/16/2021 4:30:00 PM 0.02 32.036 0.2 7.26 34.32 13.83
2/16/2021 4:45:00 PM 0.02 32.036 0.2 7.26 79.1 13.82
2/16/2021 5:00:00 PM 0.02 32.036 0.197 7.25 36.05 13.82
2/16/2021 5:15:00 PM 0.02 32.036 0.195 7.25 46.65 13.81
2/16/2021 5:30:00 PM 0.01 32.018 0.193 7.24 34.03 13.81
2/16/2021 5:45:00 PM 0 32 0.191 7.23 27.45 13.82
2/16/2021 6:00:00 PM 0 32 0.19 7.24 34.75 13.82
2/16/2021 6:15:00 PM 0 32 0.189 7.23 29.7 13.82
2/16/2021 6:30:00 PM 0 32 0.187 7.2 28.41 13.82
2/16/2021 6:45:00 PM 0 32 0.185 6.98 25.57 13.82
2/16/2021 7:00:00 PM 0 32 0.183 7.01 38.04 13.82
2/16/2021 7:15:00 PM 0 32 0.182 6.97 26.55 13.82
2/16/2021 7:30:00 PM 0 32 0.18 7.01 26.43 13.83
2/16/2021 7:45:00 PM 0 32 0.179 7.03 25.14 13.84
2/16/2021 8:00:00 PM -0.01 31.982 0.177 7.02 28.42 13.85
2/16/2021 8:15:00 PM -0.01 31.982 0.165 7 24.94 13.86
2/16/2021 8:30:00 PM 0 32 0.175 7 21.51 13.86
2/16/2021 8:45:00 PM 0 32 0.163 6.95 24.22 13.86
2/16/2021 9:00:00 PM 0 32 0.173 7 24.23 13.86
2/16/2021 9:15:00 PM 0 32 0.172 7.05 22.1 13.87
2/16/2021 9:30:00 PM 0 32 0.161 7.06 23.44 13.87
2/16/2021 9:45:00 PM 0 32 0.16 7.05 23.56 13.88
2/16/2021 10:00:00 PM 0 32 0.159 7.06 22.14 13.89
2/16/2021 10:15:00 PM 0 32 0.159 7.01 21.88 13.89
2/16/2021 10:30:00 PM 0 32 0.157 7.02 19.89 13.9
2/16/2021 10:45:00 PM 0 32 0.156 7.07 21.59 13.9
2/16/2021 11:00:00 PM 0 32 0.155 7.13 16.61 13.9
2/16/2021 11:15:00 PM 0 32 0.154 7.14 17.89 13.91
2/16/2021 11:30:00 PM 0 32 0.153 7.13 21.37 13.91
2/16/2021 11:45:00 PM 0 32 0.152 7.11 18.22 13.91
2/17/2021 12:00:00 AM 0 32 0.152 7.07 19.93 13.92
2/17/2021 12:15:00 AM 0 32 0.151 7.11 19.25 13.92
2/17/2021 12:30:00 AM 0 32 0.15 7.11 18.77 13.92
2/17/2021 12:45:00 AM 0 32 0.15 7.08 20.06 13.92
2/17/2021 1:00:00 AM 0 32 0.15 7.01 18.26 13.93
2/17/2021 1:15:00 AM 0 32 0.15 7 18.37 13.93
2/17/2021 1:30:00 AM 0 32 0.149 6.96 16.68 13.93
2/17/2021 1:45:00 AM 0.01 32.018 0.148 6.96 18.51 13.94
2/17/2021 2:00:00 AM 0.01 32.018 0.147 6.95 16.33 13.93
2/17/2021 2:15:00 AM 0.01 32.018 0.146 6.95 15.98 13.93
2/17/2021 2:30:00 AM 0 32 0.145 6.95 16.21 13.94
2/17/2021 2:45:00 AM 0.01 32.018 0.145 6.95 15.47 13.95
2/17/2021 3:00:00 AM 0 32 0.145 6.93 15.75 13.95
2/17/2021 3:15:00 AM 0.01 32.018 0.145 6.93 16.21 13.92
2/17/2021 3:30:00 AM 0.01 32.018 0.145 6.94 15.53 13.92
2/17/2021 3:45:00 AM 0.01 32.018 0.145 6.9 14.71 13.93
2/17/2021 4:00:00 AM 0.01 32.018 0.144 6.92 15.02 13.92
2/17/2021 4:15:00 AM 0.01 32.018 0.144 6.91 14.22 13.93
2/17/2021 4:30:00 AM 0.01 32.018 0.145 6.93 13.32 13.96
2/17/2021 4:45:00 AM 0.01 32.018 0.143 6.93 13.6 13.97
2/17/2021 5:00:00 AM 0.01 32.018 0.143 6.94 13.52 13.98
2/17/2021 5:15:00 AM 0.01 32.018 0.143 6.92 13.35 13.97
2/17/2021 5:30:00 AM 0.01 32.018 0.143 6.9 13.19 13.97
2/17/2021 5:45:00 AM 0.01 32.018 0.142 6.95 12.58 13.97
2/17/2021 6:00:00 AM 0.01 32.018 0.142 6.94 12.61 13.98
2/17/2021 6:15:00 AM 0.01 32.018 0.142 6.94 12.33 13.98
2/17/2021 6:30:00 AM 0.02 32.036 0.142 6.9 12.43 13.98
2/17/2021 6:45:00 AM 0 32 0.141 6.92 11.97 13.98
2/17/2021 7:00:00 AM 0.01 32.018 0.142 6.92 11.42 13.98
2/17/2021 7:15:00 AM 0.01 32.018 0.141 6.92 11.16 14
2/17/2021 7:30:00 AM 0.02 32.036 0.141 6.95 11.52 13.99
2/17/2021 7:45:00 AM 0 32 0.141 6.91 11.29 14.03
2/17/2021 8:00:00 AM 0.02 32.036 0.141 6.96 10.96 14.03
2/17/2021 8:15:00 AM 0.02 32.036 0.141 6.99 10.93 14.05
2/17/2021 8:30:00 AM 0.01 32.018 0.141 6.93 10.63 14.06
2/17/2021 8:45:00 AM 0.01 32.018 0.141 7 11 14.1
2/17/2021 9:00:00 AM 0.02 32.036 0.141 7.09 10.05 14.12
2/17/2021 9:15:00 AM 0.03 32.054 0.14 7.13 10.28 14.15
2/17/2021 9:30:00 AM 0.02 32.036 0.14 7.18 9.96 14.15
2/17/2021 9:45:00 AM 0.04 32.072 0.14 7.18 10.01 14.2
2/17/2021 10:00:00 AM 0.03 32.054 0.14 7.18 9.88 14.21
2/17/2021 10:15:00 AM 0.02 32.036 0.14 7.19 9.82 14.22
2/17/2021 10:30:00 AM 0.02 32.036 0.136 7.2 9.69 14.22
2/17/2021 10:45:00 AM 0.02 32.036 0.138 7.21 9.71 14.25
2/17/2021 11:00:00 AM 0.02 32.036 0.138 7.22 9.79 14.23
2/17/2021 11:15:00 AM 0.02 32.036 0.138 7.22 9.55 14.23
2/17/2021 11:30:00 AM 0.02 32.036 0.137 7.22 9.02 14.23
2/17/2021 11:45:00 AM 0.02 32.036 0.135 7.22 10.33 14.22
2/17/2021 12:00:00 PM 0.03 32.054 0.134 7.21 11.27 14.21
2/17/2021 12:15:00 PM 0.04 32.072 0.138 7.22 11.86 14.21
2/17/2021 12:30:00 PM 0.06 32.108 0.132 7.23 13.32 14.2
2/17/2021 12:45:00 PM 0.13 32.234 0.131 7.23 16.24 14.21
2/17/2021 1:00:00 PM 0.16 32.288 0.13 7.23 15.78 14.22
2/17/2021 1:15:00 PM 0.17 32.306 0.129 7.24 16.27 14.22
2/17/2021 1:30:00 PM 0.18 32.324 0.129 7.25 15.17 14.24
2/17/2021 1:45:00 PM 0.19 32.342 0.13 7.24 14.77 14.24
2/17/2021 2:00:00 PM 0.18 32.324 0.13 7.24 15.75 14.25
2/17/2021 2:15:00 PM 0.18 32.324 0.131 7.25 14.27 14.25
2/17/2021 2:30:00 PM 0.17 32.306 0.131 7.25 14.37 14.25
2/17/2021 2:45:00 PM 0.16 32.288 0.131 7.25 14.35 14.25
2/17/2021 3:00:00 PM 0.15 32.27 0.13 7.24 13.31 14.25
2/17/2021 3:15:00 PM 0.13 32.234 0.13 7.24 13.1 14.25
2/17/2021 3:30:00 PM 0.1 32.18 0.13 7.24 13.51 14.25
2/17/2021 3:45:00 PM 0.09 32.162 0.132 7.21 13.18 14.25
2/17/2021 4:00:00 PM 0.07 32.126 0.13 7.24 12.32 14.26
2/17/2021 4:15:00 PM 0.05 32.09 0.129 7.19 13.26 14.25
2/17/2021 4:30:00 PM 0.04 32.072 0.129 7.23 12.56 14.25
2/17/2021 4:45:00 PM 0.02 32.036 0.129 7.23 12.55 14.24
2/17/2021 5:00:00 PM 0.01 32.018 0.129 7.23 11.87 14.23
2/17/2021 5:15:00 PM 0 32 0.129 7.23 11.23 14.22
2/17/2021 5:30:00 PM -0.01 31.982 0.129 7.22 11.11 14.2
2/17/2021 5:45:00 PM -0.02 31.964 0.129 7.22 11.65 14.18
2/17/2021 6:00:00 PM -0.02 31.964 0.128 7.22 10.61 14.15
2/17/2021 6:15:00 PM -0.02 31.964 0.128 7.2 12.3 14.14
2/17/2021 6:30:00 PM -0.02 31.964 0.128 7.21 11.7 14.11
2/17/2021 6:45:00 PM -0.02 31.964 0.128 7.21 11.73 14.11
2/17/2021 7:00:00 PM -0.02 31.964 0.128 7.21 11.46 14.1
2/17/2021 7:15:00 PM -0.02 31.964 0.13 7.21 11.23 14.1
2/17/2021 7:30:00 PM -0.01 31.982 0.128 7.2 10.81 14.09
2/17/2021 7:45:00 PM -0.01 31.982 0.129 7.18 11.75 14.09
2/17/2021 8:00:00 PM -0.01 31.982 0.13 7.19 10.86 14.09
2/17/2021 8:15:00 PM -0.01 31.982 0.13 7.18 11.01 14.08
2/17/2021 8:30:00 PM 0 32 0.13 7.19 9.64 14.08
2/17/2021 8:45:00 PM 0 32 0.13 7.19 9.42 14.07
2/17/2021 9:00:00 PM 0 32 0.13 7.19 9.62 14.07
2/17/2021 9:15:00 PM 0 32 0.135 7.19 9.37 14.06
2/17/2021 9:30:00 PM 0 32 0.131 7.18 10.29 14.07
2/17/2021 9:45:00 PM 0 32 0.134 7.18 9.98 14.07
2/17/2021 10:00:00 PM 0 32 0.134 7.18 10.05 14.06
2/17/2021 10:15:00 PM 0 32 0.136 7.18 9.8 14.04
2/17/2021 10:30:00 PM 0 32 0.13 7.18 9.67 14.06
2/17/2021 10:45:00 PM 0 32 0.132 7.18 9.35 14.05
2/17/2021 11:00:00 PM 0 32 0.13 7.17 9.52 14.06
2/17/2021 11:15:00 PM 0 32 0.13 7.18 9.23 14.06
2/17/2021 11:30:00 PM 0 32 0.13 7.17 9.62 14.05
2/17/2021 11:45:00 PM 0 32 0.13 7.17 8.88 14.05
2/18/2021 12:00:00 AM 0 32 0.13 7.17 8.69 14.05
2/18/2021 12:15:00 AM 0 32 0.131 7.17 8.34 14.04
2/18/2021 12:30:00 AM 0 32 0.13 7.17 9.02 14.04
2/18/2021 12:45:00 AM 0 32 0.132 7.17 8.51 14.03
2/18/2021 1:00:00 AM 0 32 0.129 7.16 8.64 14.04
2/18/2021 1:15:00 AM 0 32 0.134 7.17 8.68 14.04
2/18/2021 1:30:00 AM 0 32 0.129 7.17 8.91 14.04
2/18/2021 1:45:00 AM 0 32 0.129 7.17 9.08 14.03
2/18/2021 2:00:00 AM 0 32 0.129 7.16 8.33 14.02
2/18/2021 2:15:00 AM 0 32 0.129 7.17 8.2 14.02
2/18/2021 2:30:00 AM 0 32 0.129 7.16 9.08 14.02
2/18/2021 2:45:00 AM 0 32 0.129 7.17 8.61 14.02
2/18/2021 3:00:00 AM 0 32 0.129 7.17 8.88 14.03
2/18/2021 3:15:00 AM 0 32 0.129 7.17 8.7 14.03
2/18/2021 3:30:00 AM 0 32 0.129 7.17 8.6 14.04
2/18/2021 3:45:00 AM 0 32 0.129 7.16 8.05 14.03
2/18/2021 4:00:00 AM 0 32 0.129 7.18 8.46 14.04
2/18/2021 4:15:00 AM 0 32 0.129 7.16 8.3 14.04
2/18/2021 4:30:00 AM 0 32 0.128 7.16 7.57 14.04
2/18/2021 4:45:00 AM 0 32 0.128 7.17 7.77 14.04
2/18/2021 5:00:00 AM 0 32 0.128 7.16 7.7 14.04
2/18/2021 5:15:00 AM 0 32 0.128 7.16 7.74 14.04
2/18/2021 5:30:00 AM 0 32 0.128 7.17 7.63 14.04
2/18/2021 5:45:00 AM 0 32 0.128 7.18 7.29 14.04
2/18/2021 6:00:00 AM 0 32 0.129 7.18 7.31 14.04
2/18/2021 6:15:00 AM 0 32 0.128 7.17 7.32 14.04
2/18/2021 6:30:00 AM 0 32 0.128 7.17 7.26 14.04
2/18/2021 6:45:00 AM 0 32 0.129 7.18 6.48 14.04
2/18/2021 7:00:00 AM 0 32 0.128 7.18 7.3 14.03
2/18/2021 7:15:00 AM 0 32 0.128 7.17 7.09 14.04
2/18/2021 7:30:00 AM 0 32 0.128 7.18 6.93 14.05
2/18/2021 7:45:00 AM 0 32 0.133 7.18 6.48 14.07
2/18/2021 8:00:00 AM 0 32 0.128 7.18 7.35 14.09
2/18/2021 8:15:00 AM 0 32 0.128 7.19 7.17 14.12
2/18/2021 8:30:00 AM 0 32 0.133 7.19 6.28 14.13
2/18/2021 8:45:00 AM 0 32 0.133 7.2 6.54 14.15
2/18/2021 9:00:00 AM 0.01 32.018 0.132 7.2 6.31 14.16
2/18/2021 9:15:00 AM 0.01 32.018 0.128 7.19 6.82 14.17
2/18/2021 9:30:00 AM 0.01 32.018 0.128 7.19 6.83 14.18
2/18/2021 9:45:00 AM 0.01 32.018 0.127 7.2 6.64 14.19
2/18/2021 10:00:00 AM 0.01 32.018 0.13 7.21 7.07 14.2
2/18/2021 10:15:00 AM 0.02 32.036 0.127 7.2 6.74 14.22
2/18/2021 10:30:00 AM 0.02 32.036 0.127 7.22 6.57 14.24
2/18/2021 10:45:00 AM 0.04 32.072 0.127 7.21 7.63 14.25
2/18/2021 11:00:00 AM 0.06 32.108 0.116 7.22 7.45 14.26
2/18/2021 11:15:00 AM 0.08 32.144 0.126 7.23 7.58 14.26
2/18/2021 11:30:00 AM 0.09 32.162 0.127 7.23 7.37 14.28
2/18/2021 11:45:00 AM 0.1 32.18 0.126 7.24 6.87 14.28
2/18/2021 12:00:00 PM 0.11 32.198 0.126 7.23 6.83 14.29
2/18/2021 12:15:00 PM 0.11 32.198 0.126 7.25 6.69 14.3
2/18/2021 12:30:00 PM 0.12 32.216 0.129 7.24 6.92 14.3
2/18/2021 12:45:00 PM 0.13 32.234 0.125 7.24 6.98 14.31
2/18/2021 1:00:00 PM 0.13 32.234 0.124 7.25 6.63 14.32
2/18/2021 1:15:00 PM 0.14 32.252 0.124 7.25 6.76 14.32
2/18/2021 1:30:00 PM 0.14 32.252 0.126 7.26 6.83 14.32
2/18/2021 1:45:00 PM 0.14 32.252 0.124 7.26 6.95 14.33
2/18/2021 2:00:00 PM 0.14 32.252 0.123 7.26 6.8 14.33
2/18/2021 2:15:00 PM 0.14 32.252 0.124 7.26 7.13 14.34
2/18/2021 2:30:00 PM 0.13 32.234 0.123 7.27 6.49 14.34
2/18/2021 2:45:00 PM 0.13 32.234 0.127 7.27 6.93 14.35
2/18/2021 3:00:00 PM 0.13 32.234 0.123 7.27 6.81 14.37
2/18/2021 3:15:00 PM 0.13 32.234 0.123 7.27 6.97 14.36
2/18/2021 3:30:00 PM 0.13 32.234 0.124 7.27 6.77 14.35
2/18/2021 3:45:00 PM 0.11 32.198 0.123 7.27 6.62 14.34
2/18/2021 4:00:00 PM 0.1 32.18 0.123 7.27 6.51 14.32
2/18/2021 4:15:00 PM 0.09 32.162 0.123 7.27 6.66 14.3
2/18/2021 4:30:00 PM 0.08 32.144 0.127 7.26 6.73 14.28
2/18/2021 4:45:00 PM 0.07 32.126 0.128 7.26 6.5 14.27
2/18/2021 5:00:00 PM 0.06 32.108 0.125 7.25 6.26 14.25
2/18/2021 5:15:00 PM 0.06 32.108 0.123 7.26 6.34 14.24
2/18/2021 5:30:00 PM 0.05 32.09 0.127 7.25 6.33 14.21
2/18/2021 5:45:00 PM 0.05 32.09 0.122 7.24 6.46 14.19
2/18/2021 6:00:00 PM 0.05 32.09 0.127 7.23 6.9 14.16
2/18/2021 6:15:00 PM 0.04 32.072 0.122 7.23 6.42 14.14
2/18/2021 6:30:00 PM 0.04 32.072 0.122 7.23 6.3 14.12
2/18/2021 6:45:00 PM 0.04 32.072 0.122 7.22 6.29 14.1
2/18/2021 7:00:00 PM 0.03 32.054 0.122 7.23 6.4 14.09
2/18/2021 7:15:00 PM 0.03 32.054 0.122 7.22 6.31 14.08
2/18/2021 7:30:00 PM 0.03 32.054 0.122 7.22 6.34 14.06
2/18/2021 7:45:00 PM 0.02 32.036 0.122 7.21 6.81 14.05
2/18/2021 8:00:00 PM 0.01 32.018 0.122 7.21 6.55 14.04
2/18/2021 8:15:00 PM 0.01 32.018 0.122 7.22 6.31 14.03
2/18/2021 8:30:00 PM 0 32 0.122 7.22 6.29 14.02
2/18/2021 8:45:00 PM 0.01 32.018 0.126 7.21 6.33 14.01
2/18/2021 9:00:00 PM 0.01 32.018 0.122 7.21 6.11 14.01
2/18/2021 9:15:00 PM 0.01 32.018 0.126 7.2 6.81 14
2/18/2021 9:30:00 PM 0.02 32.036 0.121 7.21 6.15 14
2/18/2021 9:45:00 PM 0.02 32.036 0.042 7.21 6.88 13.99
2/18/2021 10:00:00 PM 0.02 32.036 0.122 7.2 6.31 13.98
2/18/2021 10:15:00 PM 0.02 32.036 0.122 7.21 6.32 13.98
2/18/2021 10:30:00 PM 0.03 32.054 0.123 7.2 6.54 13.98
2/18/2021 10:45:00 PM 0.03 32.054 0.122 7.2 6.68 13.97
2/18/2021 11:00:00 PM 0.02 32.036 0.122 7.2 6.75 13.97
2/18/2021 11:15:00 PM 0.02 32.036 0.123 7.2 7.1 13.97
2/18/2021 11:30:00 PM 0.02 32.036 0.112 7.2 11.86 13.97
2/18/2021 11:45:00 PM 0.02 32.036 0.123 7.2 10.09 13.96
2/19/2021 12:00:00 AM 0.01 32.018 0.127 7.2 6.26 13.96
2/19/2021 12:15:00 AM 0.01 32.018 0.126 7.2 7.4 13.96
2/19/2021 12:30:00 AM 0 32 0.122 7.2 6.94 13.95
2/19/2021 12:45:00 AM 0 32 0.122 7.19 6.51 13.95
2/19/2021 1:00:00 AM 0 32 0.122 7.19 6.8 13.95
2/19/2021 1:15:00 AM 0 32 0.126 7.2 6.52 13.95
2/19/2021 1:30:00 AM 0 32 0.122 7.19 6.78 13.95
2/19/2021 1:45:00 AM 0 32 0.122 7.19 7.06 13.94
2/19/2021 2:00:00 AM 0 32 0.123 7.2 7 13.93
2/19/2021 2:15:00 AM 0 32 0.122 7.2 6.7 13.94
2/19/2021 2:30:00 AM 0 32 0.122 7.19 5.78 13.94
2/19/2021 2:45:00 AM 0 32 0.123 7.2 5.77 13.93
2/19/2021 3:00:00 AM 0 32 0.121 7.2 6.08 13.94
2/19/2021 3:15:00 AM 0 32 0.11 7.2 8.08 13.93
2/19/2021 3:30:00 AM 0 32 0.123 7.19 6.19 13.93
2/19/2021 3:45:00 AM 0 32 0.123 7.2 6.15 13.93
2/19/2021 4:00:00 AM 0 32 0.123 7.2 5.93 13.93
2/19/2021 4:15:00 AM 0 32 0.122 7.19 6.26 13.93
2/19/2021 4:30:00 AM 0 32 0.041 7.19 5.79 13.91
2/19/2021 4:45:00 AM 0 32 0.123 7.19 5.91 13.92
2/19/2021 5:00:00 AM 0 32 0.122 7.2 5.78 13.92
2/19/2021 5:15:00 AM 0 32 0.123 7.2 5.53 13.91
2/19/2021 5:30:00 AM 0 32 0.122 7.2 5.64 13.91
2/19/2021 5:45:00 AM 0 32 0.122 7.19 5.55 13.91
2/19/2021 6:00:00 AM 0 32 0.122 7.2 5.59 13.9
2/19/2021 6:15:00 AM 0 32 0.122 7.19 5.7 13.91
2/19/2021 6:30:00 AM 0 32 0.122 7.19 5.88 13.91
2/19/2021 6:45:00 AM 0 32 0.122 7.2 6.89 13.91
2/19/2021 7:00:00 AM 0 32 0.122 7.19 12.64 13.92
2/19/2021 7:15:00 AM 0 32 0.122 7.19 7.23 13.92
2/19/2021 7:30:00 AM 0 32 0.122 7.19 7.59 13.92
2/19/2021 7:45:00 AM 0 32 0.122 7.2 6.72 13.94
2/19/2021 8:00:00 AM 0 32 0.122 7.21 5.29 13.97
2/19/2021 8:15:00 AM 0.01 32.018 0.122 7.2 6.16 13.98
2/19/2021 8:30:00 AM 0.01 32.018 0.122 7.2 6.14 14.02
2/19/2021 8:45:00 AM 0.03 32.054 0.122 7.21 5.73 14.04
2/19/2021 9:00:00 AM 0.05 32.09 0.122 7.23 5.59 14.07
2/19/2021 9:15:00 AM 0.07 32.126 0.122 7.22 5.66 14.08
2/19/2021 9:30:00 AM 0.11 32.198 0.119 7.23 5.66 14.1
2/19/2021 9:45:00 AM 0.13 32.234 0.122 7.23 5.78 14.11
2/19/2021 10:00:00 AM 0.14 32.252 0.123 7.23 5.67 14.12
2/19/2021 10:15:00 AM 0.16 32.288 0.124 7.24 5.69 14.14
2/19/2021 10:30:00 AM 0.17 32.306 0.123 7.24 5.92 14.15
2/19/2021 10:45:00 AM 0.19 32.342 0.123 7.24 6.03 14.16
2/19/2021 11:00:00 AM 0.22 32.396 0.123 7.25 5.62 14.17
2/19/2021 11:15:00 AM 0.26 32.468 0.123 7.25 5.74 14.18
2/19/2021 11:30:00 AM 0.31 32.558 0.124 7.25 5.7 14.18
2/19/2021 11:45:00 AM 0.33 32.594 0.126 7.26 5.81 14.18
2/19/2021 12:00:00 PM 0.34 32.612 0.126 7.27 5.79 14.18
2/19/2021 12:15:00 PM 0.35 32.63 0.125 7.27 5.72 14.18
2/19/2021 12:30:00 PM 0.34 32.612 0.124 7.27 5.57 14.18
2/19/2021 12:45:00 PM 0.33 32.594 0.123 7.27 5.65 14.19
2/19/2021 1:00:00 PM 0.32 32.576 0.122 7.27 5.79 14.2
2/19/2021 1:15:00 PM 0.33 32.594 0.122 7.28 5.48 14.19
2/19/2021 1:30:00 PM 0.32 32.576 0.122 7.28 5.64 14.19
2/19/2021 1:45:00 PM 0.32 32.576 0.122 7.28 5.75 14.19
2/19/2021 2:00:00 PM 0.31 32.558 0.122 7.29 5.69 14.19
2/19/2021 2:15:00 PM 0.3 32.54 0.123 7.29 5.52 14.18
2/19/2021 2:30:00 PM 0.31 32.558 0.122 7.29 5.65 14.18
2/19/2021 2:45:00 PM 0.3 32.54 0.122 7.29 5.66 14.18
2/19/2021 3:00:00 PM 0.29 32.522 0.122 7.28 5.5 14.18
2/19/2021 3:15:00 PM 0.28 32.504 0.122 7.29 5.63 14.16
2/19/2021 3:30:00 PM 0.28 32.504 0.121 7.29 5.49 14.16
2/19/2021 3:45:00 PM 0.27 32.486 0.121 7.29 5.55 14.15
2/19/2021 4:00:00 PM 0.27 32.486 0.121 7.29 5.59 14.14
2/19/2021 4:15:00 PM 0.26 32.468 0.121 7.29 5.46 14.13
2/19/2021 4:30:00 PM 0.26 32.468 0.121 7.28 5.26 14.12
2/19/2021 4:45:00 PM 0.25 32.45 0.121 7.28 5.21 14.1
2/19/2021 5:00:00 PM 0.24 32.432 0.121 7.28 5.43 14.08
2/19/2021 5:15:00 PM 0.24 32.432 0.121 7.27 5.37 14.06
2/19/2021 5:30:00 PM 0.22 32.396 0.121 7.28 5.42 14.04
2/19/2021 5:45:00 PM 0.21 32.378 0.122 7.27 5.42 14.01
2/19/2021 6:00:00 PM 0.21 32.378 0.122 7.26 5.57 13.99
2/19/2021 6:15:00 PM 0.2 32.36 0.122 7.26 5.48 13.96
2/19/2021 6:30:00 PM 0.2 32.36 0.122 7.25 5.26 13.94
2/19/2021 6:45:00 PM 0.19 32.342 0.122 7.25 5.45 13.92
2/19/2021 7:00:00 PM 0.19 32.342 0.122 7.24 5.65 13.9
2/19/2021 7:15:00 PM 0.18 32.324 0.123 7.24 5.52 13.89
2/19/2021 7:30:00 PM 0.18 32.324 0.123 7.24 5.53 13.88
2/19/2021 7:45:00 PM 0.18 32.324 0.123 7.24 5.44 13.87
2/19/2021 8:00:00 PM 0.17 32.306 0.123 7.23 5.28 13.86
2/19/2021 8:15:00 PM 0.17 32.306 0.123 7.23 5.41 13.85
2/19/2021 8:30:00 PM 0.16 32.288 0.124 7.23 5.62 13.85
2/19/2021 8:45:00 PM 0.16 32.288 0.124 7.22 5.18 13.84
2/19/2021 9:00:00 PM 0.15 32.27 0.124 7.22 5.28 13.83
2/19/2021 9:15:00 PM 0.13 32.234 0.124 7.22 5.51 13.83
2/19/2021 9:30:00 PM 0.13 32.234 0.124 7.22 5.36 13.83
2/19/2021 9:45:00 PM 0.12 32.216 0.124 7.21 5.61 13.83
2/19/2021 10:00:00 PM 0.12 32.216 0.124 7.22 5.49 13.83
2/19/2021 10:15:00 PM 0.12 32.216 0.124 7.21 5.37 13.83
2/19/2021 10:30:00 PM 0.12 32.216 0.124 7.21 5.51 13.83
2/19/2021 10:45:00 PM 0.11 32.198 0.125 7.22 5.42 13.83
2/19/2021 11:00:00 PM 0.1 32.18 0.125 7.22 5.37 13.83
2/19/2021 11:15:00 PM 0.08 32.144 0.125 7.22 5.23 13.83
2/19/2021 11:30:00 PM 0.07 32.126 0.125 7.21 5.4 13.83
2/19/2021 11:45:00 PM 0.06 32.108 0.125 7.21 5.38 13.84
2/20/2021 12:00:00 AM 0.05 32.09 0.125 7.21 5.56 13.84
2/20/2021 12:15:00 AM 0.04 32.072 0.125 7.21 5.41 13.84
2/20/2021 12:30:00 AM 0.04 32.072 0.125 7.21 5.43 13.84
2/20/2021 12:45:00 AM 0.04 32.072 0.125 7.21 5.4 13.85
2/20/2021 1:00:00 AM 0.03 32.054 0.126 7.21 5.23 13.85
2/20/2021 1:15:00 AM 0.03 32.054 0.126 7.21 5.43 13.85
2/20/2021 1:30:00 AM 0.03 32.054 0.126 7.21 5.55 13.85
2/20/2021 1:45:00 AM 0.03 32.054 0.126 7.21 5.41 13.85
2/20/2021 2:00:00 AM 0.02 32.036 0.126 7.21 5.27 13.86
2/20/2021 2:15:00 AM 0.02 32.036 0.126 7.21 5.33 13.86
2/20/2021 2:30:00 AM 0 32 0.126 7.21 5.41 13.86
2/20/2021 2:45:00 AM 0 32 0.127 7.21 5.37 13.86
2/20/2021 3:00:00 AM 0 32 0.127 7.21 5.43 13.87
2/20/2021 3:15:00 AM -0.02 31.964 0.127 7.21 5.5 13.87
2/20/2021 3:30:00 AM -0.03 31.946 0.127 7.21 6.01 13.88
2/20/2021 3:45:00 AM -0.02 31.964 0.127 7.2 5.92 13.89
2/20/2021 4:00:00 AM -0.01 31.982 0.127 7.21 5.69 13.89
2/20/2021 4:15:00 AM 0 32 0.128 7.21 6 13.89
2/20/2021 4:30:00 AM 0 32 0.128 7.21 5.64 13.89
2/20/2021 4:45:00 AM 0 32 0.129 7.2 6 13.9
2/20/2021 5:00:00 AM 0 32 0.129 7.21 5.88 13.9
2/20/2021 5:15:00 AM 0 32 0.128 7.19 6.07 13.91
2/20/2021 5:30:00 AM 0 32 0.13 7.2 5.91 13.89
2/20/2021 5:45:00 AM 0 32 0.13 7.2 5.9 13.91
2/20/2021 6:00:00 AM 0 32 0.131 7.2 5.69 13.91
2/20/2021 6:15:00 AM 0 32 0.131 7.2 5.41 13.9
2/20/2021 6:30:00 AM 0 32 0.131 7.2 5.16 13.91
2/20/2021 6:45:00 AM 0 32 0.131 7.2 4.97 13.91
2/20/2021 7:00:00 AM 0 32 0.131 7.2 5.16 13.91
2/20/2021 7:15:00 AM 0 32 0.132 7.21 4.92 13.93
2/20/2021 7:30:00 AM 0 32 0.132 7.21 4.96 13.97
2/20/2021 7:45:00 AM 0 32 0.132 7.21 5.1 14
2/20/2021 8:00:00 AM 0 32 0.132 7.22 5.04 14.02
2/20/2021 8:15:00 AM 0 32 0.131 7.22 4.94 14.06
2/20/2021 8:30:00 AM 0 32 0.131 7.23 5.05 14.09
2/20/2021 8:45:00 AM 0 32 0.131 7.22 5.23 14.12
2/20/2021 9:00:00 AM 0 32 0.131 7.24 5.26 14.13
2/20/2021 9:15:00 AM 0 32 0.13 7.24 5.16 14.14
2/20/2021 9:30:00 AM 0 32 0.13 7.24 4.89 14.16
2/20/2021 9:45:00 AM 0 32 0.13 7.25 5.2 14.16
2/20/2021 10:00:00 AM 0.01 32.018 0.129 7.25 5.45 14.18
2/20/2021 10:15:00 AM 0.06 32.108 0.129 7.26 4.91 14.2
2/20/2021 10:30:00 AM 0.16 32.288 0.128 7.26 5.3 14.21
2/20/2021 10:45:00 AM 0.18 32.324 0.128 7.27 5.06 14.22
2/20/2021 11:00:00 AM 0.2 32.36 0.126 7.27 4.96 14.23
2/20/2021 11:15:00 AM 0.22 32.396 0.126 7.27 5.09 14.24
2/20/2021 11:30:00 AM 0.24 32.432 0.125 7.28 5.33 14.24
2/20/2021 11:45:00 AM 0.29 32.522 0.125 7.28 5.05 14.26
2/20/2021 12:00:00 PM 0.35 32.63 0.124 7.29 5.27 14.26
2/20/2021 12:15:00 PM 0.44 32.792 0.124 7.3 5 14.26
2/20/2021 12:30:00 PM 0.48 32.864 0.124 7.29 5.15 14.25
2/20/2021 12:45:00 PM 0.53 32.954 0.125 7.29 5.14 14.24
2/20/2021 1:00:00 PM 0.58 33.044 0.125 7.3 5.2 14.24
2/20/2021 1:15:00 PM 0.54 32.972 0.125 7.3 4.96 14.24
2/20/2021 1:30:00 PM 0.49 32.882 0.125 7.31 4.94 14.24
2/20/2021 1:45:00 PM 0.48 32.864 0.125 7.3 5.01 14.24
2/20/2021 2:00:00 PM 0.43 32.774 0.125 7.31 4.89 14.24
2/20/2021 2:15:00 PM 0.41 32.738 0.124 7.31 5.15 14.25
2/20/2021 2:30:00 PM 0.37 32.666 0.124 7.31 5.11 14.23
2/20/2021 2:45:00 PM 0.39 32.702 0.123 7.31 4.98 14.23
2/20/2021 3:00:00 PM 0.41 32.738 0.123 7.31 4.84 14.23
2/20/2021 3:15:00 PM 0.4 32.72 0.123 7.31 5.07 14.22
2/20/2021 3:30:00 PM 0.43 32.774 0.123 7.31 4.85 14.22
2/20/2021 3:45:00 PM 0.38 32.684 0.123 7.31 4.86 14.21
2/20/2021 4:00:00 PM 0.36 32.648 0.123 7.31 4.92 14.21
2/20/2021 4:15:00 PM 0.35 32.63 0.123 7.31 4.83 14.21
2/20/2021 4:30:00 PM 0.31 32.558 0.123 7.3 4.84 14.2
2/20/2021 4:45:00 PM 0.3 32.54 0.123 7.31 4.93 14.21
2/20/2021 5:00:00 PM 0.26 32.468 0.123 7.3 4.76 14.2
2/20/2021 5:15:00 PM 0.25 32.45 0.123 7.3 4.81 14.18
2/20/2021 5:30:00 PM 0.23 32.414 0.122 7.3 4.86 14.16
2/20/2021 5:45:00 PM 0.13 32.234 0.123 7.3 4.84 14.13
2/20/2021 6:00:00 PM 0.15 32.27 0.123 7.28 4.77 14.08
2/20/2021 6:15:00 PM 0.13 32.234 0.123 7.28 5.06 14.06
2/20/2021 6:30:00 PM 0.08 32.144 0.123 7.28 4.86 14.04
2/20/2021 6:45:00 PM 0.07 32.126 0.123 7.27 4.67 14.02
2/20/2021 7:00:00 PM 0.08 32.144 0.122 7.26 4.79 14.01
2/20/2021 7:15:00 PM 0.09 32.162 0.122 7.26 4.91 13.99
2/20/2021 7:30:00 PM 0.08 32.144 0.123 7.26 4.78 13.98
2/20/2021 7:45:00 PM 0.06 32.108 0.123 7.26 4.76 13.97
2/20/2021 8:00:00 PM 0.04 32.072 0.123 7.26 4.77 13.96
2/20/2021 8:15:00 PM 0.06 32.108 0.123 7.26 4.73 13.95
2/20/2021 8:30:00 PM 0.04 32.072 0.123 7.25 4.68 13.95
2/20/2021 8:45:00 PM 0.02 32.036 0.123 7.25 4.77 13.95
2/20/2021 9:00:00 PM 0.01 32.018 0.123 7.24 4.69 13.95
2/20/2021 9:15:00 PM 0 32 0.123 7.24 4.67 13.95
2/20/2021 9:30:00 PM 0 32 0.123 7.24 4.79 13.95
2/20/2021 9:45:00 PM 0 32 0.123 7.24 4.88 13.95
2/20/2021 10:00:00 PM 0 32 0.123 7.24 4.98 13.95
2/20/2021 10:15:00 PM 0 32 0.123 7.24 4.71 13.95
2/20/2021 10:30:00 PM 0 32 0.123 7.24 4.58 13.95
2/20/2021 10:45:00 PM 0 32 0.123 7.24 4.9 13.96
2/20/2021 11:00:00 PM 0 32 0.123 7.23 4.64 13.96
2/20/2021 11:15:00 PM 0 32 0.123 7.23 4.59 13.96
2/20/2021 11:30:00 PM 0 32 0.123 7.22 4.58 13.97
2/20/2021 11:45:00 PM 0 32 0.123 7.22 4.46 13.98
2/21/2021 12:00:00 AM 0 32 0.124 7.22 4.42 13.98
2/21/2021 12:15:00 AM 0 32 0.124 7.23 4.58 13.98
2/21/2021 12:30:00 AM 0 32 0.124 7.23 4.51 13.98
2/21/2021 12:45:00 AM 0 32 0.124 7.22 4.43 13.99
2/21/2021 1:00:00 AM 0 32 0.124 7.21 4.59 14
2/21/2021 1:15:00 AM 0 32 0.124 7.21 4.61 14
2/21/2021 1:30:00 AM 0 32 0.124 7.21 4.44 14
2/21/2021 1:45:00 AM 0 32 0.124 7.22 4.55 14.01
2/21/2021 2:00:00 AM 0 32 0.124 7.23 4.47 14.01
2/21/2021 2:15:00 AM 0 32 0.124 7.22 4.9 14.02
2/21/2021 2:30:00 AM 0 32 0.124 7.21 4.76 14.02
2/21/2021 2:45:00 AM 0 32 0.124 7.2 4.65 14.03
2/21/2021 3:00:00 AM 0 32 0.124 7.2 4.33 14.03
2/21/2021 3:15:00 AM 0 32 0.124 7.21 4.58 14.04
2/21/2021 3:30:00 AM 0 32 0.125 7.21 4.41 14.04
2/21/2021 3:45:00 AM 0 32 0.125 7.21 4.81 14.05
2/21/2021 4:00:00 AM 0 32 0.125 7.21 4.66 14.04
2/21/2021 4:15:00 AM 0 32 0.125 7.19 4.63 14.05
2/21/2021 4:30:00 AM 0 32 0.125 7.2 4.57 14.05
2/21/2021 4:45:00 AM 0 32 0.125 7.2 4.46 14.06
2/21/2021 5:00:00 AM 0 32 0.125 7.2 4.78 14.06
2/21/2021 5:15:00 AM 0 32 0.126 7.2 4.62 14.06
2/21/2021 5:30:00 AM 0 32 0.126 7.21 4.87 14.05
2/21/2021 5:45:00 AM 0 32 0.126 7.21 4.7 14.05
2/21/2021 6:00:00 AM 0 32 0.126 7.2 4.62 14.06
2/21/2021 6:15:00 AM 0 32 0.127 7.19 4.67 14.07
2/21/2021 6:30:00 AM 0 32 0.127 7.21 4.63 14.05
2/21/2021 6:45:00 AM 0 32 0.127 7.2 4.62 14.06
2/21/2021 7:00:00 AM 0 32 0.127 7.19 4.48 14.07
2/21/2021 7:15:00 AM 0 32 0.128 7.21 4.57 14.07
2/21/2021 7:30:00 AM 0 32 0.128 7.21 4.84 14.1
2/21/2021 7:45:00 AM 0 32 0.128 7.21 4.58 14.13
2/21/2021 8:00:00 AM 0 32 0.128 7.21 4.45 14.16
2/21/2021 8:15:00 AM 0 32 0.128 7.22 4.39 14.21
2/21/2021 8:30:00 AM 0 32 0.128 7.21 4.6 14.24
2/21/2021 8:45:00 AM 0 32 0.128 7.23 4.88 14.26
2/21/2021 9:00:00 AM 0 32 0.128 7.22 4.47 14.3
2/21/2021 9:15:00 AM 0 32 0.128 7.22 5.89 14.32
2/21/2021 9:30:00 AM 0.01 32.018 0.128 7.23 4.52 14.33
2/21/2021 9:45:00 AM 0.01 32.018 0.127 7.24 4.63 14.34
2/21/2021 10:00:00 AM 0.01 32.018 0.127 7.25 4.47 14.35
2/21/2021 10:15:00 AM 0.01 32.018 0.126 7.24 4.28 14.36
2/21/2021 10:30:00 AM 0.01 32.018 0.125 7.25 4.66 14.36
2/21/2021 10:45:00 AM 0.02 32.036 0.124 7.26 4.65 14.37
2/21/2021 11:00:00 AM 0.03 32.054 0.123 7.25 5.16 14.36
2/21/2021 11:15:00 AM 0.09 32.162 0.123 7.24 5.16 14.36
2/21/2021 11:30:00 AM 0.16 32.288 0.122 7.27 4.89 14.37
2/21/2021 11:45:00 AM 0.18 32.324 0.121 7.27 4.87 14.38
2/21/2021 12:00:00 PM 0.27 32.486 0.121 7.28 4.86 14.37
2/21/2021 12:15:00 PM 0.31 32.558 0.12 7.28 4.72 14.37
2/21/2021 12:30:00 PM 0.37 32.666 0.12 7.29 4.87 14.37
2/21/2021 12:45:00 PM 0.39 32.702 0.12 7.29 4.76 14.37
2/21/2021 1:00:00 PM 0.44 32.792 0.121 7.3 4.75 14.38
2/21/2021 1:15:00 PM 0.43 32.774 0.121 7.3 4.76 14.39
2/21/2021 1:30:00 PM 0.52 32.936 0.122 7.3 4.71 14.39
2/21/2021 1:45:00 PM 0.46 32.828 0.122 7.31 4.94 14.39
2/21/2021 2:00:00 PM 0.53 32.954 0.122 7.3 4.69 14.39
2/21/2021 2:15:00 PM 0.53 32.954 0.122 7.31 4.81 14.39
2/21/2021 2:30:00 PM 0.53 32.954 0.121 7.31 5.05 14.39
2/21/2021 2:45:00 PM 0.56 33.008 0.121 7.31 4.65 14.39
2/21/2021 3:00:00 PM 0.56 33.008 0.119 7.31 5.08 14.38
2/21/2021 3:15:00 PM 0.53 32.954 0.119 7.31 4.97 14.38
2/21/2021 3:30:00 PM 0.49 32.882 0.118 7.32 4.71 14.38
2/21/2021 3:45:00 PM 0.44 32.792 0.117 7.32 4.8 14.39
2/21/2021 4:00:00 PM 0.4 32.72 0.117 7.32 4.82 14.39
2/21/2021 4:15:00 PM 0.36 32.648 0.116 7.32 4.85 14.38
2/21/2021 4:30:00 PM 0.33 32.594 0.116 7.31 4.71 14.38
2/21/2021 4:45:00 PM 0.29 32.522 0.116 7.31 4.9 14.38
2/21/2021 5:00:00 PM 0.25 32.45 0.117 7.32 4.94 14.36
2/21/2021 5:15:00 PM 0.21 32.378 0.117 7.3 4.83 14.34
2/21/2021 5:30:00 PM 0.16 32.288 0.117 7.3 4.69 14.32
2/21/2021 5:45:00 PM 0.13 32.234 0.117 7.29 4.8 14.29
2/21/2021 6:00:00 PM 0.1 32.18 0.117 7.28 4.72 14.26
2/21/2021 6:15:00 PM 0.07 32.126 0.117 7.27 4.92 14.23
2/21/2021 6:30:00 PM 0.05 32.09 0.118 7.27 4.96 14.2
2/21/2021 6:45:00 PM 0.03 32.054 0.118 7.27 4.84 14.17
2/21/2021 7:00:00 PM 0.02 32.036 0.118 7.27 4.82 14.15
2/21/2021 7:15:00 PM 0.01 32.018 0.119 7.25 4.98 14.13
2/21/2021 7:30:00 PM 0 32 0.119 7.27 4.86 14.12
2/21/2021 7:45:00 PM 0 32 0.119 7.25 4.9 14.1
2/21/2021 8:00:00 PM -0.01 31.982 0.12 7.24 4.96 14.09
2/21/2021 8:15:00 PM -0.01 31.982 0.12 7.24 4.93 14.07
2/21/2021 8:30:00 PM -0.02 31.964 0.12 7.25 4.86 14.06
2/21/2021 8:45:00 PM -0.02 31.964 0.121 7.24 4.95 14.05
2/21/2021 9:00:00 PM -0.02 31.964 0.121 7.24 5.17 14.04
2/21/2021 9:15:00 PM -0.03 31.946 0.121 7.23 5.62 14.04
2/21/2021 9:30:00 PM -0.03 31.946 0.121 7.22 5.01 14.04
2/21/2021 9:45:00 PM -0.03 31.946 0.122 7.22 5.95 14.04
2/21/2021 10:00:00 PM -0.02 31.964 0.122 7.2 5.98 14.02
2/21/2021 10:15:00 PM -0.01 31.982 0.123 7.2 5.7 14.02
2/21/2021 10:30:00 PM -0.01 31.982 0.124 7.2 7.06 14.04
2/21/2021 10:45:00 PM 0 32 0.125 7.21 6.22 14.01
2/21/2021 11:00:00 PM 0 32 0.125 7.22 5.65 14.01
2/21/2021 11:15:00 PM 0 32 0.126 7.19 6.14 14
2/21/2021 11:30:00 PM 0 32 0.128 7.21 6.03 13.99
2/21/2021 11:45:00 PM 0 32 0.128 7.21 5.99 13.99
2/22/2021 12:00:00 AM 0 32 0.129 7.22 5.95 13.99
2/22/2021 12:15:00 AM 0 32 0.13 7.22 5.89 13.98
2/22/2021 12:30:00 AM 0 32 0.13 7.2 6.14 13.98
2/22/2021 12:45:00 AM 0 32 0.131 7.2 6.29 13.98
2/22/2021 1:00:00 AM 0 32 0.13 7.21 6.21 13.97
2/22/2021 1:15:00 AM 0 32 0.13 7.21 6.27 13.97
2/22/2021 1:30:00 AM 0 32 0.13 7.21 6.21 13.96
2/22/2021 1:45:00 AM 0 32 0.129 7.21 5.82 13.96
2/22/2021 2:00:00 AM 0 32 0.129 7.19 6 13.95
2/22/2021 2:15:00 AM 0 32 0.128 7.2 6.13 13.96
2/22/2021 2:30:00 AM 0 32 0.128 7.21 6.39 13.95
2/22/2021 2:45:00 AM 0 32 0.128 7.21 6.25 13.96
2/22/2021 3:00:00 AM 0 32 0.128 7.21 6.56 13.96
2/22/2021 3:15:00 AM 0 32 0.127 7.21 6.43 13.96
2/22/2021 3:30:00 AM 0 32 0.127 7.19 6.09 13.95
2/22/2021 3:45:00 AM 0 32 0.127 7.21 6.32 13.95
2/22/2021 4:00:00 AM 0 32 0.127 7.22 6.01 13.95
2/22/2021 4:15:00 AM 0 32 0.127 7.2 6.36 13.95
2/22/2021 4:30:00 AM 0 32 0.127 7.21 6.34 13.94
2/22/2021 4:45:00 AM 0 32 0.126 7.21 6.14 13.94
2/22/2021 5:00:00 AM 0 32 0.126 7.22 6.11 13.94
2/22/2021 5:15:00 AM 0 32 0.126 7.22 6.12 13.94
2/22/2021 5:30:00 AM 0 32 0.126 7.2 6 13.93
2/22/2021 5:45:00 AM 0 32 0.127 7.22 6.11 13.93
2/22/2021 6:00:00 AM 0 32 0.127 7.22 5.92 13.92
2/22/2021 6:15:00 AM 0 32 0.127 7.22 5.99 13.93
2/22/2021 6:30:00 AM 0.01 32.018 0.127 7.22 5.79 13.91
2/22/2021 6:45:00 AM 0 32 0.127 7.22 6.06 13.91
2/22/2021 7:00:00 AM 0.01 32.018 0.127 7.2 6.09 13.92
2/22/2021 7:15:00 AM 0.01 32.018 0.127 7.2 5.91 13.91
2/22/2021 7:30:00 AM 0.01 32.018 0.127 7.2 5.78 13.92
2/22/2021 7:45:00 AM 0.01 32.018 0.127 7.2 5.84 13.93
2/22/2021 8:00:00 AM 0.01 32.018 0.127 7.21 5.94 13.94
2/22/2021 8:15:00 AM 0.02 32.036 0.127 7.23 7.06 13.96
2/22/2021 8:30:00 AM 0.02 32.036 0.127 7.24 4.68 13.99
2/22/2021 8:45:00 AM 0.04 32.072 0.127 7.24 4.45 14.01
2/22/2021 9:00:00 AM 0.05 32.09 0.127 7.24 4.42 14.03
2/22/2021 9:15:00 AM 0.05 32.09 0.127 7.25 4.34 14.06
2/22/2021 9:30:00 AM 0.04 32.072 0.126 7.25 4.35 14.09
2/22/2021 9:45:00 AM 0.02 32.036 0.126 7.25 4.63 14.11
2/22/2021 10:00:00 AM 0.01 32.018 0.126 7.26 4.63 14.12
2/22/2021 10:15:00 AM 0 32 0.125 7.25 4.69 14.12
2/22/2021 10:30:00 AM 0 32 0.125 7.27 4.66 14.12
2/22/2021 10:45:00 AM 0 32 0.125 7.28 5.37 14.14
2/22/2021 11:00:00 AM 0 32 0.124 7.28 4.9 14.15
2/22/2021 11:15:00 AM 0 32 0.124 7.26 5.39 14.16
2/22/2021 11:30:00 AM 0 32 0.124 7.27 5.07 14.17
2/22/2021 11:45:00 AM 0 32 0.124 7.27 5.03 14.18
2/22/2021 12:00:00 PM 0 32 0.124 7.28 4.84 14.19
2/22/2021 12:15:00 PM 0 32 0.125 7.29 5.18 14.19
2/22/2021 12:30:00 PM 0 32 0.125 7.28 4.61 14.2
2/22/2021 12:45:00 PM 0.01 32.018 0.125 7.27 6.36 14.21
2/22/2021 1:00:00 PM 0.01 32.018 0.125 7.29 5.32 14.21
2/22/2021 1:15:00 PM 0.01 32.018 0.125 7.28 5.08 14.21
2/22/2021 1:30:00 PM 0.02 32.036 0.126 7.29 5.18 14.21
2/22/2021 1:45:00 PM 0.03 32.054 0.126 7.3 4.87 14.2
2/22/2021 2:00:00 PM 0.05 32.09 0.125 7.3 5.03 14.21
2/22/2021 2:15:00 PM 0.06 32.108 0.125 7.31 4.6 14.21
2/22/2021 2:30:00 PM 0.07 32.126 0.125 7.3 4.54 14.21
2/22/2021 2:45:00 PM 0.08 32.144 0.125 7.31 4.63 14.21
2/22/2021 3:00:00 PM 0.1 32.18 0.125 7.3 4.49 14.2
2/22/2021 3:15:00 PM 0.1 32.18 0.125 7.3 4.66 14.19
2/22/2021 3:30:00 PM 0.12 32.216 0.124 7.3 4.51 14.19
2/22/2021 3:45:00 PM 0.12 32.216 0.124 7.31 4.7 14.18
2/22/2021 4:00:00 PM 0.12 32.216 0.125 7.32 4.59 14.17
2/22/2021 4:15:00 PM 0.12 32.216 0.127 7.31 4.24 14.16
2/22/2021 4:30:00 PM 0.12 32.216 0.128 7.31 4.46 14.15
2/22/2021 4:45:00 PM 0.12 32.216 0.128 7.31 4.55 14.14
2/22/2021 5:00:00 PM 0.11 32.198 0.129 7.31 4.4 14.11
2/22/2021 5:15:00 PM 0.11 32.198 0.129 7.3 4.54 14.08
2/22/2021 5:30:00 PM 0.1 32.18 0.128 7.29 4.42 14.04
2/22/2021 5:45:00 PM 0.1 32.18 0.127 7.28 4.32 14.02
2/22/2021 6:00:00 PM 0.1 32.18 0.126 7.27 4.43 13.98
2/22/2021 6:15:00 PM 0.1 32.18 0.125 7.28 4.63 13.95
2/22/2021 6:30:00 PM 0.09 32.162 0.125 7.27 4.61 13.93
2/22/2021 6:45:00 PM 0.09 32.162 0.124 7.27 4.66 13.92
2/22/2021 7:00:00 PM 0.09 32.162 0.124 7.27 4.53 13.9
2/22/2021 7:15:00 PM 0.09 32.162 0.124 7.26 4.54 13.88
2/22/2021 7:30:00 PM 0.09 32.162 0.123 7.25 4.51 13.88
2/22/2021 7:45:00 PM 0.09 32.162 0.123 7.26 5.81 13.86
2/22/2021 8:00:00 PM 0.09 32.162 0.123 7.25 4.83 13.85
2/22/2021 8:15:00 PM 0.09 32.162 0.123 7.25 4.89 13.84
2/22/2021 8:30:00 PM 0.09 32.162 0.122 7.25 4.68 13.83
2/22/2021 8:45:00 PM 0.09 32.162 0.122 7.25 4.79 13.82
2/22/2021 9:00:00 PM 0.09 32.162 0.122 7.25 4.74 13.81
2/22/2021 9:15:00 PM 0.1 32.18 0.122 7.24 4.57 13.8
2/22/2021 9:30:00 PM 0.1 32.18 0.122 7.24 4.55 13.79
2/22/2021 9:45:00 PM 0.1 32.18 0.122 7.24 4.62 13.79
2/22/2021 10:00:00 PM 0.1 32.18 0.121 7.23 4.47 13.78
2/22/2021 10:15:00 PM 0.1 32.18 0.121 7.22 4.42 13.77
2/22/2021 10:30:00 PM 0.11 32.198 0.121 7.22 4.64 13.77
2/22/2021 10:45:00 PM 0.11 32.198 0.121 7.23 4.62 13.77
2/22/2021 11:00:00 PM 0.11 32.198 0.121 7.23 4.59 13.76
2/22/2021 11:15:00 PM 0.11 32.198 0.121 7.22 4.74 13.75
2/22/2021 11:30:00 PM 0.11 32.198 0.122 7.23 4.85 13.74
2/22/2021 11:45:00 PM 0.11 32.198 0.122 7.22 4.96 13.73
2/23/2021 12:00:00 AM 0.11 32.198 0.121 7.22 4.58 13.73
2/23/2021 12:15:00 AM 0.11 32.198 0.121 7.21 4.6 13.73
2/23/2021 12:30:00 AM 0.12 32.216 0.122 7.22 5.27 13.72
2/23/2021 12:45:00 AM 0.12 32.216 0.122 7.22 4.69 13.71
2/23/2021 1:00:00 AM 0.11 32.198 0.122 7.22 4.57 13.71
2/23/2021 1:15:00 AM 0.11 32.198 0.122 7.22 4.53 13.71
2/23/2021 1:30:00 AM 0.11 32.198 0.122 7.21 4.67 13.7
2/23/2021 1:45:00 AM 0.12 32.216 0.122 7.22 4.45 13.7
2/23/2021 2:00:00 AM 0.11 32.198 0.122 7.22 4.6 13.7
2/23/2021 2:15:00 AM 0.1 32.18 0.122 7.22 4.67 13.69
2/23/2021 2:30:00 AM 0.08 32.144 0.122 7.22 4.57 13.69
2/23/2021 2:45:00 AM 0.07 32.126 0.122 7.22 4.5 13.7
2/23/2021 3:00:00 AM 0.04 32.072 0.122 7.21 4.53 13.7
2/23/2021 3:15:00 AM 0.03 32.054 0.122 7.21 4.59 13.7
2/23/2021 3:30:00 AM 0.01 32.018 0.122 7.22 4.57 13.7
2/23/2021 3:45:00 AM 0 32 0.122 7.21 4.56 13.7
2/23/2021 4:00:00 AM -0.02 31.964 0.122 7.22 4.6 13.71
2/23/2021 4:15:00 AM -0.03 31.946 0.122 7.21 4.58 13.71
2/23/2021 4:30:00 AM -0.03 31.946 0.122 7.2 4.5 13.71
2/23/2021 4:45:00 AM -0.04 31.928 0.122 7.22 5.03 13.71
2/23/2021 5:00:00 AM -0.02 31.964 0.122 7.21 5.26 13.72
2/23/2021 5:15:00 AM -0.01 31.982 0.121 7.2 5.51 13.72
2/23/2021 5:30:00 AM -0.01 31.982 0.123 7.19 5.29 13.72
2/23/2021 5:45:00 AM -0.01 31.982 0.123 7.2 5.08 13.73
2/23/2021 6:00:00 AM 0 32 0.123 7.2 5.17 13.72
2/23/2021 6:15:00 AM 0 32 0.124 7.21 5.41 13.72
2/23/2021 6:30:00 AM 0 32 0.125 7.21 5.63 13.72
2/23/2021 6:45:00 AM 0 32 0.124 7.2 5.9 13.72
2/23/2021 7:00:00 AM 0 32 0.124 7.2 5.57 13.72
2/23/2021 7:15:00 AM 0 32 0.124 7.19 5.51 13.74
2/23/2021 7:30:00 AM 0 32 0.124 7.21 5.72 13.76
2/23/2021 7:45:00 AM 0 32 0.124 7.2 5.6 13.79
2/23/2021 8:00:00 AM 0 32 0.124 7.21 5.55 13.82
2/23/2021 8:15:00 AM 0 32 0.123 7.23 5.16 13.84
2/23/2021 8:30:00 AM 0 32 0.123 7.24 5.23 13.86
2/23/2021 8:45:00 AM 0.01 32.018 0.123 7.24 5.46 13.88
2/23/2021 9:00:00 AM 0.03 32.054 0.123 7.24 5.51 13.9
2/23/2021 9:15:00 AM 0.06 32.108 0.123 7.25 4.71 13.91
2/23/2021 9:30:00 AM 0.08 32.144 0.122 7.25 4.73 13.95
2/23/2021 9:45:00 AM 0.11 32.198 0.122 7.26 4.99 13.98
2/23/2021 10:00:00 AM 0.09 32.162 0.122 7.26 5.68 14
2/23/2021 10:15:00 AM 0.06 32.108 0.121 7.27 5.27 14.01
2/23/2021 10:30:00 AM 0.06 32.108 0.121 7.27 4.91 14.01
2/23/2021 10:45:00 AM 0.1 32.18 0.121 7.28 4.86 14.03
2/23/2021 11:00:00 AM 0.11 32.198 0.121 7.29 4.92 14.04
2/23/2021 11:15:00 AM 0.14 32.252 0.121 7.3 4.61 14.05
2/23/2021 11:30:00 AM 0.2 32.36 0.122 7.3 4.46 14.05
2/23/2021 11:45:00 AM 0.25 32.45 0.124 7.31 4.37 14.06
2/23/2021 12:00:00 PM 0.3 32.54 0.125 7.31 4.52 14.07
2/23/2021 12:15:00 PM 0.31 32.558 0.126 7.31 4.49 14.07
2/23/2021 12:30:00 PM 0.32 32.576 0.125 7.31 4.39 14.07
2/23/2021 12:45:00 PM 0.33 32.594 0.124 7.32 4.3 14.07
2/23/2021 1:00:00 PM 0.36 32.648 0.124 7.33 4.5 14.08
2/23/2021 1:15:00 PM 0.41 32.738 0.125 7.32 4.44 14.08
2/23/2021 1:30:00 PM 0.42 32.756 0.125 7.33 4.51 14.08
2/23/2021 1:45:00 PM 0.43 32.774 0.125 7.32 4.42 14.07
2/23/2021 2:00:00 PM 0.45 32.81 0.126 7.33 4.45 14.07
2/23/2021 2:15:00 PM 0.46 32.828 0.126 7.33 4.44 14.06
2/23/2021 2:30:00 PM 0.44 32.792 0.126 7.33 4.41 14.05
2/23/2021 2:45:00 PM 0.42 32.756 0.125 7.32 4.41 14.03
2/23/2021 3:00:00 PM 0.4 32.72 0.125 7.33 4.43 14.02
2/23/2021 3:15:00 PM 0.39 32.702 0.125 7.33 4.34 14
2/23/2021 3:30:00 PM 0.38 32.684 0.125 7.32 4.32 13.97
2/23/2021 3:45:00 PM 0.38 32.684 0.125 7.32 4.4 13.94
2/23/2021 4:00:00 PM 0.38 32.684 0.125 7.31 4.36 13.92
2/23/2021 4:15:00 PM 0.37 32.666 0.124 7.31 4.57 13.9
2/23/2021 4:30:00 PM 0.37 32.666 0.125 7.31 4.4 13.88
2/23/2021 4:45:00 PM 0.37 32.666 0.125 7.3 4.14 13.86
2/23/2021 5:00:00 PM 0.36 32.648 0.125 7.3 4.28 13.85
2/23/2021 5:15:00 PM 0.36 32.648 0.125 7.29 4.58 13.83
2/23/2021 5:30:00 PM 0.36 32.648 0.125 7.3 4.29 13.81
2/23/2021 5:45:00 PM 0.35 32.63 0.125 7.29 4.37 13.79
2/23/2021 6:00:00 PM 0.35 32.63 0.125 7.29 4.32 13.77
2/23/2021 6:15:00 PM 0.35 32.63 0.126 7.28 4.3 13.75
2/23/2021 6:30:00 PM 0.35 32.63 0.125 7.28 4.33 13.73
2/23/2021 6:45:00 PM 0.35 32.63 0.126 7.27 4.29 13.72
2/23/2021 7:00:00 PM 0.35 32.63 0.126 7.26 4.19 13.7
2/23/2021 7:15:00 PM 0.35 32.63 0.126 7.25 4.22 13.69
2/23/2021 7:30:00 PM 0.35 32.63 0.125 7.26 4.32 13.68
2/23/2021 7:45:00 PM 0.35 32.63 0.125 7.26 4.26 13.67
2/23/2021 8:00:00 PM 0.36 32.648 0.125 7.26 4.21 13.66
2/23/2021 8:15:00 PM 0.36 32.648 0.125 7.26 4.49 13.65
2/23/2021 8:30:00 PM 0.36 32.648 0.125 7.25 4.36 13.65
2/23/2021 8:45:00 PM 0.36 32.648 0.125 7.25 4.19 13.64
2/23/2021 9:00:00 PM 0.36 32.648 0.126 7.25 4.33 13.63
2/23/2021 9:15:00 PM 0.35 32.63 0.126 7.25 4.49 13.63
2/23/2021 9:30:00 PM 0.34 32.612 0.126 7.24 4.2 13.62
2/23/2021 9:45:00 PM 0.33 32.594 0.126 7.24 4.3 13.63
2/23/2021 10:00:00 PM 0.34 32.612 0.127 7.24 4.35 13.62
2/23/2021 10:15:00 PM 0.34 32.612 0.127 7.24 4.36 13.62
2/23/2021 10:30:00 PM 0.34 32.612 0.127 7.24 5.25 13.62
2/23/2021 10:45:00 PM 0.34 32.612 0.127 7.24 4.44 13.62
2/23/2021 11:00:00 PM 0.35 32.63 0.127 7.23 4.33 13.62
2/23/2021 11:15:00 PM 0.35 32.63 0.127 7.24 4.46 13.62
2/23/2021 11:30:00 PM 0.35 32.63 0.127 7.24 4.43 13.62
2/23/2021 11:45:00 PM 0.34 32.612 0.128 7.24 4.42 13.62
2/24/2021 12:00:00 AM 0.32 32.576 0.128 7.22 4.38 13.63
2/24/2021 12:15:00 AM 0.31 32.558 0.128 7.23 4.41 13.63
2/24/2021 12:30:00 AM 0.3 32.54 0.128 7.23 4.43 13.63
2/24/2021 12:45:00 AM 0.28 32.504 0.128 7.23 4.37 13.64
2/24/2021 1:00:00 AM 0.27 32.486 0.128 7.23 4.43 13.65
2/24/2021 1:15:00 AM 0.27 32.486 0.128 7.23 4.35 13.65
2/24/2021 1:30:00 AM 0.26 32.468 0.129 7.23 4.36 13.65
2/24/2021 1:45:00 AM 0.26 32.468 0.129 7.23 4.42 13.65
2/24/2021 2:00:00 AM 0.25 32.45 0.129 7.21 4.43 13.66
2/24/2021 2:15:00 AM 0.24 32.432 0.129 7.21 4.36 13.66
2/24/2021 2:30:00 AM 0.24 32.432 0.129 7.22 4.46 13.66
2/24/2021 2:45:00 AM 0.22 32.396 0.129 7.22 4.31 13.67
2/24/2021 3:00:00 AM 0.21 32.378 0.129 7.23 4.39 13.67
2/24/2021 3:15:00 AM 0.2 32.36 0.129 7.23 4.33 13.68
2/24/2021 3:30:00 AM 0.21 32.378 0.129 7.22 4.41 13.68
2/24/2021 3:45:00 AM 0.21 32.378 0.129 7.23 4.34 13.69
2/24/2021 4:00:00 AM 0.21 32.378 0.129 7.23 4.37 13.69
2/24/2021 4:15:00 AM 0.19 32.342 0.129 7.22 4.38 13.7
2/24/2021 4:30:00 AM 0.18 32.324 0.129 7.22 4.88 13.7
2/24/2021 4:45:00 AM 0.16 32.288 0.13 7.23 6.33 13.71
2/24/2021 5:00:00 AM 0.14 32.252 0.13 7.22 4.39 13.71
2/24/2021 5:15:00 AM 0.13 32.234 0.13 7.22 4.43 13.72
2/24/2021 5:30:00 AM 0.11 32.198 0.13 7.21 4.22 13.73
2/24/2021 5:45:00 AM 0.09 32.162 0.13 7.23 4.34 13.74
2/24/2021 6:00:00 AM 0.08 32.144 0.13 7.22 4.18 13.74
2/24/2021 6:15:00 AM 0.07 32.126 0.13 7.22 4.35 13.75
2/24/2021 6:30:00 AM 0.06 32.108 0.131 7.21 4.23 13.76
2/24/2021 6:45:00 AM 0.05 32.09 0.131 7.22 4.38 13.77
2/24/2021 7:00:00 AM 0.03 32.054 0.131 7.21 4.34 13.79
2/24/2021 7:15:00 AM 0.03 32.054 0.131 7.22 4.37 13.82
2/24/2021 7:30:00 AM 0.02 32.036 0.131 7.24 4.42 13.86
2/24/2021 7:45:00 AM 0.03 32.054 0.132 7.23 4.35 13.91
2/24/2021 8:00:00 AM 0.05 32.09 0.132 7.25 4.4 13.96
2/24/2021 8:15:00 AM 0.09 32.162 0.132 7.25 4.42 14.01
2/24/2021 8:30:00 AM 0.12 32.216 0.132 7.25 4.28 14.05
2/24/2021 8:45:00 AM 0.17 32.306 0.132 7.26 4.22 14.09
2/24/2021 9:00:00 AM 0.22 32.396 0.132 7.26 4.42 14.12
2/24/2021 9:15:00 AM 0.28 32.504 0.132 7.28 4.43 14.14
2/24/2021 9:30:00 AM 0.33 32.594 0.132 7.29 4.36 14.15
2/24/2021 9:45:00 AM 0.39 32.702 0.132 7.29 4.27 14.17
2/24/2021 10:00:00 AM 0.47 32.846 0.132 7.3 4.3 14.18
2/24/2021 10:15:00 AM 0.55 32.99 0.132 7.31 4.42 14.2
2/24/2021 10:30:00 AM 0.61 33.098 0.132 7.31 4.35 14.2
2/24/2021 10:45:00 AM 0.67 33.206 0.132 7.31 4.26 14.21
2/24/2021 11:00:00 AM 0.75 33.35 0.132 7.32 4.22 14.2
2/24/2021 11:15:00 AM 0.81 33.458 0.132 7.32 4.21 14.2
2/24/2021 11:30:00 AM 0.86 33.548 0.132 7.32 4.38 14.2
2/24/2021 11:45:00 AM 0.88 33.584 0.132 7.33 4.31 14.19
2/24/2021 12:00:00 PM 0.92 33.656 0.132 7.33 4.23 14.19
2/24/2021 12:15:00 PM 0.95 33.71 0.131 7.34 4.29 14.18
2/24/2021 12:30:00 PM 1.02 33.836 0.132 7.34 4.34 14.17
2/24/2021 12:45:00 PM 1.1 33.98 0.132 7.33 4.37 14.16
2/24/2021 1:00:00 PM 1.21 34.178 0.131 7.35 4.36 14.14
2/24/2021 1:15:00 PM 1.31 34.358 0.131 7.35 4.39 14.11
2/24/2021 1:30:00 PM 1.49 34.682 0.131 7.35 4.41 14.09
2/24/2021 1:45:00 PM 1.58 34.844 0.131 7.35 4.55 14.06
2/24/2021 2:00:00 PM 1.64 34.952 0.131 7.35 4.67 14.04
2/24/2021 2:15:00 PM 1.68 35.024 0.131 7.35 4.6 14.01
2/24/2021 2:30:00 PM 1.7 35.06 0.132 7.36 4.72 14
2/24/2021 2:45:00 PM 1.68 35.024 0.132 7.36 4.79 13.99
2/24/2021 3:00:00 PM 1.66 34.988 0.132 7.36 4.94 13.98
2/24/2021 3:15:00 PM 1.66 34.988 0.133 7.35 5.16 13.97
2/24/2021 3:30:00 PM 1.66 34.988 0.133 7.36 5.46 13.95
2/24/2021 3:45:00 PM 1.67 35.006 0.134 7.36 5.57 13.93
2/24/2021 4:00:00 PM 1.69 35.042 0.136 7.37 6 13.9
2/24/2021 4:15:00 PM 1.71 35.078 0.139 7.37 6.94 13.87
2/24/2021 4:30:00 PM 1.68 35.024 0.142 7.37 7.25 13.83
2/24/2021 4:45:00 PM 1.65 34.97 0.145 7.36 7.38 13.79
2/24/2021 5:00:00 PM 1.62 34.916 0.148 7.36 8.2 13.76
2/24/2021 5:15:00 PM 1.6 34.88 0.149 7.36 9.05 13.72
2/24/2021 5:30:00 PM 1.57 34.826 0.151 7.34 9.29 13.66
2/24/2021 5:45:00 PM 1.55 34.79 0.163 7.34 10.05 13.61
2/24/2021 6:00:00 PM 1.53 34.754 0.166 7.33 10.52 13.55
2/24/2021 6:15:00 PM 1.52 34.736 0.168 7.32 11.11 13.5
2/24/2021 6:30:00 PM 1.51 34.718 0.171 7.32 10.27 13.46
2/24/2021 6:45:00 PM 1.5 34.7 0.177 7.31 10.08 13.41
2/24/2021 7:00:00 PM 1.48 34.664 0.181 7.29 10.01 13.38
2/24/2021 7:15:00 PM 1.45 34.61 0.184 7.3 10.02 13.36
2/24/2021 7:30:00 PM 1.45 34.61 0.187 7.3 9.61 13.34
2/24/2021 7:45:00 PM 1.44 34.592 0.188 7.29 9.44 13.32
2/24/2021 8:00:00 PM 1.42 34.556 0.19 7.29 9.46 13.31
2/24/2021 8:15:00 PM 1.4 34.52 0.191 7.28 9.02 13.29
2/24/2021 8:30:00 PM 1.38 34.484 0.192 7.28 9.34 13.28
2/24/2021 8:45:00 PM 1.35 34.43 0.194 7.27 9.23 13.27
2/24/2021 9:00:00 PM 1.33 34.394 0.196 7.27 9.6 13.26
2/24/2021 9:15:00 PM 1.31 34.358 0.197 7.26 9.11 13.27
2/24/2021 9:30:00 PM 1.27 34.286 0.2 7.27 9.16 13.27
2/24/2021 9:45:00 PM 1.23 34.214 0.202 7.26 9.01 13.27
2/24/2021 10:00:00 PM 1.17 34.106 0.204 7.25 9.43 13.28
2/24/2021 10:15:00 PM 1.14 34.052 0.205 7.26 9.5 13.29
2/24/2021 10:30:00 PM 1.11 33.998 0.207 7.26 9.1 13.3
2/24/2021 10:45:00 PM 1.1 33.98 0.208 7.25 9.39 13.32
2/24/2021 11:00:00 PM 1.07 33.926 0.209 7.25 9.01 13.32
2/24/2021 11:15:00 PM 1.04 33.872 0.21 7.25 10.22 13.34
2/24/2021 11:30:00 PM 1.03 33.854 0.21 7.25 10.12 13.35
2/24/2021 11:45:00 PM 0.99 33.782 0.211 7.25 10.37 13.36
2/25/2021 12:00:00 AM 0.95 33.71 0.211 7.25 10.38 13.38
2/25/2021 12:15:00 AM 0.91 33.638 0.211 7.24 10.62 13.39
2/25/2021 12:30:00 AM 0.89 33.602 0.21 7.24 10.82 13.41
2/25/2021 12:45:00 AM 0.85 33.53 0.21 7.24 10.97 13.43
2/25/2021 1:00:00 AM 0.83 33.494 0.209 7.24 11.28 13.45
2/25/2021 1:15:00 AM 0.81 33.458 0.209 7.24 11.2 13.47
2/25/2021 1:30:00 AM 0.78 33.404 0.209 7.24 11.83 13.48
2/25/2021 1:45:00 AM 0.75 33.35 0.208 7.24 12.19 13.5
2/25/2021 2:00:00 AM 0.73 33.314 0.208 7.24 12.87 13.51
2/25/2021 2:15:00 AM 0.71 33.278 0.207 7.24 12.81 13.53
2/25/2021 2:30:00 AM 0.69 33.242 0.208 7.24 12.47 13.55
2/25/2021 2:45:00 AM 0.66 33.188 0.207 7.23 13.54 13.56
2/25/2021 3:00:00 AM 0.65 33.17 0.207 7.23 14.08 13.57
2/25/2021 3:15:00 AM 0.63 33.134 0.207 7.23 13.45 13.59
2/25/2021 3:30:00 AM 0.6 33.08 0.208 7.23 12.95 13.61
2/25/2021 3:45:00 AM 0.58 33.044 0.208 7.22 12.85 13.62
2/25/2021 4:00:00 AM 0.56 33.008 0.207 7.23 12.75 13.64
2/25/2021 4:15:00 AM 0.54 32.972 0.207 7.23 12.95 13.65
2/25/2021 4:30:00 AM 0.52 32.936 0.207 7.22 13.05 13.66
2/25/2021 4:45:00 AM 0.5 32.9 0.206 7.22 12.24 13.68
2/25/2021 5:00:00 AM 0.49 32.882 0.205 7.22 12.52 13.68
2/25/2021 5:15:00 AM 0.47 32.846 0.204 7.22 12.29 13.69
2/25/2021 5:30:00 AM 0.45 32.81 0.203 7.22 12.66 13.7
2/25/2021 5:45:00 AM 0.43 32.774 0.201 7.22 12.53 13.71
2/25/2021 6:00:00 AM 0.42 32.756 0.2 7.22 11.77 13.72
2/25/2021 6:15:00 AM 0.41 32.738 0.198 7.22 12.65 13.73
2/25/2021 6:30:00 AM 0.4 32.72 0.197 7.22 12.66 13.74
2/25/2021 6:45:00 AM 0.39 32.702 0.196 7.22 12.53 13.75
2/25/2021 7:00:00 AM 0.37 32.666 0.194 7.22 12.2 13.76
2/25/2021 7:15:00 AM 0.36 32.648 0.193 7.22 11.59 13.78
2/25/2021 7:30:00 AM 0.36 32.648 0.192 7.22 11.56 13.8
2/25/2021 7:45:00 AM 0.36 32.648 0.19 7.23 11.84 13.83
2/25/2021 8:00:00 AM 0.36 32.648 0.189 7.23 11.19 13.86
2/25/2021 8:15:00 AM 0.37 32.666 0.187 7.23 11.2 13.89
2/25/2021 8:30:00 AM 0.39 32.702 0.186 7.24 11.21 13.93
2/25/2021 8:45:00 AM 0.4 32.72 0.185 7.24 10.73 13.96
2/25/2021 9:00:00 AM 0.44 32.792 0.183 7.25 10.41 14
2/25/2021 9:15:00 AM 0.47 32.846 0.182 7.25 10.88 14.02
2/25/2021 9:30:00 AM 0.49 32.882 0.181 7.25 10.42 14.04
2/25/2021 9:45:00 AM 0.54 32.972 0.18 7.26 9.88 14.06
2/25/2021 10:00:00 AM 0.58 33.044 0.18 7.26 10.02 14.08
2/25/2021 10:15:00 AM 0.63 33.134 0.178 7.27 10.06 14.09
2/25/2021 10:30:00 AM 0.68 33.224 0.177 7.27 9.58 14.11
2/25/2021 10:45:00 AM 0.8 33.44 0.177 7.27 9.13 14.12
2/25/2021 11:00:00 AM 0.94 33.692 0.176 7.27 9.46 14.11
2/25/2021 11:15:00 AM 1.01 33.818 0.175 7.28 9.88 14.11
2/25/2021 11:30:00 AM 1.06 33.908 0.174 7.28 9.48 14.11
2/25/2021 11:45:00 AM 1.17 34.106 0.173 7.28 9.87 14.1
2/25/2021 12:00:00 PM 1.35 34.43 0.172 7.27 9.57 14.09
2/25/2021 12:15:00 PM 1.42 34.556 0.171 7.28 9.54 14.08
2/25/2021 12:30:00 PM 1.45 34.61 0.171 7.28 10.55 14.07
2/25/2021 12:45:00 PM 1.53 34.754 0.17 7.28 10.05 14.06
2/25/2021 1:00:00 PM 1.61 34.898 0.17 7.29 9.52 14.05
2/25/2021 1:15:00 PM 1.7 35.06 0.169 7.29 10.13 14.04
2/25/2021 1:30:00 PM 1.81 35.258 0.169 7.29 10.16 14.03
2/25/2021 1:45:00 PM 1.93 35.474 0.169 7.29 10.11 14
2/25/2021 2:00:00 PM 2.03 35.654 0.169 7.29 9.99 13.98
2/25/2021 2:15:00 PM 2.1 35.78 0.169 7.3 10.29 13.95
2/25/2021 2:30:00 PM 2.12 35.816 0.17 7.3 10.56 13.92
2/25/2021 2:45:00 PM 2.16 35.888 0.171 7.3 10.26 13.9
2/25/2021 3:00:00 PM 2.16 35.888 0.172 7.3 10.62 13.87
2/25/2021 3:15:00 PM 2.16 35.888 0.173 7.3 10.66 13.84
2/25/2021 3:30:00 PM 2.15 35.87 0.173 7.3 11.17 13.82
2/25/2021 3:45:00 PM 2.12 35.816 0.174 7.3 9.9 13.79
2/25/2021 4:00:00 PM 2.07 35.726 0.175 7.3 11.54 13.77
2/25/2021 4:15:00 PM 2.02 35.636 0.175 7.3 11.31 13.76
2/25/2021 4:30:00 PM 1.97 35.546 0.175 7.29 11.43 13.74
2/25/2021 4:45:00 PM 1.92 35.456 0.175 7.29 11.31 13.72
2/25/2021 5:00:00 PM 1.88 35.384 0.176 7.29 10.82 13.69
2/25/2021 5:15:00 PM 1.84 35.312 0.176 7.28 10.91 13.66
2/25/2021 5:30:00 PM 1.8 35.24 0.177 7.28 10.56 13.63
2/25/2021 5:45:00 PM 1.76 35.168 0.178 7.27 10.05 13.61
2/25/2021 6:00:00 PM 1.74 35.132 0.178 7.26 10.53 13.58
2/25/2021 6:15:00 PM 1.71 35.078 0.178 7.25 10.14 13.55
2/25/2021 6:30:00 PM 1.68 35.024 0.178 7.25 9.96 13.53
2/25/2021 6:45:00 PM 1.65 34.97 0.179 7.25 10.19 13.51
2/25/2021 7:00:00 PM 1.61 34.898 0.18 7.25 10.08 13.51
2/25/2021 7:15:00 PM 1.56 34.808 0.179 7.24 10.03 13.51
2/25/2021 7:30:00 PM 1.5 34.7 0.18 7.24 10.89 13.52
2/25/2021 7:45:00 PM 1.43 34.574 0.18 7.24 10.16 13.53
2/25/2021 8:00:00 PM 1.35 34.43 0.18 7.23 10.39 13.54
2/25/2021 8:15:00 PM 1.26 34.268 0.181 7.22 10.3 13.55
2/25/2021 8:30:00 PM 1.18 34.124 0.181 7.22 10.35 13.57
2/25/2021 8:45:00 PM 1.1 33.98 0.181 7.21 10.08 13.59
2/25/2021 9:00:00 PM 1.02 33.836 0.181 7.21 10.31 13.61
2/25/2021 9:15:00 PM 0.95 33.71 0.181 7.21 10.03 13.62
2/25/2021 9:30:00 PM 0.89 33.602 0.18 7.21 10.29 13.64
2/25/2021 9:45:00 PM 0.83 33.494 0.18 7.21 10.13 13.66
2/25/2021 10:00:00 PM 0.78 33.404 0.181 7.21 9.86 13.67
2/25/2021 10:15:00 PM 0.72 33.296 0.181 7.21 9.55 13.69
2/25/2021 10:30:00 PM 0.67 33.206 0.181 7.2 9.68 13.7
2/25/2021 10:45:00 PM 0.61 33.098 0.18 7.2 9.36 13.71
2/25/2021 11:00:00 PM 0.56 33.008 0.181 7.2 9.29 13.73
2/25/2021 11:15:00 PM 0.51 32.918 0.18 7.2 9.12 13.74
2/25/2021 11:30:00 PM 0.46 32.828 0.18 7.19 9.22 13.76
2/25/2021 11:45:00 PM 0.41 32.738 0.181 7.19 9.32 13.78
2/26/2021 12:00:00 AM 0.35 32.63 0.18 7.2 8.62 13.79
2/26/2021 12:15:00 AM 0.3 32.54 0.181 7.19 9.22 13.81
2/26/2021 12:30:00 AM 0.25 32.45 0.181 7.2 8.52 13.83
2/26/2021 12:45:00 AM 0.2 32.36 0.181 7.19 9.14 13.85
2/26/2021 1:00:00 AM 0.15 32.27 0.181 7.19 8.87 13.86
2/26/2021 1:15:00 AM 0.11 32.198 0.181 7.19 8.48 13.88
2/26/2021 1:30:00 AM 0.06 32.108 0.181 7.19 8.93 13.9
2/26/2021 1:45:00 AM 0.02 32.036 0.181 7.19 8.97 13.91
2/26/2021 2:00:00 AM -0.01 31.982 0.181 7.19 9.34 13.93
2/26/2021 2:15:00 AM -0.03 31.946 0.181 7.18 8.47 13.95
2/26/2021 2:30:00 AM -0.01 31.982 0.182 7.2 8.54 13.97
2/26/2021 2:45:00 AM -0.01 31.982 0.183 7.2 8.62 13.97
2/26/2021 3:00:00 AM -0.01 31.982 0.183 7.19 8.08 13.97
2/26/2021 3:15:00 AM 0 32 0.183 7.19 8.63 13.98
2/26/2021 3:30:00 AM 0 32 0.183 7.19 8.41 13.99
2/26/2021 3:45:00 AM 0 32 0.183 7.19 7.82 13.99
2/26/2021 4:00:00 AM 0 32 0.183 7.19 7.44 13.99
2/26/2021 4:15:00 AM 0 32 0.183 7.19 9.44 13.97
2/26/2021 4:30:00 AM 0 32 0.184 7.19 8.84 13.99
2/26/2021 4:45:00 AM 0 32 0.184 7.18 7.72 14.01
2/26/2021 5:00:00 AM 0 32 0.184 7.19 7.53 14.01
2/26/2021 5:15:00 AM 0 32 0.183 7.18 7.27 14.02
2/26/2021 5:30:00 AM 0.01 32.018 0.183 7.18 6.82 14.01
2/26/2021 5:45:00 AM 0.01 32.018 0.183 7.19 6.3 14
2/26/2021 6:00:00 AM 0 32 0.183 7.18 6.21 14.03
2/26/2021 6:15:00 AM 0 32 0.182 7.19 6.26 14.02
2/26/2021 6:30:00 AM 0 32 0.182 7.19 6.57 14.03
2/26/2021 6:45:00 AM 0 32 0.181 7.19 6.51 14.03
2/26/2021 7:00:00 AM 0 32 0.182 7.18 6.56 14.04
2/26/2021 7:15:00 AM 0 32 0.182 7.19 6.36 14.06
2/26/2021 7:30:00 AM 0 32 0.183 7.19 6.02 14.09
2/26/2021 7:45:00 AM 0 32 0.183 7.19 6.01 14.13
2/26/2021 8:00:00 AM 0 32 0.183 7.2 6.46 14.17
2/26/2021 8:15:00 AM 0 32 0.183 7.21 6.17 14.2
2/26/2021 8:30:00 AM 0 32 0.183 7.21 5.61 14.22
2/26/2021 8:45:00 AM 0 32 0.183 7.2 5.8 14.24
2/26/2021 9:00:00 AM 0 32 0.182 7.22 6.19 14.26
2/26/2021 9:15:00 AM 0.01 32.018 0.181 7.23 5.79 14.27
2/26/2021 9:30:00 AM 0.01 32.018 0.18 7.24 6.45 14.29
2/26/2021 9:45:00 AM 0.05 32.09 0.168 7.24 7.36 14.31
2/26/2021 10:00:00 AM 0.13 32.234 0.178 7.23 7.38 14.33
2/26/2021 10:15:00 AM 0.22 32.396 0.176 7.24 7.41 14.33
2/26/2021 10:30:00 AM 0.33 32.594 0.173 7.25 7.2 14.33
2/26/2021 10:45:00 AM 0.43 32.774 0.172 7.25 7.1 14.33
2/26/2021 11:00:00 AM 0.55 32.99 0.172 7.26 7.2 14.34
2/26/2021 11:15:00 AM 0.65 33.17 0.172 7.26 6.84 14.34
2/26/2021 11:30:00 AM 0.76 33.368 0.171 7.26 6.92 14.33
2/26/2021 11:45:00 AM 0.87 33.566 0.171 7.27 7.02 14.33
2/26/2021 12:00:00 PM 0.97 33.746 0.17 7.27 6.89 14.32
2/26/2021 12:15:00 PM 1.1 33.98 0.17 7.27 7.08 14.31
2/26/2021 12:30:00 PM 1.23 34.214 0.169 7.28 7.33 14.29
2/26/2021 12:45:00 PM 1.33 34.394 0.167 7.28 7.4 14.28
2/26/2021 1:00:00 PM 1.44 34.592 0.165 7.28 7.62 14.27
2/26/2021 1:15:00 PM 1.54 34.772 0.153 7.29 7.94 14.25
2/26/2021 1:30:00 PM 1.62 34.916 0.152 7.29 7.31 14.23
2/26/2021 1:45:00 PM 1.69 35.042 0.151 7.29 7.37 14.22
2/26/2021 2:00:00 PM 1.78 35.204 0.15 7.29 7.66 14.2
2/26/2021 2:15:00 PM 1.83 35.294 0.15 7.3 7.42 14.19
2/26/2021 2:30:00 PM 1.87 35.366 0.149 7.3 7.46 14.17
2/26/2021 2:45:00 PM 1.9 35.42 0.15 7.3 7.17 14.16
2/26/2021 3:00:00 PM 1.91 35.438 0.15 7.31 7.76 14.14
2/26/2021 3:15:00 PM 1.92 35.456 0.15 7.31 7.74 14.13
2/26/2021 3:30:00 PM 1.93 35.474 0.151 7.31 7.62 14.12
2/26/2021 3:45:00 PM 1.97 35.546 0.151 7.31 7.87 14.09
2/26/2021 4:00:00 PM 2 35.6 0.161 7.31 7.82 14.06
2/26/2021 4:15:00 PM 2.04 35.672 0.162 7.32 7.09 14.03
2/26/2021 4:30:00 PM 2.06 35.708 0.153 7.32 7.88 13.99
2/26/2021 4:45:00 PM 2.08 35.744 0.163 7.31 7.34 13.95
2/26/2021 5:00:00 PM 2.09 35.762 0.154 7.31 7.02 13.91
2/26/2021 5:15:00 PM 2.1 35.78 0.164 7.31 7.24 13.85
2/26/2021 5:30:00 PM 2.1 35.78 0.164 7.3 7.28 13.79
2/26/2021 5:45:00 PM 2.1 35.78 0.164 7.29 7.03 13.73
2/26/2021 6:00:00 PM 2.1 35.78 0.164 7.28 6.72 13.67
2/26/2021 6:15:00 PM 2.08 35.744 0.165 7.28 7.17 13.63
2/26/2021 6:30:00 PM 2.06 35.708 0.165 7.27 7.25 13.59
2/26/2021 6:45:00 PM 2.03 35.654 0.155 7.26 7.33 13.57
2/26/2021 7:00:00 PM 2 35.6 0.165 7.26 7.28 13.54
2/26/2021 7:15:00 PM 1.96 35.528 0.165 7.25 7.11 13.53
2/26/2021 7:30:00 PM 1.91 35.438 0.166 7.25 7.32 13.52
2/26/2021 7:45:00 PM 1.87 35.366 0.166 7.25 7.58 13.51
2/26/2021 8:00:00 PM 1.82 35.276 0.166 7.24 7.61 13.5
2/26/2021 8:15:00 PM 1.76 35.168 0.166 7.24 7.49 13.5
2/26/2021 8:30:00 PM 1.69 35.042 0.165 7.23 7.79 13.5
2/26/2021 8:45:00 PM 1.63 34.934 0.166 7.23 7.44 13.5
2/26/2021 9:00:00 PM 1.57 34.826 0.166 7.22 7.65 13.51
2/26/2021 9:15:00 PM 1.52 34.736 0.166 7.23 8.08 13.51
2/26/2021 9:30:00 PM 1.47 34.646 0.166 7.23 8.09 13.52
2/26/2021 9:45:00 PM 1.42 34.556 0.155 7.22 7.84 13.53
2/26/2021 10:00:00 PM 1.37 34.466 0.155 7.22 7.39 13.54
2/26/2021 10:15:00 PM 1.32 34.376 0.155 7.21 7.59 13.55
2/26/2021 10:30:00 PM 1.27 34.286 0.156 7.21 7.55 13.56
2/26/2021 10:45:00 PM 1.22 34.196 0.156 7.2 7.37 13.57
2/26/2021 11:00:00 PM 1.18 34.124 0.165 7.21 7.36 13.58
2/26/2021 11:15:00 PM 1.13 34.034 0.156 7.21 7.67 13.59
2/26/2021 11:30:00 PM 1.09 33.962 0.166 7.21 7.25 13.6
2/26/2021 11:45:00 PM 1.05 33.89 0.155 7.2 7.49 13.61
2/27/2021 12:00:00 AM 1.01 33.818 0.156 7.2 7.4 13.61
2/27/2021 12:15:00 AM 0.99 33.782 0.166 7.2 6.66 13.62
2/27/2021 12:30:00 AM 0.97 33.746 0.155 7.21 6.79 13.63
2/27/2021 12:45:00 AM 0.95 33.71 0.156 7.2 6.64 13.64
2/27/2021 1:00:00 AM 0.93 33.674 0.155 7.2 6.9 13.64
2/27/2021 1:15:00 AM 0.91 33.638 0.155 7.19 7.03 13.65
2/27/2021 1:30:00 AM 0.89 33.602 0.155 7.2 6.56 13.65
2/27/2021 1:45:00 AM 0.87 33.566 0.155 7.19 6.38 13.66
2/27/2021 2:00:00 AM 0.86 33.548 0.166 7.2 6.69 13.67
2/27/2021 2:15:00 AM 0.84 33.512 0.155 7.2 6.35 13.67
2/27/2021 2:30:00 AM 0.8 33.44 0.155 7.19 6.63 13.67
2/27/2021 2:45:00 AM 0.76 33.368 0.156 7.19 6.4 13.68
2/27/2021 3:00:00 AM 0.73 33.314 0.155 7.2 6.35 13.68
2/27/2021 3:15:00 AM 0.7 33.26 0.166 7.2 6.54 13.69
2/27/2021 3:30:00 AM 0.67 33.206 0.156 7.19 6.23 13.69
2/27/2021 3:45:00 AM 0.66 33.188 0.156 7.2 6.25 13.7
2/27/2021 4:00:00 AM 0.65 33.17 0.155 7.2 6.23 13.7
2/27/2021 4:15:00 AM 0.64 33.152 0.155 7.2 6.1 13.7
2/27/2021 4:30:00 AM 0.62 33.116 0.156 7.2 6.26 13.71
2/27/2021 4:45:00 AM 0.62 33.116 0.156 7.2 6.05 13.71
2/27/2021 5:00:00 AM 0.62 33.116 0.156 7.2 6.1 13.72
2/27/2021 5:15:00 AM 0.61 33.098 0.155 7.2 6.12 13.72
2/27/2021 5:30:00 AM 0.62 33.116 0.155 7.2 6.33 13.71
2/27/2021 5:45:00 AM 0.62 33.116 0.165 7.2 6.11 13.72
2/27/2021 6:00:00 AM 0.62 33.116 0.155 7.2 6.02 13.72
2/27/2021 6:15:00 AM 0.63 33.134 0.155 7.2 6.38 13.72
2/27/2021 6:30:00 AM 0.64 33.152 0.155 7.2 6.14 13.71
2/27/2021 6:45:00 AM 0.65 33.17 0.155 7.2 6.57 13.71
2/27/2021 7:00:00 AM 0.66 33.188 0.155 7.2 6.33 13.71
2/27/2021 7:15:00 AM 0.67 33.206 0.155 7.2 6.14 13.72
2/27/2021 7:30:00 AM 0.69 33.242 0.155 7.21 5.92 13.75
2/27/2021 7:45:00 AM 0.71 33.278 0.154 7.21 6.03 13.77
2/27/2021 8:00:00 AM 0.73 33.314 0.154 7.22 6.16 13.81
2/27/2021 8:15:00 AM 0.76 33.368 0.154 7.23 5.82 13.84
2/27/2021 8:30:00 AM 0.79 33.422 0.154 7.23 5.97 13.87
2/27/2021 8:45:00 AM 0.81 33.458 0.154 7.24 5.89 13.89
2/27/2021 9:00:00 AM 0.84 33.512 0.154 7.25 5.87 13.92
2/27/2021 9:15:00 AM 0.87 33.566 0.153 7.25 5.58 13.93
2/27/2021 9:30:00 AM 0.92 33.656 0.163 7.26 5.52 13.96
2/27/2021 9:45:00 AM 0.96 33.728 0.153 7.26 5.84 13.97
2/27/2021 10:00:00 AM 1.01 33.818 0.153 7.27 5.5 13.99
2/27/2021 10:15:00 AM 1.07 33.926 0.152 7.27 5.65 14
2/27/2021 10:30:00 AM 1.11 33.998 0.152 7.28 5.8 14.01
2/27/2021 10:45:00 AM 1.17 34.106 0.152 7.28 5.68 14.02
2/27/2021 11:00:00 AM 1.22 34.196 0.152 7.28 5.65 14.02
2/27/2021 11:15:00 AM 1.25 34.25 0.151 7.29 5.45 14.02
2/27/2021 11:30:00 AM 1.3 34.34 0.151 7.29 5.8 14.02
2/27/2021 11:45:00 AM 1.38 34.484 0.151 7.3 5.64 14.02
2/27/2021 12:00:00 PM 1.43 34.574 0.151 7.3 5.7 14.02
2/27/2021 12:15:00 PM 1.47 34.646 0.151 7.3 5.85 14
2/27/2021 12:30:00 PM 1.49 34.682 0.151 7.31 5.61 13.99
2/27/2021 12:45:00 PM 1.54 34.772 0.151 7.31 5.7 13.99
2/27/2021 1:00:00 PM 1.68 35.024 0.151 7.31 5.85 13.99
2/27/2021 1:15:00 PM 1.78 35.204 0.151 7.31 6.01 13.98
2/27/2021 1:30:00 PM 1.86 35.348 0.151 7.31 6.21 13.97
2/27/2021 1:45:00 PM 1.94 35.492 0.151 7.32 6.34 13.96
2/27/2021 2:00:00 PM 2 35.6 0.152 7.33 6.45 13.94
2/27/2021 2:15:00 PM 2.05 35.69 0.162 7.32 6.73 13.93
2/27/2021 2:30:00 PM 2.15 35.87 0.163 7.33 7.04 13.93
2/27/2021 2:45:00 PM 2.2 35.96 0.164 7.33 7.61 13.92
2/27/2021 3:00:00 PM 2.32 36.176 0.165 7.33 8.66 13.9
2/27/2021 3:15:00 PM 2.42 36.356 0.167 7.33 8.91 13.9
2/27/2021 3:30:00 PM 2.46 36.428 0.169 7.34 10.25 13.87
2/27/2021 3:45:00 PM 2.53 36.554 0.171 7.34 11.17 13.85
2/27/2021 4:00:00 PM 2.52 36.536 0.173 7.34 12.27 13.82
2/27/2021 4:15:00 PM 2.52 36.536 0.175 7.34 11.86 13.79
2/27/2021 4:30:00 PM 2.5 36.5 0.177 7.34 12.72 13.77
2/27/2021 4:45:00 PM 2.47 36.446 0.179 7.33 11.89 13.73
2/27/2021 5:00:00 PM 2.42 36.356 0.18 7.33 12.51 13.7
2/27/2021 5:15:00 PM 2.38 36.284 0.181 7.33 11.65 13.66
2/27/2021 5:30:00 PM 2.33 36.194 0.182 7.32 12.18 13.62
2/27/2021 5:45:00 PM 2.29 36.122 0.182 7.31 10.78 13.57
2/27/2021 6:00:00 PM 2.24 36.032 0.183 7.3 11.5 13.53
2/27/2021 6:15:00 PM 2.2 35.96 0.183 7.28 10.82 13.49
2/27/2021 6:30:00 PM 2.15 35.87 0.183 7.28 10.84 13.46
2/27/2021 6:45:00 PM 2.11 35.798 0.184 7.27 10.43 13.44
2/27/2021 7:00:00 PM 2.07 35.726 0.185 7.27 10.73 13.42
2/27/2021 7:15:00 PM 2.04 35.672 0.186 7.26 9.92 13.41
2/27/2021 7:30:00 PM 2.01 35.618 0.187 7.26 10.15 13.4
2/27/2021 7:45:00 PM 1.97 35.546 0.188 7.25 9.57 13.4
2/27/2021 8:00:00 PM 1.93 35.474 0.189 7.24 10.01 13.39
2/27/2021 8:15:00 PM 1.89 35.402 0.19 7.24 10.53 13.39
2/27/2021 8:30:00 PM 1.83 35.294 0.19 7.24 9.58 13.4
2/27/2021 8:45:00 PM 1.77 35.186 0.191 7.24 9.84 13.41
2/27/2021 9:00:00 PM 1.71 35.078 0.191 7.23 10.11 13.41
2/27/2021 9:15:00 PM 1.66 34.988 0.191 7.22 10.67 13.42
2/27/2021 9:30:00 PM 1.61 34.898 0.191 7.22 9.82 13.43
2/27/2021 9:45:00 PM 1.57 34.826 0.19 7.22 9.95 13.43
2/27/2021 10:00:00 PM 1.52 34.736 0.19 7.22 9.76 13.44
2/27/2021 10:15:00 PM 1.47 34.646 0.19 7.21 10.01 13.45
2/27/2021 10:30:00 PM 1.43 34.574 0.189 7.21 10 13.46
2/27/2021 10:45:00 PM 1.37 34.466 0.189 7.2 10.08 13.48
2/27/2021 11:00:00 PM 1.33 34.394 0.189 7.21 10.46 13.49
2/27/2021 11:15:00 PM 1.28 34.304 0.189 7.21 9.83 13.5
2/27/2021 11:30:00 PM 1.23 34.214 0.189 7.2 10.38 13.51
2/27/2021 11:45:00 PM 1.18 34.124 0.188 7.19 9.87 13.53
2/28/2021 12:00:00 AM 1.13 34.034 0.188 7.19 10.06 13.55
2/28/2021 12:15:00 AM 1.08 33.944 0.188 7.2 9.97 13.56
2/28/2021 12:30:00 AM 1.04 33.872 0.187 7.19 9.87 13.58
2/28/2021 12:45:00 AM 0.99 33.782 0.187 7.18 10.36 13.6
2/28/2021 1:00:00 AM 0.94 33.692 0.187 7.19 10.56 13.61
2/28/2021 1:15:00 AM 0.9 33.62 0.186 7.19 10.39 13.62
2/28/2021 1:30:00 AM 0.86 33.548 0.186 7.19 10.01 13.64
2/28/2021 1:45:00 AM 0.82 33.476 0.186 7.18 10.66 13.65
2/28/2021 2:00:00 AM 0.79 33.422 0.185 7.18 9.85 13.66
2/28/2021 2:15:00 AM 0.76 33.368 0.185 7.18 10.06 13.68
2/28/2021 2:30:00 AM 0.73 33.314 0.185 7.18 9.95 13.69
2/28/2021 2:45:00 AM 0.71 33.278 0.184 7.18 9.7 13.7
2/28/2021 3:00:00 AM 0.69 33.242 0.184 7.18 9.91 13.7
2/28/2021 3:15:00 AM 0.66 33.188 0.184 7.18 10.07 13.71
2/28/2021 3:30:00 AM 0.65 33.17 0.184 7.18 10.13 13.72
2/28/2021 3:45:00 AM 0.63 33.134 0.184 7.18 9.74 13.73
2/28/2021 4:00:00 AM 0.61 33.098 0.183 7.18 9.69 13.73
2/28/2021 4:15:00 AM 0.59 33.062 0.183 7.17 9.73 13.74
2/28/2021 4:30:00 AM 0.58 33.044 0.183 7.18 9.08 13.75
2/28/2021 4:45:00 AM 0.56 33.008 0.182 7.18 8.85 13.75
2/28/2021 5:00:00 AM 0.55 32.99 0.181 7.18 9.1 13.76
2/28/2021 5:15:00 AM 0.54 32.972 0.181 7.18 8.61 13.76
2/28/2021 5:30:00 AM 0.53 32.954 0.181 7.18 8.63 13.76
2/28/2021 5:45:00 AM 0.52 32.936 0.18 7.17 8.49 13.77
2/28/2021 6:00:00 AM 0.51 32.918 0.18 7.18 8.27 13.77
2/28/2021 6:15:00 AM 0.51 32.918 0.179 7.17 8.37 13.78
2/28/2021 6:30:00 AM 0.5 32.9 0.179 7.17 8.15 13.78
2/28/2021 6:45:00 AM 0.5 32.9 0.178 7.17 7.7 13.78
2/28/2021 7:00:00 AM 0.5 32.9 0.178 7.18 8 13.79
2/28/2021 7:15:00 AM 0.5 32.9 0.177 7.18 8.33 13.81
2/28/2021 7:30:00 AM 0.51 32.918 0.166 7.18 7.87 13.85
2/28/2021 7:45:00 AM 0.52 32.936 0.176 7.19 7.87 13.88
2/28/2021 8:00:00 AM 0.54 32.972 0.176 7.2 7.51 13.92
2/28/2021 8:15:00 AM 0.56 33.008 0.175 7.2 7.76 13.95
2/28/2021 8:30:00 AM 0.59 33.062 0.174 7.21 7.93 13.98
2/28/2021 8:45:00 AM 0.62 33.116 0.163 7.22 7.54 14.01
2/28/2021 9:00:00 AM 0.64 33.152 0.163 7.22 7.55 14.03
2/28/2021 9:15:00 AM 0.68 33.224 0.163 7.22 7.17 14.05
2/28/2021 9:30:00 AM 0.71 33.278 0.173 7.22 7.43 14.06
2/28/2021 9:45:00 AM 0.75 33.35 0.172 7.24 7.32 14.09
2/28/2021 10:00:00 AM 0.79 33.422 0.172 7.24 7.16 14.11
2/28/2021 10:15:00 AM 0.85 33.53 0.161 7.24 7.54 14.12
2/28/2021 10:30:00 AM 0.91 33.638 0.171 7.25 7.39 14.13
2/28/2021 10:45:00 AM 0.96 33.728 0.17 7.26 7.31 14.14
2/28/2021 11:00:00 AM 1.01 33.818 0.16 7.26 7.26 14.15
2/28/2021 11:15:00 AM 1.05 33.89 0.17 7.26 7.26 14.14
2/28/2021 11:30:00 AM 1.1 33.98 0.169 7.27 7.07 14.14
2/28/2021 11:45:00 AM 1.13 34.034 0.169 7.27 7.12 14.13
2/28/2021 12:00:00 PM 1.18 34.124 0.169 7.27 7.03 14.13
2/28/2021